ftp/pub/palmer/observations_modified/2019/November/AR191122_BASE.txt

Download

Sample DateTime	Unit Id	WS Avg 2min	WD Avg 2min	WGS 10min	WGD 10min	Air Temp	Rel Humidity	Dew Point	Pyranometer	Quantum	Air Pressure	Snow Level	Rainfall	PW Current	Visibility	CBase 1	CBase 2	CBase 3	Vert Vis
2019/11/22 00:00:00	BASE	1.84	242	2.68	243	-3.5	75	-7.3	39	0	989.4	NA	0.0000		9999	11190	0	0	0
2019/11/22 00:01:00	BASE	1.46	241	2.68	243	-3.4	75	-7.2	39	0	989.4	NA	0.0000		9999	11220	0	0	0
2019/11/22 00:02:00	BASE	1.39	239	2.68	243	-3.5	75	-7.2	40	0	989.4	NA	0.0000		9999	11250	0	0	0
2019/11/22 00:03:00	BASE	1.39	240	2.68	243	-3.5	76	-7.1	41	0	989.4	NA	0.0000		9999	11120	0	0	0
2019/11/22 00:04:00	BASE	1.18	250	2.57	245	-3.5	76	-7.0	42	0	989.3	NA	0.0000		9999	11190	0	0	0
2019/11/22 00:05:00	BASE	1.19	243	2.37	244	-3.5	76	-7.0	43	0	989.3	NA	0.0000		9999	11220	0	0	0
2019/11/22 00:06:00	BASE	1.64	216	2.52	190	-3.5	76	-7.0	44	0	989.3	NA	0.0000		9999	11120	0	0	0
2019/11/22 00:07:00	BASE	2.11	204	2.52	203	-3.5	76	-7.0	45	0	989.3	NA	0.0000		9999	11160	0	0	0
2019/11/22 00:08:00	BASE	2.23	201	2.52	203	-3.5	76	-7.1	46	0	989.4	NA	0.0000		9999	11120	0	0	0
2019/11/22 00:09:01	BASE	2.22	195	2.52	203	-3.5	76	-7.2	46	0	989.4	NA	0.0000		9999	11160	0	0	0
2019/11/22 00:10:00	BASE	2.31	184	2.83	175	-3.5	76	-7.2	46	0	989.4	NA	0.0000		9999	11160	0	0	0
2019/11/22 00:11:00	BASE	2.36	177	2.83	175	-3.5	75	-7.3	46	0	989.4	NA	0.0000		9999	11190	0	0	0
2019/11/22 00:12:00	BASE	2.33	177	2.83	175	-3.5	75	-7.3	45	0	989.4	NA	0.0000		9999	11160	0	0	0
2019/11/22 00:13:00	BASE	2.31	167	2.83	175	-3.5	75	-7.3	44	0	989.4	NA	0.0000		9999	11090	0	0	0
2019/11/22 00:14:00	BASE	2.54	151	2.98	142	-3.5	75	-7.3	43	0	989.4	NA	0.0000		9999	11160	0	0	0
2019/11/22 00:15:00	BASE	2.76	142	3.09	139	-3.5	75	-7.2	42	0	989.3	NA	0.0000		9999	11190	0	0	0
2019/11/22 00:16:00	BASE	2.52	138	3.09	139	-3.6	76	-7.2	41	0	989.3	NA	0.0000		9999	11160	0	0	0
2019/11/22 00:17:00	BASE	2.41	138	3.09	139	-3.6	77	-7.1	39	0	989.3	NA	0.0000		9999	11160	0	0	0
2019/11/22 00:18:00	BASE	2.45	139	3.09	139	-3.6	78	-7.0	38	0	989.4	NA	0.0000		9999	11120	0	0	0
2019/11/22 00:19:00	BASE	2.27	136	3.09	139	-3.7	78	-6.9	37	0	989.4	NA	0.0000		9999	11160	0	0	0
2019/11/22 00:20:00	BASE	2.21	136	3.09	139	-3.7	79	-6.9	36	0	989.4	NA	0.0000		9999	11120	0	0	0
2019/11/22 00:21:00	BASE	2.10	134	3.09	139	-3.7	79	-6.8	34	0	989.4	NA	0.0000		9999	11090	0	0	0
2019/11/22 00:22:00	BASE	2.05	126	3.09	139	-3.7	79	-6.8	33	0	989.4	NA	0.0000		9999	11090	0	0	0
2019/11/22 00:23:00	BASE	2.10	120	3.09	139	-3.7	79	-6.8	32	0	989.4	NA	0.0000		9999	11090	0	0	0
2019/11/22 00:24:00	BASE	2.17	122	3.09	139	-3.7	79	-6.8	31	0	989.4	NA	0.0000		9999	11120	0	0	0
2019/11/22 00:25:00	BASE	2.22	123	2.88	140	-3.7	79	-6.9	31	0	989.4	NA	0.0000		9999	11020	0	0	0
2019/11/22 00:26:00	BASE	2.20	117	2.88	140	-3.7	78	-6.9	30	0	989.4	NA	0.0000		9999	8920	11020	0	0
2019/11/22 00:27:00	BASE	2.13	113	2.73	137	-3.7	78	-6.9	29	0	989.4	NA	0.0000		9999	11020	0	0	0
2019/11/22 00:28:00	BASE	2.14	110	2.78	103	-3.7	78	-7.0	29	0	989.4	NA	0.0000		9999	10960	0	0	0
2019/11/22 00:29:00	BASE	2.47	103	2.83	99	-3.7	78	-6.9	29	0	989.4	NA	0.0000		9999	10990	0	0	0
2019/11/22 00:30:00	BASE	2.60	101	2.83	99	-3.7	78	-6.9	28	0	989.4	NA	0.0000		9999	8920	10960	0	0
2019/11/22 00:31:00	BASE	2.42	102	2.83	99	-3.6	79	-6.8	27	0	989.4	NA	0.0000		9999	10660	0	0	0
2019/11/22 00:32:00	BASE	2.23	107	2.83	99	-3.7	79	-6.7	27	0	989.4	NA	0.0000		9999	10960	0	0	0
2019/11/22 00:33:00	BASE	2.14	108	2.83	99	-3.7	80	-6.7	26	0	989.4	NA	0.0000		9999	10960	0	0	0
2019/11/22 00:34:00	BASE	2.32	105	2.83	99	-3.7	80	-6.6	26	0	989.4	NA	0.0000		9999	11020	0	0	0
2019/11/22 00:35:00	BASE	2.05	112	2.83	99	-3.6	80	-6.6	25	0	989.4	NA	0.0000		9999	11120	0	0	0
2019/11/22 00:36:00	BASE	1.69	115	2.83	99	-3.6	80	-6.6	25	0	989.4	NA	0.0000		9999	10990	0	0	0
2019/11/22 00:37:00	BASE	1.97	110	2.83	99	-3.6	80	-6.6	24	0	989.4	NA	0.0000		9999	11020	0	0	0
2019/11/22 00:38:00	BASE	2.21	109	2.83	99	-3.6	80	-6.6	24	0	989.4	NA	0.0000		9999	10960	0	0	0
2019/11/22 00:39:00	BASE	2.13	109	2.73	102	-3.6	79	-6.6	23	0	989.3	NA	0.0000		9999	11090	0	0	0
2019/11/22 00:40:00	BASE	2.16	110	2.73	102	-3.6	79	-6.7	22	0	989.3	NA	0.0000		9999	11060	0	0	0
2019/11/22 00:41:00	BASE	2.29	112	2.62	110	-3.6	79	-6.7	21	0	989.3	NA	0.0000		9999	11090	0	0	0
2019/11/22 00:42:00	BASE	2.24	115	2.62	110	-3.6	79	-6.7	20	0	989.4	NA	0.0000		9999	10960	0	0	0
2019/11/22 00:43:00	BASE	2.13	112	2.62	110	-3.6	79	-6.8	20	0	989.4	NA	0.0000		9999	10990	0	0	0
2019/11/22 00:44:00	BASE	2.08	109	2.47	109	-3.6	78	-6.8	19	0	989.4	NA	0.0000		9999	10930	0	0	0
2019/11/22 00:45:00	BASE	2.06	111	2.47	109	-3.6	78	-6.8	18	0	989.4	NA	0.0000		9999	11020	0	0	0
2019/11/22 00:46:00	BASE	2.17	115	2.52	113	-3.6	78	-6.9	17	0	989.3	NA	0.0000		9999	10960	0	0	0
2019/11/22 00:47:00	BASE	2.21	121	2.52	113	-3.6	78	-6.9	17	0	989.3	NA	0.0000		9999	10300	0	0	0
2019/11/22 00:48:00	BASE	2.11	127	2.52	113	-3.6	78	-6.9	16	0	989.2	NA	0.0000		9999	8990	9740	10730	0
2019/11/22 00:49:00	BASE	2.11	131	2.52	113	-3.6	78	-6.9	16	0	989.3	NA	0.0000		9999	8860	10760	0	0
2019/11/22 00:50:00	BASE	2.03	132	2.52	113	-3.6	78	-6.9	16	0	989.3	NA	0.0000		9999	10930	0	0	0
2019/11/22 00:51:00	BASE	1.85	130	2.52	113	-3.6	77	-7.0	15	0	989.3	NA	0.0000		9999	10930	0	0	0
2019/11/22 00:52:00	BASE	1.64	122	2.52	113	-3.6	77	-7.0	15	0	989.2	NA	0.0000		9999	8890	10860	0	0
2019/11/22 00:53:00	BASE	1.53	114	2.52	113	-3.5	77	-7.1	15	0	989.2	NA	0.0000		9999	8860	10760	0	0
2019/11/22 00:54:00	BASE	1.69	108	2.52	113	-3.5	76	-7.1	15	0	989.2	NA	0.0000		9999	8860	10990	0	0
2019/11/22 00:55:00	BASE	1.87	105	2.52	113	-3.5	75	-7.2	15	0	989.2	NA	0.0000		9999	10960	0	0	0
2019/11/22 00:56:00	BASE	2.28	105	2.88	102	-3.5	75	-7.3	15	0	989.2	NA	0.0000		9999	10960	0	0	0
2019/11/22 00:57:00	BASE	2.62	104	2.88	102	-3.5	75	-7.3	15	0	989.2	NA	0.0000		9999	8920	11020	0	0
2019/11/22 00:58:00	BASE	2.54	107	2.88	102	-3.5	75	-7.3	14	0	989.2	NA	0.0000		9999	8890	10990	0	0
2019/11/22 00:59:00	BASE	2.40	113	2.88	102	-3.5	75	-7.3	14	0	989.2	NA	0.0000		9999	8830	10990	0	0
2019/11/22 01:00:00	BASE	2.12	120	2.88	102	-3.5	75	-7.2	14	0	989.2	NA	0.0000		9999	8830	10860	0	0
2019/11/22 01:01:00	BASE	2.05	116	2.88	102	-3.5	76	-7.2	14	0	989.2	NA	0.0000		9999	8830	10960	0	0
2019/11/22 01:02:00	BASE	2.34	108	2.88	102	-3.5	75	-7.2	14	0	989.2	NA	0.0000		9999	8790	10930	0	0
2019/11/22 01:03:00	BASE	2.52	111	2.88	102	-3.5	75	-7.3	14	0	989.2	NA	0.0000		9999	10990	0	0	0
2019/11/22 01:04:00	BASE	2.30	121	2.88	102	-3.4	74	-7.3	14	0	989.2	NA	0.0000		9999	10990	0	0	0
2019/11/22 01:05:00	BASE	2.02	133	2.88	102	-3.4	73	-7.5	13	0	989.2	NA	0.0000		9999	10990	0	0	0
2019/11/22 01:06:00	BASE	1.90	141	2.78	113	-3.4	73	-7.6	13	0	989.2	NA	0.0000		9999	11060	0	0	0
2019/11/22 01:07:00	BASE	1.72	141	2.78	113	-3.4	72	-7.7	12	0	989.1	NA	0.0000		9999	11020	0	0	0
2019/11/22 01:08:00	BASE	1.68	131	2.78	113	-3.4	72	-7.8	12	0	989.1	NA	0.0000		9999	11020	0	0	0
2019/11/22 01:09:00	BASE	1.77	128	2.78	113	-3.4	71	-7.8	11	0	989.1	NA	0.0000		9999	10960	0	0	0
2019/11/22 01:10:00	BASE	1.70	143	2.78	113	-3.4	72	-7.8	11	0	989.1	NA	0.0000		9999	10990	0	0	0
2019/11/22 01:11:00	BASE	1.91	146	2.78	113	-3.4	72	-7.8	10	0	989.1	NA	0.0000		9999	10990	0	0	0
2019/11/22 01:12:00	BASE	2.46	133	2.93	138	-3.4	72	-7.8	9	0	989.1	NA	0.0000		9999	10890	0	0	0
2019/11/22 01:13:00	BASE	2.34	136	2.93	138	-3.4	72	-7.7	9	0	989.1	NA	0.0000		9999	10860	0	0	0
2019/11/22 01:14:00	BASE	2.04	142	2.93	138	-3.4	72	-7.7	8	0	989.1	NA	0.0000		9999	10930	0	0	0
2019/11/22 01:15:00	BASE	1.93	148	2.93	138	-3.4	71	-7.8	7	0	989.1	NA	0.0000		9999	10960	0	0	0
2019/11/22 01:16:00	BASE	1.85	154	2.93	138	-3.3	71	-7.8	7	0	989.1	NA	0.0000		9999	10890	0	0	0
2019/11/22 01:17:00	BASE	1.79	152	2.93	138	-3.3	71	-7.9	6	0	989.1	NA	0.0000		9999	8920	10760	0	0
2019/11/22 01:18:00	BASE	1.71	141	2.93	138	-3.3	71	-7.9	6	0	989.1	NA	0.0000		9999	8960	10830	0	0
2019/11/22 01:19:00	BASE	1.73	135	2.93	138	-3.3	71	-7.9	6	0	989.1	NA	0.0000		9999	8890	10830	0	0
2019/11/22 01:20:00	BASE	1.70	138	2.93	138	-3.4	71	-7.8	5	0	989.1	NA	0.0000		9999	8920	10960	0	0
2019/11/22 01:21:00	BASE	1.66	136	2.93	138	-3.4	72	-7.8	5	0	989.1	NA	0.0000		9999	8890	10830	0	0
2019/11/22 01:22:00	BASE	1.53	135	2.42	138	-3.4	72	-7.8	5	0	989.1	NA	0.0000		9999	10860	0	0	0
2019/11/22 01:23:00	BASE	1.44	140	2.31	145	-3.4	71	-7.8	4	0	989.1	NA	0.0000		9999	10760	0	0	0
2019/11/22 01:24:00	BASE	1.60	143	2.11	154	-3.4	71	-7.9	4	0	989.1	NA	0.0000		9999	10830	0	0	0
2019/11/22 01:25:00	BASE	1.82	145	2.11	154	-3.4	71	-7.9	4	0	989.1	NA	0.0000		9999	10930	0	0	0
2019/11/22 01:26:00	BASE	1.79	134	2.06	145	-3.4	71	-7.9	4	0	989.1	NA	0.0000		9999	8960	10960	0	0
2019/11/22 01:27:00	BASE	1.31	119	2.06	145	-3.4	71	-7.9	4	0	989.1	NA	0.0000		9999	10930	0	0	0
2019/11/22 01:28:00	BASE	1.08	101	2.06	145	-3.4	71	-7.9	4	0	989.1	NA	0.0000		9999	10990	0	0	0
2019/11/22 01:29:00	BASE	1.64	94	2.68	113	-3.4	71	-7.9	4	0	989.1	NA	0.0000		9999	10930	0	0	0
2019/11/22 01:30:00	BASE	2.29	110	2.83	115	-3.4	71	-7.9	4	0	989.1	NA	0.0000		9999	11020	0	0	0
2019/11/22 01:31:00	BASE	2.37	124	2.83	115	-3.3	70	-8.1	3	0	989.1	NA	0.0000		9999	10890	0	0	0
2019/11/22 01:32:00	BASE	2.43	125	3.09	117	-3.3	69	-8.1	3	0	989.1	NA	0.0000		9999	10890	0	0	0
2019/11/22 01:33:00	BASE	2.80	119	3.19	122	-3.3	69	-8.2	3	0	989.1	NA	0.0000		9999	10890	0	0	0
2019/11/22 01:34:00	BASE	3.06	113	3.60	110	-3.3	68	-8.3	3	0	989.1	NA	0.0000		9999	10790	0	0	0
2019/11/22 01:35:00	BASE	3.37	111	3.76	112	-3.3	68	-8.3	3	0	989.1	NA	0.0000		9999	10530	0	0	0
2019/11/22 01:36:00	BASE	3.81	110	4.58	103	-3.3	69	-8.2	3	0	989.0	NA	0.0000		9999	10700	0	0	0
2019/11/22 01:37:00	BASE	4.45	106	5.04	103	-3.4	69	-8.2	3	0	989.0	NA	0.0000		9999	10760	0	0	0
2019/11/22 01:38:00	BASE	4.87	103	5.09	104	-3.4	70	-8.2	3	0	989.0	NA	0.0000		9999	10760	0	0	0
2019/11/22 01:39:00	BASE	4.87	101	5.09	102	-3.4	70	-8.1	3	0	989.0	NA	0.0000		9999	10830	0	0	0
2019/11/22 01:40:00	BASE	4.75	99	5.09	102	-3.5	70	-8.1	3	0	989.0	NA	0.0000		9999	10890	0	0	0
2019/11/22 01:41:00	BASE	4.70	99	5.09	102	-3.5	71	-8.0	3	0	989.0	NA	0.0000		9999	10890	0	0	0
2019/11/22 01:42:00	BASE	4.75	102	5.09	102	-3.5	71	-8.0	2	0	989.0	NA	0.0000		9999	10700	0	0	0
2019/11/22 01:43:00	BASE	4.65	103	5.09	102	-3.5	72	-7.9	2	0	989.0	NA	0.0000		9999	9250	10930	0	0
2019/11/22 01:44:00	BASE	4.67	104	5.20	105	-3.5	72	-7.8	2	0	989.0	NA	0.0000		9999	8690	0	0	0
2019/11/22 01:45:00	BASE	4.86	106	5.30	108	-3.5	73	-7.7	2	0	989.0	NA	0.0000		9999	8630	0	0	0
2019/11/22 01:46:00	BASE	4.79	109	5.30	108	-3.5	73	-7.6	2	0	989.0	NA	0.0000		9999	8630	10960	0	0
2019/11/22 01:47:00	BASE	4.95	107	5.45	104	-3.4	73	-7.6	2	0	989.0	NA	0.0000		9999	6920	8690	10860	0
2019/11/22 01:48:00	BASE	5.38	103	5.76	100	-3.3	72	-7.7	2	0	989.0	NA	0.0000		9999	6920	8600	0	0
2019/11/22 01:49:00	BASE	5.37	102	5.76	100	-3.3	71	-7.7	2	0	989.0	NA	0.0000		9999	6690	8530	0	0
2019/11/22 01:50:00	BASE	5.08	104	5.76	100	-3.2	71	-7.8	2	0	989.0	NA	0.0000		9999	6630	8560	0	0
2019/11/22 01:51:00	BASE	4.85	108	5.76	100	-3.2	70	-7.9	2	0	989.0	NA	0.0000		9999	6590	7740	8630	0
2019/11/22 01:52:00	BASE	4.48	111	5.76	100	-3.1	70	-7.9	2	0	989.0	NA	0.0000		9999	6500	7740	8600	0
2019/11/22 01:53:00	BASE	4.19	109	5.76	100	-3.1	69	-7.9	2	0	989.0	NA	0.0000		9999	6330	8500	0	0
2019/11/22 01:54:00	BASE	4.15	107	5.76	100	-3.0	69	-8.0	2	0	988.9	NA	0.0000		9999	6140	7610	8500	0
2019/11/22 01:55:00	BASE	4.48	107	5.76	100	-3.0	68	-8.1	2	0	988.9	NA	0.0000		9999	5910	7020	7740	0
2019/11/22 01:56:00	BASE	4.87	109	5.76	100	-3.0	68	-8.1	1	0	988.9	NA	0.0000		9999	5770	8430	0	0
2019/11/22 01:57:00	BASE	4.77	113	5.76	100	-3.0	68	-8.2	1	0	988.8	NA	0.0000		9999	5770	7480	8530	0
2019/11/22 01:58:00	BASE	4.96	117	5.97	117	-3.0	67	-8.2	1	0	988.7	NA	0.0000		9999	5770	7780	0	0
2019/11/22 01:59:00	BASE	5.10	123	5.97	117	-3.0	67	-8.2	1	0	988.7	NA	0.0000		9999	5710	6960	0	0
2019/11/22 02:00:00	BASE	5.12	123	5.97	117	-3.0	67	-8.2	1	0	988.7	NA	0.0000		9999	5740	7580	0	0
2019/11/22 02:01:00	BASE	5.53	124	6.28	127	-3.0	67	-8.3	1	0	988.7	NA	0.0000		9999	5840	7550	0	0
2019/11/22 02:02:00	BASE	5.68	126	6.28	127	-3.0	67	-8.3	1	0	988.7	NA	0.0000		9999	5940	7280	0	0
2019/11/22 02:03:00	BASE	5.42	125	6.28	127	-3.1	68	-8.2	1	0	988.7	NA	0.0000		9999	5640	0	0	0
2019/11/22 02:04:00	BASE	5.09	124	6.28	127	-3.1	68	-8.2	1	0	988.7	NA	0.0000		9999	5090	0	0	0
2019/11/22 02:05:00	BASE	4.74	120	6.28	127	-3.2	69	-8.1	1	0	988.8	NA	0.0000		9999	5250	0	0	0
2019/11/22 02:06:00	BASE	4.52	115	6.28	127	-3.2	69	-8.0	1	0	988.9	NA	0.0000		9999	5810	7020	0	0
2019/11/22 02:07:00	BASE	4.66	114	6.28	127	-3.2	70	-8.0	1	0	988.9	NA	0.0000		9999	5940	0	0	0
2019/11/22 02:08:00	BASE	4.53	113	6.28	127	-3.2	70	-7.9	1	0	988.9	NA	0.0000		9999	5410	5970	6860	0
2019/11/22 02:09:00	BASE	4.20	113	6.28	127	-3.1	69	-7.9	1	0	988.9	NA	0.0000		9999	5250	6790	0	0
2019/11/22 02:10:00	BASE	4.08	114	6.28	127	-3.1	69	-8.0	1	0	988.9	NA	0.0000		9999	5150	6790	0	0
2019/11/22 02:11:00	BASE	4.19	116	6.02	128	-3.1	68	-8.1	1	0	988.9	NA	0.0000		9999	5150	6790	0	0
2019/11/22 02:12:00	BASE	4.29	116	5.86	126	-3.0	67	-8.2	1	0	988.9	NA	0.0000		9999	4920	6790	0	0
2019/11/22 02:13:00	BASE	4.32	115	5.61	125	-3.0	67	-8.3	1	0	988.8	NA	0.0000		9999	5220	0	0	0
2019/11/22 02:14:00	BASE	4.57	115	5.14	117	-3.1	67	-8.4	1	0	988.7	NA	0.0000		9999	5350	6730	0	0
2019/11/22 02:15:00	BASE	4.78	116	5.35	117	-3.1	67	-8.4	1	0	988.7	NA	0.0000		9999	5480	6790	0	0
2019/11/22 02:16:00	BASE	4.80	117	5.35	117	-3.1	67	-8.3	1	0	988.7	NA	0.0000		9999	5450	0	0	0
2019/11/22 02:17:00	BASE	4.80	117	5.35	117	-3.0	67	-8.3	1	0	988.7	NA	0.0000		9999	5580	6820	0	0
2019/11/22 02:18:00	BASE	4.72	117	5.35	117	-3.0	67	-8.3	0	0	988.8	NA	0.0000		9999	5610	6820	0	0
2019/11/22 02:19:00	BASE	4.37	118	5.35	117	-3.0	67	-8.3	1	0	988.9	NA	0.0000		9999	5680	6790	0	0
2019/11/22 02:20:00	BASE	4.01	117	5.35	117	-3.0	67	-8.3	0	0	988.9	NA	0.0000		9999	4630	6760	0	0
2019/11/22 02:21:00	BASE	3.90	114	5.35	117	-3.0	67	-8.3	0	0	988.9	NA	0.0000		9999	4630	6730	0	0
2019/11/22 02:22:00	BASE	3.76	116	5.35	117	-3.0	67	-8.3	0	0	989.0	NA	0.0000		9999	4630	6690	0	0
2019/11/22 02:23:00	BASE	3.61	118	5.35	117	-3.0	67	-8.2	0	0	989.0	NA	0.0000		9999	4530	6690	0	0
2019/11/22 02:24:00	BASE	3.52	116	5.35	117	-3.1	68	-8.2	0	0	989.0	NA	0.0000		9999	4330	6730	0	0
2019/11/22 02:25:00	BASE	3.45	115	5.14	113	-3.1	68	-8.2	0	0	989.0	NA	0.0000		9999	4400	0	0	0
2019/11/22 02:26:00	BASE	3.34	115	5.04	109	-3.1	69	-8.1	0	0	989.0	NA	0.0000		9999	4400	0	0	0
2019/11/22 02:27:00	BASE	3.12	115	4.99	118	-3.2	69	-8.0	0	0	989.0	NA	0.0000		9999	4360	0	0	0
2019/11/22 02:28:00	BASE	2.90	119	4.58	120	-3.2	70	-7.9	0	0	989.0	NA	0.0000		9999	4360	6760	0	0
2019/11/22 02:29:00	BASE	2.69	121	4.42	119	-3.2	70	-7.9	0	0	989.1	NA	0.0000		9999	4230	5970	0	0
2019/11/22 02:30:00	BASE	2.44	122	4.42	119	-3.2	71	-7.8	0	0	989.1	NA	0.0000		9999	4170	0	0	0
2019/11/22 02:31:00	BASE	2.34	122	3.91	119	-3.2	71	-7.7	0	0	989.1	NA	0.0000		9999	4920	0	0	0
2019/11/22 02:32:00	BASE	2.41	121	3.86	116	-3.3	72	-7.6	0	0	989.1	NA	0.0000		9999	4890	6000	0	0
2019/11/22 02:33:00	BASE	2.39	119	3.86	116	-3.3	72	-7.5	0	0	989.1	NA	0.0000		9999	4820	6070	6690	0
2019/11/22 02:34:00	BASE	2.19	120	3.81	118	-3.3	73	-7.5	0	0	989.1	NA	0.0000		9999	6100	6690	0	0
2019/11/22 02:35:00	BASE	1.94	124	3.60	117	-3.3	73	-7.4	0	0	989.1	NA	0.0000		9999	4950	6200	0	0
2019/11/22 02:36:00	BASE	1.50	136	3.34	115	-3.3	74	-7.4	0	0	989.1	NA	0.0000		9999	4590	0	0	0
2019/11/22 02:37:00	BASE	1.12	150	3.09	123	-3.3	74	-7.3	0	0	989.1	NA	0.0000		9999	4630	0	0	0
2019/11/22 02:38:00	BASE	1.45	160	2.88	128	-3.4	75	-7.2	0	0	989.1	NA	0.0000		9999	4660	6400	0	0
2019/11/22 02:39:00	BASE	1.91	162	2.78	125	-3.4	76	-7.1	0	0	989.1	NA	0.0000		9999	4890	6370	0	0
2019/11/22 02:40:00	BASE	1.99	160	2.78	125	-3.4	77	-6.9	0	0	989.1	NA	0.0000		9999	4790	6400	0	0
2019/11/22 02:41:00	BASE	1.72	167	2.78	125	-3.4	78	-6.8	0	0	989.1	NA	0.0000		9999	4820	6270	0	0
2019/11/22 02:42:00	BASE	1.33	183	2.68	116	-3.4	79	-6.6	0	0	989.1	NA	0.0000		9999	4790	6270	0	0
2019/11/22 02:43:00	BASE	1.23	193	2.42	147	-3.5	80	-6.5	0	0	989.1	NA	0.0000		9999	4790	6200	0	0
2019/11/22 02:44:00	BASE	1.28	192	2.42	147	-3.5	80	-6.4	0	0	989.1	NA	0.0000		9999	4790	5410	0	0
2019/11/22 02:45:00	BASE	0.85	184	2.42	147	-3.5	81	-6.3	0	0	989.0	NA	0.0000		9999	4790	5450	0	0
2019/11/22 02:46:00	BASE	0.61	181	2.42	147	-3.5	82	-6.2	0	0	989.0	NA	0.0000		9999	4790	6040	0	0
2019/11/22 02:47:00	BASE	0.66	163	2.42	147	-3.5	82	-6.1	0	0	989.0	NA	0.0000		9999	4790	6000	0	0
2019/11/22 02:48:00	BASE	0.31	143	2.31	153	-3.5	83	-6.0	0	0	989.0	NA	0.0000		9999	4790	5350	0	0
2019/11/22 02:49:00	BASE	0.09	131	2.31	153	-3.5	83	-6.0	0	0	989.1	NA	0.0000		9999	4790	6040	0	0
2019/11/22 02:50:00	BASE	0.05	123	1.75	181	-3.5	83	-6.0	0	0	989.1	NA	0.0000		9999	4720	0	0	0
2019/11/22 02:51:00	BASE	0.00	116	1.54	194	-3.4	82	-6.0	0	0	989.1	NA	0.0000		9999	4760	0	0	0
2019/11/22 02:52:00	BASE	0.00	110	1.54	194	-3.4	82	-6.0	0	0	989.0	NA	0.0000		9999	4690	0	0	0
2019/11/22 02:53:00	BASE	0.00	125	1.54	194	-3.4	82	-6.0	0	0	989.0	NA	0.0000		9999	4590	0	0	0
2019/11/22 02:54:00	BASE	0.00	139	1.54	194	-3.5	82	-6.0	0	0	989.0	NA	0.0000		9999	4560	0	0	0
2019/11/22 02:55:00	BASE	0.00	133	1.23	179	-3.5	82	-6.0	0	0	989.0	NA	0.0000		9999	4590	0	0	0
2019/11/22 02:56:00	BASE	0.00	138	1.18	146	-3.5	82	-6.0	0	0	989.0	NA	0.0000		9999	4630	0	0	0
2019/11/22 02:57:00	BASE	0.00	165	1.08	125	-3.5	82	-6.1	0	0	989.0	NA	0.0000		9999	4630	0	0	0
2019/11/22 02:58:00	BASE	0.00	173	1.08	125	-3.5	82	-6.1	0	0	989.0	NA	0.0000		9999	4630	0	0	0
2019/11/22 02:59:01	BASE	0.36	170	1.13	179	-3.5	82	-6.1	0	0	989.0	NA	0.0000		9999	4630	0	0	0
2019/11/22 03:00:00	BASE	0.41	174	1.13	179	-3.5	82	-6.1	0	0	989.0	NA	0.0000		9999	4530	0	0	0
2019/11/22 03:01:00	BASE	0.05	174	1.13	179	-3.5	82	-6.1	0	0	988.9	NA	0.0000		9999	4530	0	0	0
2019/11/22 03:02:00	BASE	0.00	166	1.13	179	-3.5	83	-6.0	0	0	988.9	NA	0.0000		9999	4530	0	0	0
2019/11/22 03:03:00	BASE	0.00	155	1.13	179	-3.6	84	-5.9	0	0	988.9	NA	0.0000		9999	4460	0	0	0
2019/11/22 03:04:00	BASE	0.00	149	1.13	179	-3.6	84	-5.9	0	0	988.9	NA	0.0000		9999	4490	0	0	0
2019/11/22 03:05:00	BASE	0.00	148	1.13	179	-3.6	85	-5.8	0	0	988.9	NA	0.0000		9999	4490	0	0	0
2019/11/22 03:06:00	BASE	0.00	147	1.13	179	-3.6	85	-5.8	0	0	988.9	NA	0.0000		9999	4430	0	0	0
2019/11/22 03:07:00	BASE	0.00	146	1.13	179	-3.6	85	-5.7	0	0	988.9	NA	0.0000		9999	4400	0	0	0
2019/11/22 03:08:00	BASE	0.00	148	1.13	179	-3.6	86	-5.6	0	0	988.9	NA	0.0000		9999	4360	0	0	0
2019/11/22 03:09:00	BASE	0.00	326	1.08	176	-3.5	86	-5.5	0	0	988.9	NA	0.0000		9999	4360	0	0	0
2019/11/22 03:10:00	BASE	0.00	328	M	M	-3.5	87	-5.4	0	0	988.9	NA	0.0000		9999	4400	0	0	0
2019/11/22 03:11:00	BASE	0.00	328	M	M	-3.5	87	-5.4	0	0	988.9	NA	0.0000		9999	4430	0	0	0
2019/11/22 03:12:00	BASE	0.00	328	M	M	-3.5	87	-5.3	0	0	988.9	NA	0.0000		9999	4460	0	0	0
2019/11/22 03:13:00	BASE	0.00	272	M	M	-3.5	87	-5.4	0	0	988.9	NA	0.0000		9999	4530	0	0	0
2019/11/22 03:14:00	BASE	0.00	164	M	M	-3.5	87	-5.5	0	0	988.9	NA	0.0000		9999	4530	0	0	0
2019/11/22 03:15:00	BASE	0.00	162	M	M	-3.6	86	-5.5	0	0	988.9	NA	0.0000		9999	4490	0	0	0
2019/11/22 03:16:00	BASE	0.00	162	M	M	-3.6	86	-5.5	0	0	988.9	NA	0.0000		9999	4430	0	0	0
2019/11/22 03:17:00	BASE	0.00	158	M	M	-3.6	86	-5.6	0	0	988.9	NA	0.0000		9999	4430	0	0	0
2019/11/22 03:18:00	BASE	0.00	157	M	M	-3.6	86	-5.6	0	0	988.9	NA	0.0000		9999	4490	0	0	0
2019/11/22 03:19:00	BASE	0.00	158	M	M	-3.6	86	-5.6	0	0	988.9	NA	0.0000		9999	4530	0	0	0
2019/11/22 03:20:00	BASE	0.00	160	M	M	-3.6	86	-5.6	0	0	988.9	NA	0.0000		9999	4560	0	0	0
2019/11/22 03:21:00	BASE	0.00	162	M	M	-3.6	86	-5.6	0	0	988.9	NA	0.0000		9999	4590	0	0	0
2019/11/22 03:22:00	BASE	0.00	162	M	M	-3.6	86	-5.6	0	0	988.9	NA	0.0000		9999	4560	0	0	0
2019/11/22 03:23:00	BASE	0.00	163	M	M	-3.6	86	-5.6	0	0	988.9	NA	0.0000		9999	4560	0	0	0
2019/11/22 03:24:00	BASE	0.00	165	M	M	-3.6	86	-5.5	0	0	988.8	NA	0.0000		9999	4530	0	0	0
2019/11/22 03:25:00	BASE	0.00	171	M	M	-3.6	86	-5.5	0	0	988.8	NA	0.0000		9999	4490	0	0	0
2019/11/22 03:26:00	BASE	0.00	174	M	M	-3.6	86	-5.5	0	0	988.8	NA	0.0000		9999	4530	0	0	0
2019/11/22 03:27:00	BASE	0.00	174	M	M	-3.5	86	-5.5	0	0	988.9	NA	0.0000		9999	4490	0	0	0
2019/11/22 03:28:00	BASE	0.00	217	M	M	-3.5	86	-5.5	0	0	988.8	NA	0.0000		9999	4530	0	0	0
2019/11/22 03:29:00	BASE	0.00	275	M	M	-3.5	86	-5.5	0	0	988.7	NA	0.0000		9999	4530	0	0	0
2019/11/22 03:30:00	BASE	0.00	279	M	M	-3.5	86	-5.5	0	0	988.8	NA	0.0000		9999	4490	0	0	0
2019/11/22 03:31:00	BASE	0.00	285	M	M	-3.5	86	-5.5	0	0	988.9	NA	0.0000		9999	4400	0	0	0
2019/11/22 03:32:00	BASE	0.00	303	M	M	-3.5	86	-5.5	0	0	988.9	NA	0.0000		9999	4300	0	0	0
2019/11/22 03:33:00	BASE	0.00	314	M	M	-3.4	85	-5.5	0	0	988.9	NA	0.0000		9999	4330	0	0	0
2019/11/22 03:34:00	BASE	0.00	312	M	M	-3.4	85	-5.5	0	0	988.9	NA	0.0000		9999	4230	0	0	0
2019/11/22 03:35:00	BASE	0.00	308	M	M	-3.4	85	-5.6	0	0	988.9	NA	0.0000		9999	4300	0	0	0
2019/11/22 03:36:00	BASE	0.00	297	M	M	-3.3	84	-5.6	0	0	988.9	NA	0.0000		9999	4330	0	0	0
2019/11/22 03:37:00	BASE	0.00	277	M	M	-3.3	83	-5.7	0	0	988.9	NA	0.0000		9999	4300	0	0	0
2019/11/22 03:38:00	BASE	0.00	251	M	M	-3.3	82	-5.8	0	0	988.9	NA	0.0000		9999	4300	0	0	0
2019/11/22 03:39:00	BASE	0.00	232	M	M	-3.3	81	-6.0	0	0	988.9	NA	0.0000		9999	4230	0	0	0
2019/11/22 03:40:00	BASE	0.00	236	M	M	-3.3	80	-6.2	0	0	988.9	NA	0.0000		9999	4300	0	0	0
2019/11/22 03:41:00	BASE	0.00	256	M	M	-3.3	80	-6.3	0	0	988.9	NA	0.0000		9999	4230	0	0	0
2019/11/22 03:42:00	BASE	0.00	272	M	M	-3.3	79	-6.3	0	0	988.9	NA	0.0000		9999	4130	0	0	0
2019/11/22 03:43:00	BASE	0.00	268	M	M	-3.3	80	-6.3	0	0	988.9	NA	0.0000		9999	4130	0	0	0
2019/11/22 03:44:00	BASE	0.00	255	M	M	-3.3	80	-6.3	0	0	988.9	NA	0.0000		9999	4200	0	0	0
2019/11/22 03:45:00	BASE	0.00	249	M	M	-3.3	81	-6.2	0	0	988.9	NA	0.0000		9999	4300	0	0	0
2019/11/22 03:46:00	BASE	0.00	249	M	M	-3.3	81	-6.1	0	0	988.9	NA	0.0000		9999	4230	0	0	0
2019/11/22 03:47:00	BASE	0.00	250	M	M	-3.3	81	-6.1	0	0	988.9	NA	0.0000		9999	4230	0	0	0
2019/11/22 03:48:00	BASE	0.00	277	M	M	-3.3	81	-6.1	0	0	988.9	NA	0.0000		9999	4270	0	0	0
2019/11/22 03:49:00	BASE	0.00	318	M	M	-3.3	81	-6.1	0	0	988.9	NA	0.0000		9999	4270	0	0	0
2019/11/22 03:50:00	BASE	0.04	324	1.03	321	-3.2	80	-6.2	0	0	988.9	NA	0.0000		9999	4270	0	0	0
2019/11/22 03:51:00	BASE	0.04	322	1.03	321	-3.2	79	-6.3	0	0	988.9	NA	0.0000		9999	2950	0	0	0
2019/11/22 03:52:00	BASE	0.04	327	1.03	330	-3.2	78	-6.5	0	0	988.9	NA	0.0000		9999	3120	0	0	0
2019/11/22 03:53:00	BASE	0.13	334	1.08	336	-3.2	78	-6.6	0	0	988.9	NA	0.0000		9999	3220	0	0	0
2019/11/22 03:54:00	BASE	0.13	338	1.08	336	-3.2	77	-6.7	0	0	988.9	NA	0.0000		9999	3250	0	0	0
2019/11/22 03:55:00	BASE	0.22	340	1.08	340	-3.2	77	-6.7	0	0	988.9	NA	0.0000		9999	3180	0	0	0
2019/11/22 03:56:00	BASE	0.30	343	1.08	340	-3.2	77	-6.6	0	0	988.9	NA	0.0000		9999	4200	0	0	0
2019/11/22 03:57:00	BASE	0.13	344	1.08	340	-3.2	77	-6.6	0	0	988.9	NA	0.0000		9999	4200	0	0	0
2019/11/22 03:58:00	BASE	0.00	348	1.08	340	-3.2	77	-6.6	0	0	988.9	NA	0.0000		9999	4270	0	0	0
2019/11/22 03:59:00	BASE	0.00	353	1.08	340	-3.1	78	-6.5	0	0	988.9	NA	0.0000		9999	4230	0	0	0
2019/11/22 04:00:00	BASE	0.00	351	1.08	340	-3.1	78	-6.5	0	0	988.8	NA	0.0000		9999	4270	0	0	0
2019/11/22 04:01:00	BASE	0.00	354	1.08	340	-3.1	78	-6.5	0	0	988.8	NA	0.0000		9999	4230	0	0	0
2019/11/22 04:02:00	BASE	0.00	354	1.08	340	-3.1	78	-6.5	0	0	M	NA	0.0000		9999	4170	0	0	0
2019/11/22 04:03:00	BASE	0.00	356	1.08	340	-3.1	77	-6.5	0	0	988.9	NA	0.0000		9999	4200	0	0	0
2019/11/22 04:04:00	BASE	0.45	352	1.13	352	-3.1	77	-6.5	0	0	988.9	NA	0.0000		9999	4170	0	0	0
2019/11/22 04:05:00	BASE	0.84	345	1.13	352	-3.1	78	-6.4	0	0	988.9	NA	0.0000		9999	4230	0	0	0
2019/11/22 04:06:00	BASE	0.77	342	1.23	342	-3.1	78	-6.4	0	0	988.9	NA	0.0000		9999	4270	0	0	0
2019/11/22 04:07:00	BASE	0.92	341	1.29	331	-3.1	78	-6.4	0	0	988.9	NA	0.0000		9999	4270	0	0	0
2019/11/22 04:08:00	BASE	0.79	337	1.29	331	-3.1	78	-6.3	0	0	988.9	NA	0.0000		9999	4270	0	0	0
2019/11/22 04:09:00	BASE	0.29	337	1.29	331	-3.1	78	-6.3	0	0	988.9	NA	0.0000		9999	4270	0	0	0
2019/11/22 04:10:00	BASE	0.05	341	1.29	331	-3.1	79	-6.3	0	0	988.9	NA	0.0000		9999	4230	0	0	0
2019/11/22 04:11:00	BASE	0.00	340	1.29	331	-3.1	79	-6.2	0	0	988.9	NA	0.0000		9999	4270	0	0	0
2019/11/22 04:12:00	BASE	0.00	336	1.29	331	-3.1	79	-6.2	0	0	988.9	NA	0.0000		9999	4230	0	0	0
2019/11/22 04:13:00	BASE	0.00	334	1.29	331	-3.1	80	-6.1	0	0	988.9	NA	0.0000		9999	4200	0	0	0
2019/11/22 04:14:00	BASE	0.00	337	1.29	331	-3.1	80	-6.1	0	0	988.9	NA	0.0000		9999	4170	0	0	0
2019/11/22 04:15:00	BASE	0.00	356	1.29	331	-3.1	80	-6.1	0	0	988.8	NA	0.0000		9999	4170	0	0	0
2019/11/22 04:16:00	BASE	0.00	29	1.29	331	-3.1	80	-6.0	0	0	988.8	NA	0.0000		9999	4200	0	0	0
2019/11/22 04:17:00	BASE	0.00	47	1.29	331	-3.1	80	-6.0	0	0	988.7	NA	0.0000		9999	4170	0	0	0
2019/11/22 04:18:00	BASE	0.00	42	1.13	341	-3.1	81	-5.9	0	0	988.7	NA	0.0000		9999	4170	0	0	0
2019/11/22 04:19:00	BASE	0.00	40	M	M	-3.0	81	-5.8	0	0	988.7	NA	0.0000		9999	4490	0	0	0
2019/11/22 04:20:00	BASE	0.00	43	M	M	-3.0	82	-5.7	0	0	988.7	NA	0.0000		9999	4170	0	0	0
2019/11/22 04:21:00	BASE	0.00	52	M	M	-3.1	82	-5.7	0	0	988.7	NA	0.0000		9999	4170	0	0	0
2019/11/22 04:22:00	BASE	0.00	66	M	M	-3.1	82	-5.7	0	0	988.7	NA	0.0000		9999	4590	0	0	0
2019/11/22 04:23:00	BASE	0.00	79	M	M	-3.1	82	-5.8	0	0	988.7	NA	0.0000		9999	4760	0	0	0
2019/11/22 04:24:00	BASE	0.00	96	M	M	-3.1	82	-5.8	0	0	988.7	NA	0.0000		9999	0	0	0	4790
2019/11/22 04:25:00	BASE	0.05	121	1.08	147	-3.1	81	-5.9	0	0	988.7	NA	0.0000		9999	0	0	0	4790
2019/11/22 04:26:00	BASE	0.13	144	1.08	145	-3.2	81	-6.0	0	0	988.6	NA	0.0000		9999	0	0	0	5250
2019/11/22 04:27:00	BASE	0.13	150	1.08	145	-3.2	80	-6.1	0	0	988.6	NA	0.0000		9999	0	0	0	5250
2019/11/22 04:28:00	BASE	0.04	150	1.08	145	-3.2	80	-6.1	0	0	988.5	NA	0.0000		9999	0	0	0	5280
2019/11/22 04:29:00	BASE	0.00	150	1.08	145	-3.2	80	-6.2	0	0	988.5	NA	0.0000		9999	0	0	0	4790
2019/11/22 04:30:00	BASE	0.09	151	1.08	149	-3.2	80	-6.2	0	0	988.5	NA	0.0000	UP	9999	0	0	0	4820
2019/11/22 04:31:00	BASE	0.67	149	1.23	145	-3.2	80	-6.1	0	0	988.5	NA	0.0000	UP	9999	0	0	0	4920
2019/11/22 04:32:00	BASE	1.09	152	1.23	145	-3.2	80	-6.1	0	0	988.5	NA	0.0000	UP	9999	0	0	0	4890
2019/11/22 04:33:00	BASE	1.10	161	1.29	156	-3.3	81	-6.1	0	0	988.5	NA	0.0000	UP	9999	0	0	0	4790
2019/11/22 04:34:00	BASE	0.94	163	1.29	156	-3.3	81	-6.0	0	0	988.5	NA	0.0000	UP	9999	0	0	0	4790
2019/11/22 04:35:00	BASE	0.83	160	1.29	152	-3.3	81	-6.0	0	0	988.5	NA	0.0000	UP	9999	0	0	0	4990
2019/11/22 04:36:00	BASE	0.84	154	1.29	152	-3.3	81	-6.0	0	0	988.5	NA	0.0000	UP	9999	0	0	0	4170
2019/11/22 04:37:00	BASE	0.88	153	1.29	152	-3.3	81	-6.0	0	0	988.5	NA	0.0000	UP	9999	0	0	0	4590
2019/11/22 04:38:00	BASE	1.04	157	1.29	160	-3.3	81	-6.0	0	0	988.5	NA	0.0000	UP	9999	0	0	0	4630
2019/11/22 04:39:00	BASE	0.57	160	1.29	160	-3.3	81	-6.1	0	0	988.5	NA	0.0000	UP	9999	0	0	0	5680
2019/11/22 04:40:00	BASE	0.58	160	1.29	160	-3.3	81	-6.1	0	0	988.5	NA	0.0000	UP	9999	0	0	0	5180
2019/11/22 04:41:00	BASE	1.15	159	1.49	160	-3.3	81	-6.1	0	0	988.5	NA	0.0000	UP	9999	0	0	0	4820
2019/11/22 04:42:00	BASE	1.35	163	1.54	171	-3.3	81	-6.1	0	0	988.5	NA	0.0000	UP	9999	0	0	0	3970
2019/11/22 04:43:00	BASE	1.48	165	1.75	165	-3.3	81	-6.1	0	0	988.5	NA	0.0000	UP	9999	3350	0	0	0
2019/11/22 04:44:00	BASE	1.63	162	2.06	158	-3.3	81	-6.1	0	0	988.5	NA	0.0000	UP	9999	3350	0	0	0
2019/11/22 04:45:00	BASE	1.83	160	2.11	157	-3.3	81	-6.1	0	0	988.5	NA	0.0000	UP	9999	3450	0	0	0
2019/11/22 04:46:00	BASE	1.95	159	2.11	159	-3.3	81	-6.0	0	0	988.4	NA	0.0000	UP	9999	3450	0	0	0
2019/11/22 04:47:00	BASE	2.01	159	2.11	159	-3.3	82	-6.0	0	0	988.4	NA	0.0000	UP	9999	3350	0	0	0
2019/11/22 04:48:00	BASE	2.06	157	2.11	152	-3.3	82	-6.0	0	0	988.4	NA	0.0000		9999	3220	0	0	0
2019/11/22 04:49:01	BASE	2.12	154	2.31	154	-3.3	82	-5.9	0	0	988.4	NA	0.0000		9999	3150	0	0	0
2019/11/22 04:50:00	BASE	2.23	150	2.52	145	-3.3	82	-5.9	0	0	988.4	NA	0.0000		9999	3050	0	0	0
2019/11/22 04:51:01	BASE	2.31	150	2.52	145	-3.3	82	-5.9	0	0	988.4	NA	0.0000		9999	0	0	0	3480
2019/11/22 04:52:00	BASE	2.28	152	2.52	145	-3.3	82	-5.9	0	0	988.4	NA	0.0000		9999	0	0	0	3150
2019/11/22 04:53:00	BASE	2.23	152	2.52	145	-3.3	82	-5.9	0	0	988.4	NA	0.0000		9999	0	0	0	3250
2019/11/22 04:54:01	BASE	2.21	154	2.52	145	-3.3	83	-5.9	0	0	988.4	NA	0.0000		9999	0	0	0	3250
2019/11/22 04:55:00	BASE	2.13	156	2.52	145	-3.4	83	-5.8	0	0	988.4	NA	0.0000		9999	0	0	0	3020
2019/11/22 04:56:00	BASE	2.02	155	2.52	145	-3.4	83	-5.8	0	0	988.4	NA	0.0000		9999	0	0	0	2990
2019/11/22 04:57:00	BASE	1.85	157	2.52	145	-3.4	84	-5.8	0	0	988.4	NA	0.0000		9999	0	0	0	2990
2019/11/22 04:58:00	BASE	1.66	159	2.52	145	-3.4	84	-5.7	0	0	988.4	NA	0.0000		9999	0	0	0	2950
2019/11/22 04:59:00	BASE	1.61	157	2.52	145	-3.4	84	-5.7	0	0	988.4	NA	0.0000	UP	9999	0	0	0	3150
2019/11/22 05:00:00	BASE	1.58	155	2.47	153	-3.4	84	-5.7	0	0	988.4	NA	0.0000	UP	9999	3840	0	0	0
2019/11/22 05:01:00	BASE	1.51	150	2.31	149	-3.4	84	-5.7	0	0	988.4	NA	0.0000	UP	9999	2070	0	0	0
2019/11/22 05:02:00	BASE	1.40	145	2.31	149	-3.4	84	-5.7	0	0	988.3	NA	0.0000	UP	9999	2030	0	0	0
2019/11/22 05:03:00	BASE	1.23	146	2.31	149	-3.4	84	-5.7	0	0	988.3	NA	0.0000	UP	9999	1940	0	0	0
2019/11/22 05:04:00	BASE	1.22	150	2.31	149	-3.4	84	-5.7	0	0	988.3	NA	0.0000	UP	9999	1870	0	0	0
2019/11/22 05:05:01	BASE	1.33	151	2.31	149	-3.4	84	-5.7	0	0	988.3	NA	0.0000	UP	9999	3740	0	0	0
2019/11/22 05:06:01	BASE	1.40	152	1.90	160	-3.4	84	-5.7	0	0	988.3	NA	0.0000	UP	9999	3670	0	0	0
2019/11/22 05:07:01	BASE	1.54	151	1.85	154	-3.4	84	-5.8	0	0	988.3	NA	0.0000	UP	9999	1350	0	0	0
2019/11/22 05:08:01	BASE	1.58	147	1.85	154	-3.4	84	-5.8	0	0	988.3	NA	0.0000	UP	9999	3610	0	0	0
2019/11/22 05:09:01	BASE	1.67	140	2.06	133	-3.4	83	-5.8	0	0	988.3	NA	0.0000	UP	9999	3640	0	0	0
2019/11/22 05:10:01	BASE	1.93	137	2.21	138	-3.4	83	-5.9	0	0	988.3	NA	0.0000	UP	9999	3610	0	0	0
2019/11/22 05:11:01	BASE	2.03	143	2.21	138	-3.4	82	-5.9	0	0	988.3	NA	0.0000	UP	9999	3540	0	0	0
2019/11/22 05:12:01	BASE	2.03	145	2.26	135	-3.4	82	-6.0	0	0	988.3	NA	0.0000	UP	8000	3510	0	0	0
2019/11/22 05:13:01	BASE	2.19	140	2.52	135	-3.4	82	-6.0	0	0	988.3	NA	0.0000	UP	8000	3540	0	0	0
2019/11/22 05:14:01	BASE	2.38	136	2.52	138	-3.4	82	-6.1	0	0	988.3	NA	0.0000	UP	7000	720	0	0	0
2019/11/22 05:15:00	BASE	2.49	132	2.78	125	-3.3	81	-6.1	0	0	988.3	NA	0.0000	UP	7000	1180	3510	0	0
2019/11/22 05:16:00	BASE	2.77	127	3.29	129	-3.3	81	-6.1	0	0	988.2	NA	0.0000	UP	8000	3510	0	0	0
2019/11/22 05:17:00	BASE	2.95	124	3.70	121	-3.3	81	-6.2	0	0	988.2	NA	0.0000	UP	9999	430	0	0	0
2019/11/22 05:18:00	BASE	2.93	121	3.70	121	-3.3	81	-6.1	0	0	988.2	NA	0.0000	UP	9000	390	3410	0	0
2019/11/22 05:19:00	BASE	3.24	121	4.12	119	-3.3	81	-6.1	0	0	988.1	NA	0.0000	UP	5000	330	3380	0	0
2019/11/22 05:20:00	BASE	3.74	120	4.32	116	-3.2	81	-6.0	0	0	988.0	NA	0.0000	UP	6000	330	0	0	0
2019/11/22 05:21:00	BASE	4.04	117	4.32	117	-3.2	82	-5.9	0	0	988.0	NA	0.0000	UP	6000	330	0	0	0
2019/11/22 05:22:00	BASE	4.17	114	4.42	118	-3.2	82	-5.8	0	0	988.0	NA	0.0000	UP	5000	330	0	0	0
2019/11/22 05:23:00	BASE	4.35	115	4.68	116	-3.2	82	-5.8	0	0	988.0	NA	0.0000	-SN	5000	360	0	0	0
2019/11/22 05:24:00	BASE	4.48	116	4.78	111	-3.2	82	-5.8	0	0	988.0	NA	0.0000	-SN	5000	3310	0	0	0
2019/11/22 05:25:00	BASE	4.43	116	4.78	111	-3.1	82	-5.7	0	0	988.0	NA	0.0000	-SN	7000	3350	0	0	0
2019/11/22 05:26:00	BASE	4.53	118	5.04	117	-3.1	83	-5.7	0	0	988.0	NA	0.0000	-SN	9999	3350	0	0	0
2019/11/22 05:27:00	BASE	4.62	118	5.04	117	-3.1	83	-5.6	0	0	987.9	NA	0.0000	-SN	9999	3350	0	0	0
2019/11/22 05:28:00	BASE	4.78	117	5.35	119	-3.1	83	-5.6	0	0	987.9	NA	0.0000	-SN	9999	3380	0	0	0
2019/11/22 05:29:00	BASE	5.00	117	5.35	119	-3.1	83	-5.6	0	0	987.9	NA	0.0000	-SN	9999	3280	0	0	0
2019/11/22 05:30:00	BASE	5.09	118	5.45	119	-3.0	83	-5.5	0	0	987.9	NA	0.0000	-SN	9999	2230	0	0	0
2019/11/22 05:31:00	BASE	5.20	119	5.45	117	-3.0	83	-5.5	0	0	987.9	NA	0.0000	-SN	9999	2330	0	0	0
2019/11/22 05:32:00	BASE	5.18	118	5.45	117	-3.0	83	-5.5	0	0	987.9	NA	0.0000	-SN	9999	3280	0	0	0
2019/11/22 05:33:00	BASE	5.24	118	5.71	118	-3.0	83	-5.5	0	0	987.9	NA	0.0000	-SN	9999	3250	0	0	0
2019/11/22 05:34:00	BASE	5.39	121	5.71	123	-3.0	83	-5.5	0	0	987.9	NA	0.0000	-SN	9999	3280	0	0	0
2019/11/22 05:35:00	BASE	5.44	123	5.92	120	-3.0	83	-5.5	0	0	987.9	NA	0.0000	-SN	9999	3280	0	0	0
2019/11/22 05:36:00	BASE	5.42	121	5.92	120	-3.0	83	-5.5	0	0	987.9	NA	0.0000	-SN	9999	3280	0	0	0
2019/11/22 05:37:00	BASE	5.47	118	5.92	120	-3.1	84	-5.4	0	0	987.8	NA	0.0000	-SN	6000	3310	0	0	0
2019/11/22 05:38:00	BASE	5.81	115	6.74	111	-3.1	84	-5.3	0	0	987.8	NA	0.0000	-SN	4900	3280	0	0	0
2019/11/22 05:39:00	BASE	6.20	114	6.84	119	-3.0	85	-5.2	0	0	987.8	NA	0.0000	-SN BR	6000	3280	0	0	0
2019/11/22 05:40:00	BASE	6.48	116	7.15	119	-3.0	86	-5.1	0	0	987.8	NA	0.0000	-SN BR	9999	3250	0	0	0
2019/11/22 05:41:00	BASE	6.77	116	7.72	115	-2.9	86	-4.9	0	0	987.8	NA	0.0000	-SN BR	9999	3220	0	0	0
2019/11/22 05:42:00	BASE	7.20	116	7.82	115	-2.9	87	-4.8	0	0	987.7	NA	0.0000	-SN BR	9999	3220	0	0	0
2019/11/22 05:43:00	BASE	7.67	120	8.39	126	-2.8	87	-4.7	0	0	987.7	NA	0.0000	-SN BR	9999	3180	0	0	0
2019/11/22 05:44:00	BASE	7.62	123	8.39	126	-2.7	87	-4.6	0	0	987.7	NA	0.0000	-SN BR	9999	3180	0	0	0
2019/11/22 05:45:00	BASE	7.28	123	8.39	126	-2.7	87	-4.6	0	0	987.7	NA	0.0000	-SN BR	9000	3180	0	0	0
2019/11/22 05:46:00	BASE	7.22	121	8.39	126	-2.7	87	-4.6	0	0	987.7	NA	0.0000	-SN BR	9999	3220	0	0	0
2019/11/22 05:47:00	BASE	7.38	120	8.39	126	-2.7	87	-4.5	0	0	987.7	NA	0.0000	-SN BR	9999	3180	0	0	0
2019/11/22 05:48:00	BASE	7.27	122	8.39	126	-2.7	87	-4.6	0	0	987.7	NA	0.0000	-SN BR	9999	3220	0	0	0
2019/11/22 05:49:00	BASE	7.13	124	8.39	126	-2.7	87	-4.6	0	0	987.6	NA	0.0000	-SN	9999	3180	0	0	0
2019/11/22 05:50:00	BASE	7.24	125	8.39	126	-2.7	87	-4.6	0	0	987.6	NA	0.0000	-SN	9999	3220	0	0	0
2019/11/22 05:51:00	BASE	7.17	128	8.39	126	-2.7	87	-4.6	0	0	987.6	NA	0.0000	-SN	9999	3180	0	0	0
2019/11/22 05:52:00	BASE	6.78	128	8.39	126	-2.7	87	-4.5	0	0	987.7	NA	0.0000	-SN	9999	3220	0	0	0
2019/11/22 05:53:00	BASE	6.55	127	7.92	121	-2.7	88	-4.5	0	0	987.7	NA	0.0000	-SN	9999	430	0	0	0
2019/11/22 05:54:00	BASE	6.56	126	7.92	121	-2.7	88	-4.4	1	0	987.6	NA	0.0000	-SN	9999	390	0	0	0
2019/11/22 05:55:00	BASE	6.65	127	7.92	121	-2.7	88	-4.4	1	0	987.6	NA	0.0000	-SN	9999	390	0	0	0
2019/11/22 05:56:00	BASE	6.65	128	7.92	121	-2.7	89	-4.4	1	0	987.6	NA	0.0000	-SN	9000	3180	0	0	0
2019/11/22 05:57:00	BASE	6.50	126	7.92	121	-2.8	89	-4.3	1	0	987.6	NA	0.0000	-SN	8000	3150	0	0	0
2019/11/22 05:58:00	BASE	6.34	123	7.92	121	-2.8	89	-4.3	1	0	987.7	NA	0.0000	-SN	8000	390	0	0	0
2019/11/22 05:59:00	BASE	6.00	123	7.82	126	-2.8	90	-4.3	1	0	987.7	NA	0.0000	-SN	8000	390	0	0	0
2019/11/22 06:00:00	BASE	5.51	127	7.51	129	-2.8	90	-4.2	1	0	987.7	NA	0.0000	-SN BR	8000	390	0	0	0
2019/11/22 06:01:00	BASE	5.37	129	7.46	129	-2.8	90	-4.2	1	0	987.6	NA	0.0000	-SN BR	7000	3120	0	0	0
2019/11/22 06:02:00	BASE	6.01	124	7.51	121	-2.8	90	-4.2	1	0	987.6	NA	0.0000	-SN BR	8000	3050	0	0	0
2019/11/22 06:03:00	BASE	6.58	122	7.51	121	-2.7	91	-4.1	1	0	987.6	NA	0.0000	-SN BR	9000	3050	0	0	0
2019/11/22 06:04:00	BASE	6.39	123	7.56	118	-2.6	91	-3.9	1	0	987.6	NA	0.0000	-SN BR	9999	3080	0	0	0
2019/11/22 06:05:00	BASE	5.78	123	7.56	118	-2.6	91	-3.8	1	0	987.6	NA	0.0000	-SN BR	9999	3020	0	0	0
2019/11/22 06:06:00	BASE	5.71	128	7.56	118	-2.5	91	-3.7	1	0	987.6	NA	0.0000	-SN BR	9999	3050	0	0	0
2019/11/22 06:07:00	BASE	6.26	130	7.56	118	-2.4	91	-3.7	1	0	987.6	NA	0.0000	-SN BR	9999	3020	0	0	0
2019/11/22 06:08:00	BASE	6.40	128	7.61	130	-2.4	91	-3.8	1	0	987.5	NA	0.0000	-SN BR	9999	2990	0	0	0
2019/11/22 06:09:00	BASE	6.63	129	7.61	130	-2.5	90	-3.9	1	0	987.4	NA	0.0000	-SN	9999	3050	0	0	0
2019/11/22 06:10:00	BASE	6.74	130	7.61	130	-2.5	90	-3.9	1	0	987.4	NA	0.0000	-SN	9999	3080	0	0	0
2019/11/22 06:11:00	BASE	6.14	127	7.61	130	-2.5	90	-3.9	1	0	987.4	NA	0.0000	-SN	9999	3050	0	0	0
2019/11/22 06:12:00	BASE	5.38	127	7.61	130	-2.4	90	-3.9	1	0	987.5	NA	0.0000	-SN	9999	3050	0	0	0
2019/11/22 06:13:00	BASE	5.23	125	7.61	130	-2.4	89	-3.9	1	0	987.5	NA	0.0000	-SN	9999	3080	0	0	0
2019/11/22 06:14:00	BASE	5.49	119	7.61	130	-2.4	89	-3.9	1	0	987.6	NA	0.0000		9999	3080	0	0	0
2019/11/22 06:15:00	BASE	5.65	112	7.61	130	-2.4	89	-3.9	1	0	987.6	NA	0.0000		9999	3120	0	0	0
2019/11/22 06:16:00	BASE	5.75	104	7.61	130	-2.3	89	-3.9	1	0	987.7	NA	0.0000		9999	3080	0	0	0
2019/11/22 06:17:00	BASE	5.38	98	7.61	130	-2.3	88	-3.9	1	0	987.7	NA	0.0000		9000	3050	0	0	0
2019/11/22 06:18:00	BASE	4.49	96	7.61	130	-2.2	88	-4.0	1	0	987.8	NA	0.0000		9000	3050	0	0	0
2019/11/22 06:19:00	BASE	3.83	97	7.05	127	-2.2	88	-4.0	1	0	987.7	NA	0.0000	BR	9000	3120	0	0	0
2019/11/22 06:20:00	BASE	3.90	97	6.48	91	-2.2	87	-4.0	2	0	987.7	NA	0.0000	BR	9000	2990	0	0	0
2019/11/22 06:21:00	BASE	4.54	98	6.48	91	-2.2	87	-4.1	2	0	987.7	NA	0.0000	BR	9000	3080	0	0	0
2019/11/22 06:22:00	BASE	4.81	102	6.48	91	-2.2	87	-4.1	2	0	987.7	NA	0.0000	BR	9000	3020	0	0	0
2019/11/22 06:23:00	BASE	5.18	106	6.48	91	-2.2	86	-4.1	2	0	987.7	NA	0.0000	BR	9000	3220	0	0	0
2019/11/22 06:24:00	BASE	5.45	111	6.48	91	-2.1	86	-4.2	2	0	987.7	NA	0.0000	BR	9000	3220	0	0	0
2019/11/22 06:25:00	BASE	5.04	117	6.48	91	-2.1	85	-4.3	2	0	987.6	NA	0.0000	BR	9000	3150	0	0	0
2019/11/22 06:26:00	BASE	5.18	120	6.38	95	-2.1	84	-4.4	2	0	987.6	NA	0.0000	HZ	9000	2920	0	0	0
2019/11/22 06:27:00	BASE	5.48	123	6.38	95	-2.1	83	-4.6	2	0	987.6	NA	0.0000	HZ	9000	3020	0	0	0
2019/11/22 06:28:00	BASE	5.23	123	6.38	95	-2.0	82	-4.7	2	0	987.6	NA	0.0000	HZ	8000	2950	0	0	0
2019/11/22 06:29:00	BASE	5.00	123	6.38	95	-2.0	81	-4.8	2	0	987.6	NA	0.0000	HZ	8000	3220	0	0	0
2019/11/22 06:30:00	BASE	5.36	122	6.38	95	-2.0	80	-4.9	2	0	987.5	NA	0.0000	HZ	8000	3250	0	0	0
2019/11/22 06:31:00	BASE	5.94	121	7.05	113	-2.0	80	-5.0	2	0	987.4	NA	0.0000	HZ	8000	3050	0	0	0
2019/11/22 06:32:00	BASE	6.09	122	7.05	113	-2.0	79	-5.1	2	0	987.4	NA	0.0000	HZ	8000	2890	0	0	0
2019/11/22 06:33:00	BASE	6.07	123	7.05	113	-2.0	79	-5.2	2	0	987.4	NA	0.0000	HZ	8000	2850	0	0	0
2019/11/22 06:34:00	BASE	6.14	122	7.05	113	-2.0	79	-5.2	2	0	987.4	NA	0.0000	-SN	9999	2850	0	0	0
2019/11/22 06:35:00	BASE	6.11	123	7.05	113	-2.0	78	-5.2	2	0	987.4	NA	0.0000	-SN	8000	3120	0	0	0
2019/11/22 06:36:00	BASE	5.73	127	7.05	113	-2.0	78	-5.3	3	0	987.4	NA	0.0000	-SN	8000	2890	0	0	0
2019/11/22 06:37:00	BASE	5.27	136	7.05	113	-2.0	78	-5.3	3	0	987.4	NA	0.0000	-SN	9000	2890	0	0	0
2019/11/22 06:38:00	BASE	5.18	140	7.05	113	-2.1	78	-5.3	3	0	987.4	NA	0.0000	-SN	9000	0	0	0	3580
2019/11/22 06:39:00	BASE	5.76	137	7.05	113	-2.1	79	-5.3	3	0	987.3	NA	0.0000	-SN	8000	3220	0	0	0
2019/11/22 06:40:00	BASE	6.44	133	7.05	132	-2.2	79	-5.3	3	0	987.3	NA	0.0000	-SN	6000	3310	0	0	0
2019/11/22 06:41:00	BASE	6.09	133	7.05	132	-2.2	80	-5.2	3	0	987.4	NA	0.0000	-SN	7000	3150	0	0	0
2019/11/22 06:42:00	BASE	5.18	137	7.05	132	-2.2	80	-5.1	3	0	987.4	NA	0.0000	-SN	6000	2920	0	0	0
2019/11/22 06:43:00	BASE	4.34	142	7.05	132	-2.2	81	-5.1	3	0	987.4	NA	0.0000	-SN	5000	3180	0	0	0
2019/11/22 06:44:01	BASE	4.06	144	7.05	132	-2.2	81	-5.1	3	0	987.4	NA	0.0000	-SN	4600	3080	0	0	0
2019/11/22 06:45:00	BASE	4.18	140	7.05	132	-2.3	81	-5.1	3	0	987.4	NA	0.0000	-SN	4900	3120	0	0	0
2019/11/22 06:46:00	BASE	4.27	137	7.05	132	-2.3	81	-5.1	4	0	987.4	NA	0.0000	-SN	6000	3050	0	0	0
2019/11/22 06:47:00	BASE	4.35	133	7.05	132	-2.4	82	-5.0	4	0	987.4	NA	0.0000	-SN	7000	1610	0	0	0
2019/11/22 06:48:00	BASE	4.72	134	7.05	132	-2.4	82	-5.0	4	0	987.4	NA	0.0000	-SN	9000	3080	0	0	0
2019/11/22 06:49:00	BASE	4.89	139	7.05	132	-2.4	83	-4.9	4	0	987.4	NA	0.0000	-SN	8000	0	0	0	3350
2019/11/22 06:50:00	BASE	4.66	143	6.28	133	-2.4	83	-4.8	4	0	987.4	NA	0.0000	-SN	9000	0	0	0	3380
2019/11/22 06:51:00	BASE	4.53	147	5.61	136	-2.3	84	-4.7	4	0	987.4	NA	0.0000	-SN	7000	660	0	0	0
2019/11/22 06:52:00	BASE	4.60	150	5.61	136	-2.3	84	-4.7	4	0	987.4	NA	0.0000	-SN	7000	430	0	0	0
2019/11/22 06:53:00	BASE	4.64	153	5.61	136	-2.4	84	-4.7	4	0	987.4	NA	0.0000	-SN	9000	430	0	0	0
2019/11/22 06:54:00	BASE	4.28	151	5.61	136	-2.4	84	-4.7	4	0	987.4	NA	0.0000	-SN	4600	360	0	0	0
2019/11/22 06:55:00	BASE	3.74	149	5.61	136	-2.4	84	-4.7	4	0	987.4	NA	0.0000	-SN	3200	360	0	0	0
2019/11/22 06:56:00	BASE	3.46	148	5.61	136	-2.4	84	-4.7	4	0	987.4	NA	0.0000	-SN	2400	360	0	0	0
2019/11/22 06:57:00	BASE	3.68	147	5.61	136	-2.4	85	-4.6	4	0	987.4	NA	0.0000	-SN BR	4200	360	0	0	0
2019/11/22 06:58:00	BASE	3.88	148	5.25	142	-2.5	85	-4.6	4	0	987.4	NA	0.0000	-SN BR	3600	360	0	0	0
2019/11/22 06:59:00	BASE	3.91	148	5.14	150	-2.5	86	-4.5	4	0	987.4	NA	0.0000	-SN BR	3200	390	0	0	0
2019/11/22 07:00:00	BASE	3.89	149	5.14	150	-2.5	86	-4.5	4	0	987.4	NA	0.0000	-SN BR	3600	360	0	0	0
2019/11/22 07:01:00	BASE	3.50	153	5.14	150	-2.5	87	-4.4	4	0	987.4	NA	0.0000	-SN BR	3200	360	0	0	0
2019/11/22 07:02:00	BASE	3.26	156	4.94	154	-2.5	87	-4.3	4	0	987.5	NA	0.0000	-SN BR	3000	330	0	0	0
2019/11/22 07:03:00	BASE	3.20	154	4.94	154	-2.5	88	-4.3	5	0	987.6	NA	0.0000	-SN BR	2100	360	0	0	0
2019/11/22 07:04:00	BASE	2.88	152	4.48	150	-2.5	88	-4.2	5	0	987.6	NA	0.0000	-SN BR	2200	360	0	0	0
2019/11/22 07:05:00	BASE	2.68	148	4.48	150	-2.5	88	-4.2	5	0	987.6	NA	0.0000	-SN BR	2800	330	0	0	0
2019/11/22 07:06:00	BASE	2.43	140	4.48	150	-2.5	88	-4.2	5	0	987.6	NA	0.0000	-SN BR	2700	330	0	0	0
2019/11/22 07:07:00	BASE	2.12	134	4.32	152	-2.5	89	-4.1	6	0	987.5	NA	0.0000	-SN BR	3700	390	0	0	0
2019/11/22 07:08:00	BASE	1.88	127	4.32	152	-2.5	89	-4.1	6	0	987.5	NA	0.0000	-SN BR	3400	360	0	0	0
2019/11/22 07:09:00	BASE	1.72	108	4.32	152	-2.5	89	-4.0	7	0	987.6	NA	0.0000	-SN BR	4200	390	0	0	0
2019/11/22 07:10:00	BASE	1.76	102	3.70	152	-2.5	90	-3.9	7	0	987.6	NA	0.0000	-SN BR	3800	390	0	0	0
2019/11/22 07:11:00	BASE	2.00	113	3.55	157	-2.4	90	-3.9	7	0	987.5	NA	0.0000	-SN BR	4100	390	0	0	0
2019/11/22 07:12:00	BASE	2.61	119	3.70	127	-2.4	90	-3.8	7	0	987.4	NA	0.0000	-SN BR	5000	390	0	0	0
2019/11/22 07:13:00	BASE	3.28	127	4.22	137	-2.4	90	-3.7	7	0	987.4	NA	0.0000	-SN BR	3500	2890	0	0	0
2019/11/22 07:14:00	BASE	3.66	133	4.37	138	-2.3	91	-3.7	7	0	987.4	NA	0.0000	-SN BR	3400	2820	0	0	0
2019/11/22 07:15:00	BASE	3.55	139	4.37	138	-2.3	91	-3.6	7	0	987.3	NA	0.0000	-SN BR	4200	0	0	0	3610
2019/11/22 07:16:00	BASE	3.29	143	4.37	138	-2.2	91	-3.5	7	0	987.3	NA	0.0000	-SN BR	2300	0	0	0	3220
2019/11/22 07:17:00	BASE	3.36	144	4.37	138	-2.2	91	-3.5	6	0	987.4	NA	0.0000	-SN BR	3900	360	0	0	0
2019/11/22 07:18:00	BASE	3.15	143	4.37	138	-2.2	91	-3.5	6	0	987.4	NA	0.0000	-SN BR	5000	390	0	0	0
2019/11/22 07:19:00	BASE	2.84	148	4.37	138	-2.2	91	-3.5	6	0	987.3	NA	0.0000	-SN BR	3400	430	0	0	0
2019/11/22 07:20:00	BASE	2.76	152	4.37	138	-2.2	91	-3.5	6	0	987.3	NA	0.0000	-SN BR	3500	360	0	0	0
2019/11/22 07:21:00	BASE	2.56	150	4.37	138	-2.2	91	-3.5	6	0	987.4	NA	0.0000	-SN BR	2600	0	0	0	3310
2019/11/22 07:22:00	BASE	2.39	145	4.37	138	-2.3	91	-3.5	6	0	987.4	NA	0.0000	-SN BR	1900	330	0	0	0
2019/11/22 07:23:00	BASE	2.45	144	4.37	138	-2.3	91	-3.5	6	0	987.3	NA	0.0000	-SN BR	2100	300	0	0	0
2019/11/22 07:24:00	BASE	2.62	145	3.86	143	-2.4	92	-3.5	6	0	987.3	NA	0.0000	-SN BR	1600	260	0	0	0
2019/11/22 07:25:00	BASE	2.54	144	3.81	142	-2.4	92	-3.5	7	0	987.3	NA	0.0000	-SN BR	1600	230	0	0	0
2019/11/22 07:26:00	BASE	2.47	143	3.81	142	-2.4	93	-3.4	7	0	987.3	NA	0.0000	-SN BR	2000	0	0	0	2920
2019/11/22 07:27:00	BASE	2.69	134	3.55	135	-2.4	93	-3.3	7	0	987.4	NA	0.0000	-SN BR	2900	360	0	0	0
2019/11/22 07:28:00	BASE	2.62	120	3.55	135	-2.4	94	-3.3	7	0	987.4	NA	0.0000	-SN BR	2800	300	2690	0	0
2019/11/22 07:29:00	BASE	2.59	120	3.55	135	-2.4	94	-3.2	7	0	987.4	NA	0.0000	-SN BR	3300	330	0	0	0
2019/11/22 07:30:00	BASE	2.95	125	3.86	124	-2.3	94	-3.1	8	0	987.4	NA	0.0000	-SN BR	3000	300	0	0	0
2019/11/22 07:31:00	BASE	2.89	121	3.86	124	-2.3	95	-3.1	8	0	987.4	NA	0.0000	-SN BR	2300	0	0	0	2950
2019/11/22 07:32:00	BASE	2.69	115	4.12	125	-2.3	95	-3.0	8	0	987.4	NA	0.0000	-SN BR	3700	0	0	0	3050
2019/11/22 07:33:00	BASE	3.75	111	5.30	117	-2.2	95	-2.9	8	0	987.4	NA	0.0000	-SN BR	3000	330	0	0	0
2019/11/22 07:34:00	BASE	4.59	115	5.30	117	-2.1	95	-2.8	9	0	987.4	NA	0.0000	-SN BR	3400	330	0	0	0
2019/11/22 07:35:00	BASE	4.67	119	5.71	117	-2.1	95	-2.7	9	0	987.4	NA	0.0000	-SN BR	2500	330	0	0	0
2019/11/22 07:36:00	BASE	5.29	121	6.02	125	-2.0	95	-2.6	9	0	987.3	NA	0.0000	-SN BR	2000	330	0	0	0
2019/11/22 07:37:00	BASE	5.54	126	6.02	125	-1.9	95	-2.6	9	0	987.3	NA	0.0000	-SN BR	2700	0	0	0	2790
2019/11/22 07:38:00	BASE	5.55	128	6.02	130	-1.9	95	-2.6	10	0	987.3	NA	0.0000	-SN BR	8000	0	0	0	2820
2019/11/22 07:39:00	BASE	5.93	127	6.58	126	-1.9	95	-2.6	10	0	987.3	NA	0.0000	-SN BR	7000	0	0	0	2820
2019/11/22 07:40:00	BASE	6.45	124	7.15	123	-1.9	94	-2.6	10	0	987.3	NA	0.0000	-SN BR	7000	1570	0	0	0
2019/11/22 07:41:00	BASE	6.82	121	7.31	124	-1.9	94	-2.7	10	0	987.3	NA	0.0000	-SN BR	2800	0	0	0	2620
2019/11/22 07:42:00	BASE	6.93	122	7.31	124	-1.9	94	-2.7	10	0	987.3	NA	0.0000	-SN BR	1000	230	0	0	0
2019/11/22 07:43:00	BASE	6.46	124	7.31	124	-1.8	94	-2.7	11	0	987.3	NA	0.0000	-SN BR	1100	230	0	0	0
2019/11/22 07:44:00	BASE	6.07	121	7.31	124	-1.8	94	-2.6	11	0	987.3	NA	0.0000	-SN BR	2100	0	0	0	1870
2019/11/22 07:45:00	BASE	6.41	116	7.31	124	-1.7	94	-2.5	12	0	987.2	NA	0.0000	-SN BR	1700	0	0	0	1770
2019/11/22 07:46:00	BASE	6.36	120	7.31	124	-1.6	94	-2.5	13	0	987.2	NA	0.0000	-SN BR	1700	0	0	0	1770
2019/11/22 07:47:00	BASE	5.49	128	7.31	124	-1.6	94	-2.5	13	0	987.3	NA	0.0000	-SN BR	1700	0	0	0	1740
2019/11/22 07:48:00	BASE	5.26	125	7.31	124	-1.6	94	-2.5	14	0	987.3	NA	0.0000	-SN BR	1500	230	0	0	0
2019/11/22 07:49:00	BASE	6.11	117	7.46	114	-1.5	93	-2.5	16	0	987.3	NA	0.0000	-SN BR	1000	0	0	0	1120
2019/11/22 07:50:00	BASE	6.75	116	7.46	114	-1.6	93	-2.5	17	0	987.2	NA	0.0000	-SN BR	0900	0	0	0	1150
2019/11/22 07:51:00	BASE	6.62	123	7.46	114	-1.6	93	-2.6	19	0	987.2	NA	0.0000	-SN BR	1000	0	0	0	1120
2019/11/22 07:52:00	BASE	6.45	130	7.46	114	-1.7	93	-2.7	21	0	987.2	NA	0.0000	-SN BR	1100	0	0	0	1310
2019/11/22 07:53:00	BASE	6.53	133	7.46	114	-1.8	93	-2.8	23	0	987.2	NA	0.0000	-SN BR	0800	0	0	0	1710
2019/11/22 07:54:00	BASE	6.95	134	7.61	136	-1.9	94	-2.8	26	0	987.1	NA	0.0000	-SN BR	0800	0	0	0	2330
2019/11/22 07:55:00	BASE	7.23	136	7.77	132	-2.0	94	-2.8	28	0	987.1	NA	0.0000	-SN BR	0900	0	0	0	2620
2019/11/22 07:56:00	BASE	6.68	141	7.77	132	-2.1	95	-2.8	31	0	987.1	NA	0.0000	SN BR	1200	0	0	0	2720
2019/11/22 07:57:00	BASE	6.22	144	7.77	132	-2.1	96	-2.7	32	0	987.1	NA	0.0000	SN BR	1700	300	0	0	0
2019/11/22 07:58:00	BASE	5.96	139	7.77	132	-2.1	96	-2.7	34	0	987.2	NA	0.0000	-SN BR	2100	0	0	0	2760
2019/11/22 07:59:00	BASE	6.03	136	7.77	132	-2.2	97	-2.6	35	0	987.1	NA	0.0000	-SN BR	2000	300	0	0	0
2019/11/22 08:00:00	BASE	6.21	138	7.77	132	-2.2	97	-2.6	35	0	987.1	NA	0.0000	-SN BR	2100	300	0	0	0
2019/11/22 08:01:00	BASE	6.05	140	7.77	132	-2.2	98	-2.5	36	0	987.1	NA	0.0000	-SN BR	2300	330	0	0	0
2019/11/22 08:02:00	BASE	6.01	138	7.77	132	-2.2	98	-2.4	36	0	987.2	NA	0.0000	-SN BR	2100	330	0	0	0
2019/11/22 08:03:00	BASE	5.91	138	7.77	132	-2.2	99	-2.3	36	0	987.2	NA	0.0000	-SN BR	2000	330	0	0	0
2019/11/22 08:04:00	BASE	5.93	142	7.77	132	-2.2	99	-2.3	37	0	987.1	NA	0.0000	-SN BR	2400	360	0	0	0
2019/11/22 08:05:00	BASE	6.05	143	7.05	138	-2.2	100	-2.3	36	0	987.1	NA	0.0000	-SN BR	2600	360	0	0	0
2019/11/22 08:06:00	BASE	5.85	142	7.05	138	-2.2	100	-2.3	34	0	987.2	NA	0.0000	-SN BR	2700	2200	0	0	0
2019/11/22 08:07:00	BASE	5.50	146	7.05	138	-2.2	100	-2.2	33	0	987.2	NA	0.0000	-SN BR	3600	2030	0	0	0
2019/11/22 08:08:00	BASE	5.04	147	7.05	138	-2.3	100	-2.3	32	0	987.2	NA	0.0000	-SN BR	5000	390	0	0	0
2019/11/22 08:09:00	BASE	4.10	144	7.05	138	-2.3	100	-2.3	31	0	987.3	NA	0.0000	-SN BR	3000	360	0	0	0
2019/11/22 08:10:00	BASE	4.34	137	7.05	138	-2.3	100	-2.3	31	0	987.2	NA	0.0000	-SN BR	3200	330	0	0	0
2019/11/22 08:11:00	BASE	5.91	132	7.10	138	-2.2	100	-2.2	31	0	987.1	NA	0.0000	-SN BR	3000	360	0	0	0
2019/11/22 08:12:00	BASE	6.48	133	7.10	138	-2.2	100	-2.2	31	0	987.1	NA	0.0000	-SN BR	2100	330	0	0	0
2019/11/22 08:13:00	BASE	6.21	133	7.10	138	-2.2	100	-2.2	31	0	987.2	NA	0.0000	-SN BR	2200	330	0	0	0
2019/11/22 08:14:00	BASE	6.08	131	7.10	138	-2.2	100	-2.2	31	0	987.2	NA	0.0000	-SN BR	2000	260	0	0	0
2019/11/22 08:15:00	BASE	5.99	125	7.10	138	-2.2	100	-2.2	31	0	987.3	NA	0.0000	-SN BR	1400	230	0	0	0
2019/11/22 08:16:00	BASE	5.29	121	7.10	138	-2.2	100	-2.2	31	0	987.3	NA	0.0000	-SN BR	1500	230	0	0	0
2019/11/22 08:17:00	BASE	4.54	118	7.10	138	-2.1	100	-2.1	31	0	987.3	NA	0.0000	-SN BR	1200	230	0	0	0
2019/11/22 08:18:00	BASE	4.88	117	7.10	138	-2.1	100	-2.1	31	0	987.3	NA	0.0000	-SN BR	1200	0	0	0	2490
2019/11/22 08:19:00	BASE	5.02	123	7.10	138	-2.0	100	-2.0	32	0	987.3	NA	0.0000	-SN BR	1200	0	0	0	2360
2019/11/22 08:20:00	BASE	4.25	133	7.10	138	-1.9	100	-1.9	33	0	987.3	NA	0.0000	-SN BR	1200	0	0	0	2490
2019/11/22 08:21:00	BASE	4.26	135	6.74	116	-1.9	100	-1.9	35	0	987.3	NA	0.0000	-SN BR	1200	0	0	0	2430
2019/11/22 08:22:00	BASE	4.87	134	6.74	116	-1.9	100	-1.9	37	0	987.3	NA	0.0000	-SN BR	1100	0	0	0	2230
2019/11/22 08:23:00	BASE	5.53	132	6.74	116	-1.9	100	-1.9	40	0	987.3	NA	0.2540	-SN BR	1100	0	0	0	2300
2019/11/22 08:24:00	BASE	6.22	128	6.89	127	-1.9	100	-1.9	44	0	987.3	NA	0.0000	-SN BR	0900	0	0	0	2130
2019/11/22 08:25:00	BASE	6.26	127	6.89	127	-1.9	100	-1.9	47	0	987.3	NA	0.0000	-SN BR	1100	0	0	0	2130
2019/11/22 08:26:00	BASE	6.23	125	6.89	127	-1.9	100	-1.9	48	0	987.3	NA	0.0000	-SN BR	1000	0	0	0	2130
2019/11/22 08:27:00	BASE	6.29	126	6.89	127	-1.9	100	-1.9	48	0	987.3	NA	0.0000	-SN BR	1100	0	0	0	2260
2019/11/22 08:28:00	BASE	6.09	127	6.89	127	-1.9	100	-1.9	49	0	987.3	NA	0.0000	-SN BR	1100	0	0	0	2330
2019/11/22 08:29:00	BASE	5.77	129	6.89	127	-1.9	100	-1.9	49	0	987.3	NA	0.0000	-SN BR	1000	0	0	0	2200
2019/11/22 08:30:00	BASE	5.74	128	6.89	127	-1.9	100	-1.9	50	0	987.3	NA	0.0000	-SN BR	1100	0	0	0	2130
2019/11/22 08:31:00	BASE	6.21	129	6.89	127	-1.9	100	-1.9	51	0	987.3	NA	0.0000	-SN BR	1200	0	0	0	2000
2019/11/22 08:32:00	BASE	6.47	134	6.89	127	-2.0	100	-2.0	52	0	987.2	NA	0.0000	-SN BR	1200	0	0	0	2230
2019/11/22 08:33:00	BASE	6.28	138	6.89	127	-2.0	100	-2.0	54	0	987.2	NA	0.0000	-SN BR	1100	0	0	0	2100
2019/11/22 08:34:00	BASE	6.34	140	7.25	142	-2.0	100	-2.0	56	0	987.1	NA	0.0000	-SN BR	1000	0	0	0	2200
2019/11/22 08:35:00	BASE	6.49	140	7.41	137	-2.0	100	-2.0	56	0	987.2	NA	0.0000	-SN BR	1000	0	0	0	2300
2019/11/22 08:36:00	BASE	6.52	143	7.41	137	-1.9	100	-1.9	58	0	987.2	NA	0.0000	-SN BR	1000	0	0	0	2200
2019/11/22 08:37:00	BASE	6.98	146	8.08	146	-1.9	100	-1.9	60	0	987.1	NA	0.0000	-SN BR	1000	0	0	0	2030
2019/11/22 08:38:00	BASE	7.07	142	8.08	146	-1.8	100	-1.8	60	0	987.1	NA	0.0000	-SN BR	1300	0	0	0	2260
2019/11/22 08:39:00	BASE	6.46	142	8.08	146	-1.8	100	-1.8	60	0	987.2	NA	0.0000	-SN BR	1100	0	0	0	2490
2019/11/22 08:40:00	BASE	5.80	145	8.08	146	-1.8	100	-1.8	59	0	987.2	NA	0.0000	-SN BR	1400	0	0	0	3020
2019/11/22 08:41:00	BASE	5.15	145	8.08	146	-1.8	100	-1.8	58	0	987.3	NA	0.0000	-SN BR	1800	260	0	0	0
2019/11/22 08:42:00	BASE	4.43	147	8.08	146	-1.8	100	-1.8	56	0	987.3	NA	0.0000	-SN BR	1800	260	0	0	0
2019/11/22 08:43:00	BASE	3.87	146	8.08	146	-1.8	100	-1.8	54	0	987.4	NA	0.0000	-SN BR	1800	300	0	0	0
2019/11/22 08:44:00	BASE	3.54	133	8.08	146	-1.8	100	-1.8	53	0	987.4	NA	0.0000	-SN BR	2200	330	0	0	0
2019/11/22 08:45:00	BASE	3.20	131	8.08	146	-1.8	100	-1.8	52	0	987.4	NA	0.0000	-SN BR	2600	330	0	0	0
2019/11/22 08:46:00	BASE	3.67	142	8.08	146	-1.8	100	-1.8	50	0	987.3	NA	0.0000	-SN BR	2700	330	0	0	0
2019/11/22 08:47:00	BASE	4.66	144	7.97	135	-1.8	100	-1.8	49	0	987.3	NA	0.0000	-SN BR	2700	330	0	0	0
2019/11/22 08:48:00	BASE	4.71	145	6.48	147	-1.8	100	-1.8	47	0	987.3	NA	0.0000	-SN BR	2400	330	21260	0	0
2019/11/22 08:49:00	BASE	4.13	142	5.81	144	-1.8	100	-1.8	46	0	987.4	NA	0.0000	-SN BR	2500	330	21750	0	0
2019/11/22 08:50:00	BASE	4.05	137	5.50	145	-1.8	100	-1.8	45	0	987.4	NA	0.0000	-SN BR	2100	0	0	0	2990
2019/11/22 08:51:00	BASE	3.99	137	5.30	139	-1.8	100	-1.8	45	0	987.4	NA	0.0000	-SN BR	2500	330	1970	0	0
2019/11/22 08:52:00	BASE	3.61	137	5.30	139	-1.8	100	-1.8	47	0	987.4	NA	0.0000	-SN BR	2300	300	0	0	0
2019/11/22 08:53:00	BASE	3.91	138	5.30	139	-1.8	100	-1.8	50	0	987.4	NA	0.0000	-SN BR	2200	0	0	0	3020
2019/11/22 08:54:00	BASE	4.39	141	5.30	139	-1.8	100	-1.8	53	0	987.4	NA	0.0000	-SN BR	2100	260	0	0	0
2019/11/22 08:55:00	BASE	4.64	141	5.30	134	-1.8	100	-1.8	55	0	987.3	NA	0.0000	-SN BR	2000	300	0	0	0
2019/11/22 08:56:00	BASE	4.87	138	5.30	134	-1.8	100	-1.8	58	0	987.3	NA	0.0000	-SN BR	2000	0	0	0	2530
2019/11/22 08:57:00	BASE	5.09	135	5.86	134	-1.8	100	-1.8	60	0	987.3	NA	0.0000	-SN BR	1700	0	0	0	2820
2019/11/22 08:58:00	BASE	5.18	130	5.86	134	-1.8	100	-1.8	63	0	987.3	NA	0.0000	-SN BR	1400	260	0	0	0
2019/11/22 08:59:00	BASE	4.95	130	5.86	134	-1.7	100	-1.7	66	0	987.3	NA	0.0000	-SN BR	1200	0	0	0	3150
2019/11/22 09:00:00	BASE	4.68	130	5.86	134	-1.6	100	-1.6	67	0	987.4	NA	0.0000	-SN BR	1200	260	0	0	0
2019/11/22 09:01:00	BASE	4.71	126	5.86	134	-1.5	100	-1.5	67	0	987.4	NA	0.0000	-SN BR	1700	300	0	0	0
2019/11/22 09:02:00	BASE	4.88	124	5.86	134	-1.5	100	-1.5	66	0	987.4	NA	0.0000	-SN BR	1900	300	0	0	0
2019/11/22 09:03:00	BASE	4.67	125	5.86	134	-1.5	100	-1.5	65	0	987.4	NA	0.0000	-SN BR	1900	330	0	0	0
2019/11/22 09:04:00	BASE	4.36	129	5.86	134	-1.5	100	-1.5	63	0	987.3	NA	0.0000	-SN BR	2000	360	0	0	0
2019/11/22 09:05:00	BASE	4.80	131	6.12	132	-1.5	100	-1.5	60	0	987.3	NA	0.0000	-SN BR	2100	360	0	0	0
2019/11/22 09:06:00	BASE	5.53	126	6.84	118	-1.5	100	-1.5	57	0	987.3	NA	0.0000	-SN BR	2400	360	0	0	0
2019/11/22 09:07:00	BASE	6.24	120	7.05	115	-1.5	100	-1.5	54	0	987.3	NA	0.0000	-SN BR	2700	360	0	0	0
2019/11/22 09:08:00	BASE	6.34	121	7.05	115	-1.5	100	-1.5	51	0	987.2	NA	0.0000	-SN BR	3100	430	0	0	0
2019/11/22 09:09:00	BASE	5.37	129	7.05	115	-1.5	100	-1.5	50	0	987.2	NA	0.0000	-SN BR	4600	2100	0	0	0
2019/11/22 09:10:00	BASE	4.46	134	7.05	115	-1.4	100	-1.4	48	0	987.3	NA	0.0000	-SN BR	5000	2260	0	0	0
2019/11/22 09:11:00	BASE	4.50	127	7.05	115	-1.3	100	-1.3	47	0	987.3	NA	0.0000	-SN BR	6000	390	0	0	0
2019/11/22 09:12:00	BASE	5.49	121	7.05	115	-1.2	100	-1.2	46	0	987.3	NA	0.0000	-SN BR	8000	390	0	0	0
2019/11/22 09:13:00	BASE	5.86	124	7.05	115	-1.0	100	-1.0	45	0	987.3	NA	0.0000	-SN BR	8000	360	0	0	0
2019/11/22 09:14:00	BASE	4.98	133	7.05	115	-1.0	100	-1.0	45	0	987.3	NA	0.0000	-SN BR	7000	2130	0	0	0
2019/11/22 09:15:00	BASE	4.42	141	7.05	115	-0.9	100	-0.9	45	0	987.3	NA	0.0000	-SN BR	9000	2170	0	0	0
2019/11/22 09:16:00	BASE	4.43	137	7.05	115	-1.0	100	-1.0	45	0	987.4	NA	0.0000	-SN BR	9999	2170	0	0	0
2019/11/22 09:17:00	BASE	4.36	128	6.53	113	-1.0	100	-1.0	46	0	987.4	NA	0.0000	-SN BR	9999	1970	0	0	0
2019/11/22 09:18:00	BASE	4.54	133	6.33	120	-1.1	100	-1.1	47	0	987.4	NA	0.0000	-SN BR	9999	2170	0	0	0
2019/11/22 09:19:00	BASE	4.73	144	6.33	120	-1.2	100	-1.2	48	0	987.3	NA	0.0000	-SN BR	9999	2200	0	0	0
2019/11/22 09:20:00	BASE	4.15	155	6.33	120	-1.3	100	-1.3	49	0	987.3	NA	0.0000	-SN	9999	1970	0	0	0
2019/11/22 09:21:00	BASE	3.80	167	6.33	120	-1.3	100	-1.3	50	0	987.3	NA	0.0000	-SN	9999	1970	0	0	0
2019/11/22 09:22:00	BASE	4.81	166	6.12	118	-1.4	100	-1.4	52	0	987.2	NA	0.0000	-SN	9999	2100	0	0	0
2019/11/22 09:23:00	BASE	5.43	162	6.02	156	-1.5	100	-1.5	53	0	987.1	NA	0.0000	-SN	9999	2030	0	0	0
2019/11/22 09:24:00	BASE	6.03	157	8.08	146	-1.5	100	-1.5	53	0	987.0	NA	0.0000	-SN	9999	2070	0	0	0
2019/11/22 09:25:00	BASE	5.71	140	8.08	146	-1.6	100	-1.6	53	0	987.2	NA	0.0000		9999	2030	0	0	0
2019/11/22 09:26:00	BASE	4.97	141	8.08	146	-1.6	100	-1.6	54	0	987.0	NA	0.0000		9999	1900	0	0	0
2019/11/22 09:27:00	BASE	6.22	153	8.08	146	-1.6	100	-1.6	54	0	986.9	NA	0.0000		9999	1940	0	0	0
2019/11/22 09:28:00	BASE	7.01	150	8.08	146	-1.6	100	-1.6	56	0	987.0	NA	0.0000	-SN	9999	2070	0	0	0
2019/11/22 09:29:00	BASE	5.79	153	8.08	146	-1.6	100	-1.6	57	0	987.1	NA	0.0000		9999	2070	0	0	0
2019/11/22 09:30:00	BASE	4.68	157	8.08	146	-1.5	100	-1.5	59	0	987.1	NA	0.0000		9999	2100	0	0	0
2019/11/22 09:31:00	BASE	5.13	136	8.08	146	-1.5	100	-1.5	61	0	987.1	NA	0.0000		9999	2070	0	0	0
2019/11/22 09:32:00	BASE	6.73	121	8.75	123	-1.5	100	-1.5	62	0	987.0	NA	0.0000		9999	2170	0	0	0
2019/11/22 09:33:00	BASE	7.40	126	8.75	123	-1.5	100	-1.5	63	0	987.1	NA	0.0000		9999	2000	0	0	0
2019/11/22 09:34:00	BASE	6.68	124	8.75	123	-1.4	100	-1.4	64	0	987.2	NA	0.0000		9999	1970	0	0	0
2019/11/22 09:35:00	BASE	7.02	117	8.75	123	-1.3	100	-1.3	65	0	987.1	NA	0.0000		9999	2100	0	0	0
2019/11/22 09:36:00	BASE	7.49	119	8.75	123	-1.3	100	-1.3	65	0	987.1	NA	0.0000		9999	2130	0	0	0
2019/11/22 09:37:00	BASE	7.31	126	8.75	123	-1.2	100	-1.2	66	0	987.0	NA	0.0000		9999	2490	0	0	0
2019/11/22 09:38:00	BASE	7.35	130	8.75	123	-1.2	100	-1.2	66	0	987.0	NA	0.0000		9999	2460	0	0	0
2019/11/22 09:39:00	BASE	6.74	124	8.75	123	-1.1	100	-1.1	67	0	987.1	NA	0.0000		9999	2070	0	0	0
2019/11/22 09:40:00	BASE	5.53	109	8.75	123	-1.1	100	-1.1	68	0	987.3	NA	0.0000		9999	2100	0	0	0
2019/11/22 09:41:00	BASE	5.42	108	8.75	123	-1.1	100	-1.1	69	0	987.2	NA	0.0000		9999	2530	0	0	0
2019/11/22 09:42:00	BASE	5.66	121	8.08	124	-1.1	100	-1.1	71	0	987.2	NA	0.0000		9999	2170	0	0	0
2019/11/22 09:43:00	BASE	5.29	122	7.92	120	-1.1	100	-1.1	74	0	987.1	NA	0.0000		9999	2130	0	0	0
2019/11/22 09:44:00	BASE	4.85	120	7.92	120	-1.0	100	-1.0	76	0	987.2	NA	0.0000		9999	2330	0	0	0
2019/11/22 09:45:00	BASE	5.29	120	7.92	120	-1.0	100	-1.0	78	0	987.2	NA	0.0000		9999	2200	0	0	0
2019/11/22 09:46:00	BASE	5.43	128	7.67	133	-1.0	100	-1.0	81	0	987.2	NA	0.0000		9999	2300	0	0	0
2019/11/22 09:47:00	BASE	4.14	150	7.67	133	-1.0	100	-1.0	82	0	987.2	NA	0.0000		9999	2260	0	0	0
2019/11/22 09:48:00	BASE	4.58	151	7.31	133	-1.0	100	-1.0	84	0	987.1	NA	0.0000		9999	2300	0	0	0
2019/11/22 09:49:00	BASE	6.25	140	7.00	133	-1.0	100	-1.0	86	0	987.0	NA	0.0000		9999	2260	0	0	0
2019/11/22 09:50:00	BASE	6.86	139	7.41	133	-0.9	100	-0.9	88	0	987.0	NA	0.0000		9999	2130	0	0	0
2019/11/22 09:51:00	BASE	6.68	140	7.61	147	-0.9	100	-0.9	89	0	987.0	NA	0.0000		9999	2260	0	0	0
2019/11/22 09:52:00	BASE	5.94	144	7.61	147	-0.8	100	-0.8	89	0	987.1	NA	0.0000		9999	2230	0	0	0
2019/11/22 09:53:00	BASE	5.42	144	7.61	147	-0.7	100	-0.7	90	0	987.2	NA	0.0000		9999	2300	0	0	0
2019/11/22 09:54:00	BASE	5.35	140	7.61	147	-0.7	100	-0.7	90	0	987.1	NA	0.0000		9999	2300	0	0	0
2019/11/22 09:55:00	BASE	5.30	137	7.61	147	-0.6	100	-0.6	90	0	987.2	NA	0.0000		9999	2100	2660	0	0
2019/11/22 09:56:00	BASE	5.41	133	7.61	147	-0.6	100	-0.6	90	0	987.2	NA	0.0000		9999	2200	0	0	0
2019/11/22 09:57:00	BASE	5.63	126	7.61	147	-0.7	100	-0.7	89	0	987.1	NA	0.0000		9999	2330	0	0	0
2019/11/22 09:58:00	BASE	5.92	129	7.61	147	-0.7	100	-0.7	88	0	987.1	NA	0.0000		9999	2560	0	0	0
2019/11/22 09:59:00	BASE	5.67	135	7.61	147	-0.7	100	-0.7	87	0	987.1	NA	0.0000		9999	2170	0	0	0
2019/11/22 10:00:00	BASE	5.13	127	7.61	147	-0.7	100	-0.7	85	0	987.1	NA	0.0000		9999	2070	0	0	0
2019/11/22 10:01:00	BASE	5.95	114	7.61	107	-0.7	100	-0.7	84	0	987.2	NA	0.0000		9999	2230	0	0	0
2019/11/22 10:02:00	BASE	5.99	109	7.61	107	-0.6	100	-0.6	83	0	987.2	NA	0.0000		9999	2260	0	0	0
2019/11/22 10:03:00	BASE	3.99	111	7.61	107	-0.5	100	-0.5	81	0	987.2	NA	0.0000		9999	2690	0	0	0
2019/11/22 10:04:00	BASE	4.06	109	7.61	107	-0.4	100	-0.5	79	0	987.2	NA	0.0000		9999	2490	0	0	0
2019/11/22 10:05:00	BASE	5.21	112	7.61	107	-0.3	99	-0.5	78	0	987.1	NA	0.0000		9999	2660	0	0	0
2019/11/22 10:06:00	BASE	4.70	118	7.61	107	-0.2	98	-0.5	78	0	987.1	NA	0.0000		9999	2360	0	0	0
2019/11/22 10:07:00	BASE	4.07	123	7.61	107	0.0	98	-0.3	79	0	987.1	NA	0.0000		9999	2300	0	0	0
2019/11/22 10:08:00	BASE	4.44	121	7.61	107	0.3	97	-0.1	81	0	987.0	NA	0.0000		9999	2590	0	0	0
2019/11/22 10:09:00	BASE	3.50	119	7.61	107	0.7	96	0.2	85	0	987.1	NA	0.0000		9999	2360	0	0	0
2019/11/22 10:10:00	BASE	3.20	121	7.61	107	1.1	95	0.3	89	0	987.2	NA	0.0000		9999	2430	0	0	0
2019/11/22 10:11:00	BASE	3.45	90	7.15	102	1.3	93	0.2	92	0	987.2	NA	0.0000		9999	2530	0	0	0
2019/11/22 10:12:00	BASE	1.82	111	6.53	109	1.3	90	-0.1	94	0	987.3	NA	0.0000		9999	2950	0	0	0
2019/11/22 10:13:00	BASE	1.50	247	6.53	109	1.0	89	-0.6	95	0	987.2	NA	0.0000		9999	2300	3020	0	0
2019/11/22 10:14:00	BASE	2.60	270	6.22	110	0.6	87	-1.2	93	0	987.3	NA	0.0000		9999	2230	0	0	0
2019/11/22 10:15:00	BASE	3.86	238	6.02	114	0.3	87	-1.6	93	0	987.2	NA	0.0000		9999	2590	0	0	0
2019/11/22 10:16:00	BASE	3.19	180	6.02	114	0.1	88	-1.7	93	0	987.3	NA	0.0000		9999	2590	0	0	0
2019/11/22 10:17:00	BASE	2.17	167	6.02	114	0.0	90	-1.5	95	0	987.3	NA	0.0000		9999	2200	0	0	0
2019/11/22 10:18:00	BASE	3.22	167	5.35	132	-0.0	91	-1.4	98	0	987.2	NA	0.0000		9999	2030	0	0	0
2019/11/22 10:19:00	BASE	5.14	172	6.94	184	-0.0	91	-1.3	99	0	987.1	NA	0.0000		9999	2560	0	0	0
2019/11/22 10:20:00	BASE	5.69	173	6.94	184	-0.0	92	-1.2	102	0	987.2	NA	0.0000		9999	2890	0	0	0
2019/11/22 10:21:00	BASE	5.30	162	6.94	184	-0.1	92	-1.3	103	0	987.1	NA	0.0000		9999	2300	0	0	0
2019/11/22 10:22:00	BASE	4.47	145	6.94	184	-0.2	92	-1.4	101	0	987.0	NA	0.0000		9999	2400	0	0	0
2019/11/22 10:23:00	BASE	2.75	109	6.94	184	-0.1	92	-1.2	99	0	987.1	NA	0.0000		9999	2230	0	0	0
2019/11/22 10:24:00	BASE	2.08	360	6.94	184	0.3	93	-0.7	97	0	987.3	NA	0.0000		9999	2100	0	0	0
2019/11/22 10:25:00	BASE	2.45	342	6.94	184	0.5	93	-0.4	96	0	987.3	NA	0.0000		9999	2130	0	0	0
2019/11/22 10:26:00	BASE	2.41	299	6.94	184	0.7	93	-0.3	97	0	987.3	NA	0.0000		9999	2100	2690	0	0
2019/11/22 10:27:00	BASE	2.82	193	6.94	184	0.7	92	-0.4	99	0	987.3	NA	0.0000		9999	2690	0	0	0
2019/11/22 10:28:00	BASE	3.28	176	6.94	184	0.5	91	-0.8	101	0	987.3	NA	0.0000		9999	2070	0	0	0
2019/11/22 10:29:00	BASE	3.07	158	5.92	158	0.1	90	-1.4	102	0	987.3	NA	0.0000		9999	2200	0	0	0
2019/11/22 10:30:00	BASE	3.84	156	5.92	158	-0.3	90	-1.6	100	0	987.2	NA	0.0000		9999	2230	2690	0	0
2019/11/22 10:31:00	BASE	4.25	172	4.99	167	-0.5	91	-1.7	97	0	987.2	NA	0.0000		9999	2660	0	0	0
2019/11/22 10:32:00	BASE	3.30	181	4.99	167	-0.6	93	-1.6	94	0	987.2	NA	0.0000		9999	2560	0	0	0
2019/11/22 10:33:00	BASE	2.36	192	4.99	167	-0.7	94	-1.6	94	0	987.3	NA	0.0000		9999	2170	0	0	0
2019/11/22 10:34:00	BASE	2.44	182	4.99	167	-0.7	95	-1.4	93	0	987.2	NA	0.0000		9999	2590	0	0	0
2019/11/22 10:35:00	BASE	3.01	155	4.99	167	-0.6	96	-1.1	93	0	987.2	NA	0.0000		9999	2460	0	0	0
2019/11/22 10:36:00	BASE	3.99	154	5.35	161	-0.5	97	-1.0	93	0	987.3	NA	0.0000		9999	2300	0	0	0
2019/11/22 10:37:00	BASE	4.37	152	5.35	161	-0.5	97	-0.9	95	0	987.3	NA	0.0000		9999	2230	0	0	0
2019/11/22 10:38:00	BASE	4.09	149	5.35	161	-0.5	97	-0.9	97	0	987.2	NA	0.0000		9999	2360	0	0	0
2019/11/22 10:39:00	BASE	4.13	141	5.35	161	-0.5	97	-0.8	96	0	987.3	NA	0.0000		9999	2460	0	0	0
2019/11/22 10:40:00	BASE	3.68	131	5.35	161	-0.6	97	-1.0	96	0	987.3	NA	0.0000		9999	2430	0	0	0
2019/11/22 10:41:00	BASE	4.07	138	5.45	154	-0.7	97	-1.1	96	0	987.2	NA	0.0000		9999	2400	0	0	0
2019/11/22 10:42:00	BASE	4.37	148	5.56	159	-0.7	97	-1.1	95	0	987.2	NA	0.0000		9999	2430	0	0	0
2019/11/22 10:43:00	BASE	3.44	162	5.56	159	-0.7	97	-1.1	93	0	987.3	NA	0.0000		9999	2690	0	0	0
2019/11/22 10:44:00	BASE	2.70	158	5.56	159	-0.7	97	-1.1	90	0	987.3	NA	0.0000		9999	2620	4560	0	0
2019/11/22 10:45:00	BASE	3.12	139	5.56	159	-0.7	97	-1.1	88	0	987.3	NA	0.0000		9999	2170	0	0	0
2019/11/22 10:46:00	BASE	4.04	132	5.56	159	-0.8	97	-1.1	89	0	987.3	NA	0.0000		9999	2230	0	0	0
2019/11/22 10:47:00	BASE	3.75	123	5.56	159	-0.7	97	-1.1	87	0	987.3	NA	0.0000		9999	2300	0	0	0
2019/11/22 10:48:00	BASE	3.04	123	5.56	159	-0.7	97	-1.2	83	0	987.3	NA	0.0000		9999	2430	0	0	0
2019/11/22 10:49:00	BASE	2.98	136	5.56	159	-0.7	97	-1.1	81	0	987.3	NA	0.0000		9999	2330	0	0	0
2019/11/22 10:50:00	BASE	3.19	141	5.56	159	-0.7	97	-1.1	81	0	987.3	NA	0.0000		9999	2100	0	0	0
2019/11/22 10:51:00	BASE	3.71	144	5.56	159	-0.6	97	-1.0	81	0	987.3	NA	0.0000		9999	2100	0	0	0
2019/11/22 10:52:00	BASE	4.36	150	5.04	124	-0.6	97	-1.0	83	0	987.3	NA	0.0000		9999	2170	0	0	0
2019/11/22 10:53:00	BASE	4.78	153	5.09	151	-0.5	97	-0.9	86	0	987.3	NA	0.0000		9999	2130	0	0	0
2019/11/22 10:54:00	BASE	5.08	147	5.61	145	-0.5	97	-0.9	89	0	987.3	NA	0.0000		9999	2100	0	0	0
2019/11/22 10:55:00	BASE	5.22	134	5.81	124	-0.4	96	-0.9	93	0	987.3	NA	0.0000		9999	2100	0	0	0
2019/11/22 10:56:00	BASE	5.22	124	5.81	124	-0.4	96	-1.0	99	0	987.3	NA	0.0000		9999	2070	0	0	0
2019/11/22 10:57:00	BASE	5.36	121	6.28	114	-0.3	95	-1.0	104	0	987.3	NA	0.0000		9999	2100	0	0	0
2019/11/22 10:58:00	BASE	5.33	129	6.28	114	-0.2	95	-0.9	108	0	987.3	NA	0.0000		9999	2230	0	0	0
2019/11/22 10:59:00	BASE	4.81	136	6.28	114	-0.0	94	-0.9	112	0	987.3	NA	0.0000		9999	2070	0	0	0
2019/11/22 11:00:00	BASE	4.35	140	6.28	114	0.0	93	-0.9	114	0	987.3	NA	0.0000		9999	2100	0	0	0
2019/11/22 11:01:00	BASE	4.54	147	6.28	114	0.1	92	-1.1	114	0	987.3	NA	0.0000		9999	2100	0	0	0
2019/11/22 11:02:00	BASE	4.87	153	6.28	114	0.0	91	-1.3	114	0	987.3	NA	0.0000		9999	2170	0	0	0
2019/11/22 11:03:00	BASE	4.99	160	6.28	114	-0.1	90	-1.5	113	0	987.3	NA	0.0000		9999	2030	0	0	0
2019/11/22 11:04:00	BASE	4.99	160	6.28	114	-0.2	90	-1.6	112	0	987.3	NA	0.0000		9999	2030	0	0	0
2019/11/22 11:05:00	BASE	4.59	155	6.28	114	-0.3	91	-1.6	111	0	987.3	NA	0.0000		9999	2130	0	0	0
2019/11/22 11:06:00	BASE	4.02	149	6.28	114	-0.4	92	-1.6	111	0	987.3	NA	0.0000		9999	2070	0	0	0
2019/11/22 11:07:00	BASE	3.72	141	5.45	159	-0.4	92	-1.5	111	0	987.3	NA	0.0000		9999	2070	0	0	0
2019/11/22 11:08:00	BASE	3.76	129	5.45	159	-0.4	93	-1.5	111	0	987.3	NA	0.0000		9999	2100	0	0	0
2019/11/22 11:09:00	BASE	3.83	124	5.45	159	-0.4	93	-1.4	110	0	987.3	NA	0.0000		9999	2260	0	0	0
2019/11/22 11:10:00	BASE	3.53	129	5.45	159	-0.4	94	-1.3	108	0	987.3	NA	0.0000		9999	2230	0	0	0
2019/11/22 11:11:00	BASE	3.43	135	5.45	159	-0.4	94	-1.3	107	0	987.3	NA	0.0000		9999	2100	0	0	0
2019/11/22 11:12:00	BASE	3.43	135	5.45	159	-0.3	94	-1.1	106	0	987.3	NA	0.0000		9999	2200	0	0	0
2019/11/22 11:13:00	BASE	3.29	138	5.45	159	-0.2	94	-1.1	103	0	987.3	NA	0.0000		9999	2300	0	0	0
2019/11/22 11:14:00	BASE	3.77	148	4.84	156	-0.1	94	-1.0	99	0	987.3	NA	0.0000		9999	2360	0	0	0
2019/11/22 11:15:00	BASE	4.51	159	5.25	165	-0.0	93	-1.0	96	0	987.2	NA	0.0000		9999	2330	0	0	0
2019/11/22 11:16:00	BASE	4.58	167	5.25	165	0.0	93	-1.0	94	0	987.2	NA	0.0000		9999	2260	0	0	0
2019/11/22 11:17:00	BASE	4.03	173	5.25	165	0.1	92	-1.0	92	0	987.3	NA	0.0000		9999	2070	0	0	0
2019/11/22 11:18:00	BASE	3.25	176	5.25	165	0.0	92	-1.2	91	0	987.3	NA	0.0000		9999	2170	0	0	0
2019/11/22 11:19:00	BASE	3.06	171	5.25	165	-0.0	91	-1.3	91	0	987.3	NA	0.0000		9999	2000	0	0	0
2019/11/22 11:20:00	BASE	3.11	164	5.25	165	-0.1	91	-1.4	93	0	987.3	NA	0.0000		9999	2070	0	0	0
2019/11/22 11:21:00	BASE	2.89	162	5.25	165	-0.2	91	-1.4	95	0	987.4	NA	0.0000		9999	2100	0	0	0
2019/11/22 11:22:00	BASE	3.04	159	5.25	165	-0.3	92	-1.5	98	0	987.4	NA	0.0000		9999	2200	0	0	0
2019/11/22 11:23:00	BASE	3.20	157	5.25	165	-0.3	92	-1.4	101	0	987.4	NA	0.0000		9999	2170	0	0	0
2019/11/22 11:24:00	BASE	3.59	150	5.25	165	-0.3	93	-1.4	104	0	987.3	NA	0.0000		9999	2170	0	0	0
2019/11/22 11:25:00	BASE	3.91	144	4.78	141	-0.3	93	-1.3	106	0	987.3	NA	0.0000		9999	2100	0	0	0
2019/11/22 11:26:00	BASE	3.58	139	4.78	141	-0.3	93	-1.2	109	0	987.4	NA	0.0000		9999	2130	0	0	0
2019/11/22 11:27:00	BASE	2.60	134	4.78	141	-0.2	93	-1.1	114	0	987.4	NA	0.0000		9999	2260	0	0	0
2019/11/22 11:28:00	BASE	2.01	138	4.78	141	-0.1	93	-1.1	119	0	987.4	NA	0.0000		9999	2200	0	0	0
2019/11/22 11:29:00	BASE	2.28	147	4.78	141	-0.1	93	-1.2	125	0	987.4	NA	0.0000		9999	2360	23300	0	0
2019/11/22 11:30:00	BASE	2.68	152	4.78	141	-0.1	92	-1.2	130	0	987.3	NA	0.0000		9999	2330	0	0	0
2019/11/22 11:31:00	BASE	3.26	152	4.78	141	-0.1	92	-1.3	136	0	987.3	NA	0.0000		9999	2330	0	0	0
2019/11/22 11:32:00	BASE	3.63	155	4.78	141	-0.1	91	-1.3	142	0	987.3	NA	0.0000		9999	2130	0	0	0
2019/11/22 11:33:00	BASE	3.55	162	4.78	141	-0.0	91	-1.4	147	0	987.3	NA	0.0000		9999	2490	0	0	0
2019/11/22 11:34:00	BASE	3.46	169	4.37	150	-0.0	90	-1.4	152	0	987.3	NA	0.0000		9999	2430	0	0	0
2019/11/22 11:35:00	BASE	3.35	171	3.81	158	-0.0	90	-1.4	155	0	987.3	NA	0.0000		9999	2660	0	0	0
2019/11/22 11:36:00	BASE	3.11	168	3.81	158	-0.0	90	-1.5	154	0	987.3	NA	0.0000		9999	2720	0	0	0
2019/11/22 11:37:00	BASE	3.30	160	3.81	158	-0.1	90	-1.5	153	0	987.3	NA	0.0000		9999	2460	0	0	0
2019/11/22 11:38:00	BASE	3.66	154	4.06	151	-0.1	90	-1.5	152	0	987.3	NA	0.0000		9999	2560	0	0	0
2019/11/22 11:39:00	BASE	3.69	159	4.06	151	-0.1	90	-1.5	152	0	987.3	NA	0.0000		9999	2490	0	0	0
2019/11/22 11:40:00	BASE	3.29	164	4.06	151	-0.1	90	-1.5	154	0	987.3	NA	0.0000		9999	2760	0	0	0
2019/11/22 11:41:00	BASE	2.59	156	4.06	151	-0.1	91	-1.5	158	0	987.4	NA	0.0000		9999	2820	0	0	0
2019/11/22 11:42:00	BASE	2.42	143	4.06	151	-0.2	91	-1.5	161	0	987.4	NA	0.0000		9999	2850	0	0	0
2019/11/22 11:43:00	BASE	2.90	150	4.06	151	-0.2	92	-1.4	165	0	987.4	NA	0.0000		9999	3050	0	0	0
2019/11/22 11:44:00	BASE	3.25	164	4.06	151	-0.2	92	-1.4	170	0	987.4	NA	0.0000		9999	3080	0	0	0
2019/11/22 11:45:00	BASE	3.13	167	4.06	151	-0.3	92	-1.4	174	0	987.3	NA	0.0000		9999	3180	0	0	0
2019/11/22 11:46:00	BASE	2.75	167	4.06	151	-0.3	93	-1.3	178	0	987.3	NA	0.0000		9999	3150	0	0	0
2019/11/22 11:47:00	BASE	2.37	163	4.06	151	-0.4	93	-1.3	183	0	987.3	NA	0.0000		9999	3220	0	0	0
2019/11/22 11:48:00	BASE	2.01	161	3.86	166	-0.4	94	-1.3	189	0	987.3	NA	0.0000		9999	3150	0	0	0
2019/11/22 11:49:00	BASE	1.89	164	3.60	163	-0.5	94	-1.2	194	0	987.3	NA	0.0000		9999	3120	0	0	0
2019/11/22 11:50:00	BASE	2.10	164	3.60	163	-0.5	95	-1.2	201	0	987.3	NA	0.0000		9999	3120	0	0	0
2019/11/22 11:51:00	BASE	2.22	168	3.60	163	-0.5	96	-1.1	210	0	987.3	NA	0.0000		9999	3350	0	0	0
2019/11/22 11:52:00	BASE	2.12	173	3.60	163	-0.5	96	-1.0	218	0	987.3	NA	0.0000		9999	3020	0	0	0
2019/11/22 11:53:00	BASE	2.12	169	3.50	168	-0.5	97	-0.9	225	0	987.3	NA	0.0000		9999	2990	0	0	0
2019/11/22 11:54:00	BASE	1.82	173	3.19	163	-0.5	97	-0.9	228	0	987.3	NA	0.0000		9999	2230	3220	0	0
2019/11/22 11:55:00	BASE	0.92	184	3.04	172	-0.5	98	-0.8	229	0	987.4	NA	0.0000		9999	2300	0	0	0
2019/11/22 11:56:00	BASE	0.65	198	2.52	168	-0.5	98	-0.8	229	0	987.4	NA	0.0000		9999	2400	3310	0	0
2019/11/22 11:57:00	BASE	1.38	207	2.52	168	-0.4	98	-0.7	228	0	987.3	NA	0.0000		9999	3250	4490	17980	0
2019/11/22 11:58:00	BASE	2.09	197	2.73	184	-0.4	98	-0.7	226	0	987.3	NA	0.2540		9999	2230	3250	0	0
2019/11/22 11:59:00	BASE	2.71	186	3.45	175	-0.4	98	-0.7	223	0	987.3	NA	0.0000		9999	2430	3410	0	0
2019/11/22 12:00:00	BASE	3.19	178	3.45	177	-0.4	98	-0.7	217	0	987.3	NA	0.0000		9999	3310	4630	0	0
2019/11/22 12:01:00	BASE	3.51	174	4.12	174	-0.4	98	-0.7	211	0	987.3	NA	0.0000		9999	3250	0	0	0
2019/11/22 12:02:00	BASE	3.77	172	4.12	172	-0.3	98	-0.7	206	0	987.3	NA	0.0000		9999	2490	3280	0	0
2019/11/22 12:03:00	BASE	3.85	171	4.12	172	-0.3	97	-0.7	200	0	987.3	NA	0.0000		9999	3280	0	0	0
2019/11/22 12:04:00	BASE	3.73	174	4.12	172	-0.3	97	-0.7	195	0	987.3	NA	0.0000		9999	2360	3350	0	0
2019/11/22 12:05:00	BASE	3.28	174	4.12	172	-0.3	97	-0.7	190	0	987.4	NA	0.0000		9999	2460	3280	0	0
2019/11/22 12:06:00	BASE	2.94	166	4.12	172	-0.3	97	-0.8	185	0	987.4	NA	0.0000		9999	2400	3280	0	0
2019/11/22 12:07:00	BASE	3.20	157	4.12	172	-0.3	96	-0.8	184	0	987.4	NA	0.0000		9999	2430	0	0	0
2019/11/22 12:08:00	BASE	3.45	151	4.12	172	-0.3	96	-0.8	184	0	987.4	NA	0.0000		9999	2330	0	0	0
2019/11/22 12:09:00	BASE	3.70	150	4.42	152	-0.3	96	-0.8	184	0	987.4	NA	0.0000		9999	2430	3280	0	0
2019/11/22 12:10:00	BASE	4.02	153	4.42	152	-0.2	96	-0.8	183	0	987.3	NA	0.0000		9999	3250	0	0	0
2019/11/22 12:11:00	BASE	3.96	153	4.42	152	-0.1	96	-0.7	181	0	987.4	NA	0.0000		9999	2360	3220	0	0
2019/11/22 12:12:00	BASE	3.71	156	4.42	152	-0.1	96	-0.7	181	0	987.4	NA	0.0000		9999	2360	3180	0	0
2019/11/22 12:13:00	BASE	3.79	158	4.42	152	-0.1	96	-0.7	181	0	987.4	NA	0.0000		9999	2400	3250	0	0
2019/11/22 12:14:00	BASE	3.96	156	4.42	152	-0.1	95	-0.8	183	0	987.4	NA	0.0000		9999	2400	3280	0	0
2019/11/22 12:15:00	BASE	4.09	153	4.63	150	-0.1	95	-0.8	186	0	987.3	NA	0.0000		9999	2430	3120	0	0
2019/11/22 12:16:00	BASE	4.32	149	4.68	153	-0.2	95	-0.8	190	0	987.3	NA	0.0000		9999	2430	3120	0	0
2019/11/22 12:17:00	BASE	4.71	147	5.45	147	-0.1	95	-0.8	195	0	987.3	NA	0.0000		9999	2330	3050	0	0
2019/11/22 12:18:00	BASE	4.88	143	5.45	147	-0.1	96	-0.7	199	0	987.3	NA	0.0000		9999	2990	0	0	0
2019/11/22 12:19:00	BASE	4.44	139	5.45	147	0.0	96	-0.6	202	0	987.3	NA	0.0000		9999	2200	2920	21880	0
2019/11/22 12:20:00	BASE	4.03	134	5.45	147	0.1	95	-0.6	207	0	987.3	NA	0.0000		9999	2170	3050	0	0
2019/11/22 12:21:00	BASE	3.51	126	5.45	147	0.2	95	-0.6	213	0	987.4	NA	0.0000		9999	3050	21490	0	0
2019/11/22 12:22:00	BASE	3.34	125	5.45	147	0.3	94	-0.6	219	0	987.3	NA	0.0000		9999	2760	0	0	0
2019/11/22 12:23:00	BASE	3.53	130	5.45	147	0.3	93	-0.6	225	0	987.3	NA	0.0000		9999	2430	0	0	0
2019/11/22 12:24:00	BASE	3.44	128	5.45	147	0.4	92	-0.7	231	0	987.3	NA	0.0000		9999	2130	0	0	0
2019/11/22 12:25:00	BASE	3.36	125	5.45	147	0.5	91	-0.8	237	0	987.3	NA	0.0000		9999	2260	0	0	0
2019/11/22 12:26:00	BASE	3.68	124	5.45	147	0.6	90	-0.8	244	0	987.3	NA	0.0000		9999	2130	21330	0	0
2019/11/22 12:27:00	BASE	3.90	124	5.14	141	0.8	89	-0.9	251	0	987.3	NA	0.0000		9999	2230	0	0	0
2019/11/22 12:28:00	BASE	3.74	118	4.42	132	0.9	87	-0.9	255	0	987.3	NA	0.0000		9999	2100	5280	0	0
2019/11/22 12:29:00	BASE	3.60	117	4.32	133	1.0	86	-1.1	252	0	987.3	NA	0.0000		9999	2030	0	0	0
2019/11/22 12:30:00	BASE	3.72	123	4.32	133	1.0	85	-1.3	249	0	987.3	NA	0.0000		9999	6000	0	0	0
2019/11/22 12:31:00	BASE	4.41	121	5.61	116	1.0	84	-1.4	246	0	987.3	NA	0.0000		9999	5380	0	0	0
2019/11/22 12:32:00	BASE	5.04	120	5.61	116	0.9	83	-1.6	244	0	987.3	NA	0.0000		9999	5180	0	0	0
2019/11/22 12:33:00	BASE	5.12	123	5.61	116	0.8	83	-1.7	239	0	987.3	NA	0.0000		9999	5220	0	0	0
2019/11/22 12:34:00	BASE	5.00	126	5.61	116	0.8	84	-1.6	237	0	987.3	NA	0.0000		9999	4860	0	0	0
2019/11/22 12:35:00	BASE	4.67	125	5.61	116	0.8	84	-1.6	237	0	987.3	NA	0.0000		9999	4720	22340	0	0
2019/11/22 12:36:00	BASE	4.33	123	5.61	116	0.8	84	-1.6	241	0	987.3	NA	0.0000		9999	2170	0	0	0
2019/11/22 12:37:00	BASE	4.12	127	5.61	116	0.7	84	-1.7	248	0	987.3	NA	0.0000		9999	3050	4920	0	0
2019/11/22 12:38:00	BASE	4.23	130	5.61	116	0.7	84	-1.7	256	0	987.3	NA	0.0000		9999	3050	4820	0	0
2019/11/22 12:39:00	BASE	4.47	131	5.61	116	0.7	84	-1.7	264	0	987.3	NA	0.0000		9999	3120	4820	0	0
2019/11/22 12:40:00	BASE	4.63	130	5.61	116	0.6	85	-1.7	269	0	987.3	NA	0.0000		9999	4790	0	0	0
2019/11/22 12:41:00	BASE	4.72	132	5.56	124	0.6	85	-1.6	275	0	987.3	NA	0.0000		9999	4790	0	0	0
2019/11/22 12:42:00	BASE	4.83	136	5.56	124	0.6	85	-1.6	281	0	987.4	NA	0.0000		9999	4860	19980	0	0
2019/11/22 12:43:00	BASE	4.58	136	5.35	130	0.6	85	-1.6	288	0	987.4	NA	0.0000		9999	2430	3020	0	0
2019/11/22 12:44:00	BASE	3.65	135	5.20	140	0.6	85	-1.6	297	0	987.4	NA	0.0000		9999	3020	0	0	0
2019/11/22 12:45:00	BASE	3.63	141	5.20	140	0.6	85	-1.6	306	0	987.4	NA	0.0000		9999	4820	0	0	0
2019/11/22 12:46:00	BASE	4.42	147	5.20	140	0.6	85	-1.6	315	0	987.4	NA	0.0000		9999	3080	0	0	0
2019/11/22 12:47:00	BASE	4.37	149	5.20	140	0.6	85	-1.6	316	0	987.4	NA	0.0000		9999	4860	5710	0	0
2019/11/22 12:48:00	BASE	4.05	158	5.20	140	0.6	85	-1.7	315	0	987.4	NA	0.0000		9999	4400	5870	0	0
2019/11/22 12:49:00	BASE	3.81	163	5.20	140	0.6	85	-1.6	312	0	987.4	NA	0.0000		9999	4560	0	0	0
2019/11/22 12:50:00	BASE	3.61	158	5.20	140	0.5	85	-1.6	309	0	987.4	NA	0.0000		9999	2950	0	0	0
2019/11/22 12:51:00	BASE	3.83	160	5.20	140	0.5	86	-1.6	304	0	987.3	NA	0.0000		9999	2920	0	0	0
2019/11/22 12:52:00	BASE	3.82	162	5.04	133	0.4	86	-1.6	296	0	987.3	NA	0.0000		9999	2820	0	0	0
2019/11/22 12:53:00	BASE	3.61	164	4.99	143	0.4	87	-1.5	289	0	987.3	NA	0.0000		9999	2990	0	0	0
2019/11/22 12:54:00	BASE	3.72	167	4.99	143	0.3	88	-1.5	285	0	987.3	NA	0.0000		9999	2890	0	0	0
2019/11/22 12:55:00	BASE	4.08	161	5.04	149	0.3	88	-1.4	282	0	987.3	NA	0.0000		9999	2890	0	0	0
2019/11/22 12:56:00	BASE	4.54	152	5.04	152	0.3	89	-1.4	278	0	987.3	NA	0.0000		9999	2890	0	0	0
2019/11/22 12:57:00	BASE	4.75	150	5.04	152	0.2	89	-1.3	276	0	987.3	NA	0.0000		9999	2990	0	0	0
2019/11/22 12:58:00	BASE	4.92	150	5.45	146	0.2	90	-1.2	273	0	987.3	NA	0.0000		9999	2950	0	0	0
2019/11/22 12:59:00	BASE	4.87	146	5.45	146	0.2	90	-1.2	269	0	987.3	NA	0.0000		9999	2890	0	0	0
2019/11/22 13:00:00	BASE	4.59	141	5.45	146	0.3	91	-1.1	264	0	987.3	NA	0.0000		9999	2760	0	0	0
2019/11/22 13:01:00	BASE	4.70	142	5.45	142	0.3	91	-1.1	258	0	987.3	NA	0.0000		9999	2790	0	0	0
2019/11/22 13:02:00	BASE	4.49	144	5.45	142	0.3	91	-1.1	254	0	987.3	NA	0.0000		9999	2690	21790	0	0
2019/11/22 13:03:00	BASE	4.22	141	5.45	142	0.3	90	-1.1	253	0	987.3	NA	0.0000		9999	2360	0	0	0
2019/11/22 13:04:00	BASE	4.37	137	5.45	142	0.2	90	-1.2	257	0	987.3	NA	0.0000		9999	2430	0	0	0
2019/11/22 13:05:00	BASE	4.72	136	5.45	142	0.2	90	-1.2	261	0	987.3	NA	0.0000		9999	2460	0	0	0
2019/11/22 13:06:00	BASE	4.89	137	5.45	142	0.2	90	-1.2	263	0	987.3	NA	0.0000		9999	2260	2850	0	0
2019/11/22 13:07:00	BASE	5.04	137	5.81	133	0.2	90	-1.2	262	0	987.3	NA	0.0000		9999	2260	2990	0	0
2019/11/22 13:08:00	BASE	5.41	132	6.17	127	0.2	90	-1.2	261	0	987.3	NA	0.0000		9999	2100	2820	0	0
2019/11/22 13:09:00	BASE	5.32	126	6.17	127	0.2	90	-1.2	259	0	987.3	NA	0.0000		9999	2260	20970	22150	0
2019/11/22 13:10:00	BASE	5.16	119	6.17	127	0.3	90	-1.2	257	0	987.3	NA	0.0000		9999	2260	0	0	0
2019/11/22 13:11:00	BASE	5.27	113	6.17	127	0.4	90	-1.1	253	0	987.3	NA	0.0000		9999	2230	0	0	0
2019/11/22 13:12:00	BASE	5.04	107	6.17	127	0.6	89	-1.0	248	0	987.3	NA	0.0000		9999	2130	0	0	0
2019/11/22 13:13:00	BASE	4.68	99	6.17	127	0.7	88	-1.0	243	0	987.4	NA	0.0000		9999	2170	0	0	0
2019/11/22 13:14:00	BASE	4.44	95	6.17	127	0.8	88	-1.1	240	0	987.4	NA	0.0000	UP	9999	2260	0	0	0
2019/11/22 13:15:00	BASE	3.90	98	6.17	127	0.8	87	-1.2	238	0	987.4	NA	0.0000	UP	9999	2790	0	0	0
2019/11/22 13:16:00	BASE	3.64	108	6.17	127	0.8	86	-1.3	237	0	987.4	NA	0.0000	UP	7000	2200	0	0	0
2019/11/22 13:17:00	BASE	4.02	116	6.17	127	0.7	85	-1.5	241	0	987.3	NA	0.0000	-SN	9999	2260	0	0	0
2019/11/22 13:18:00	BASE	4.58	120	5.71	113	0.8	85	-1.5	247	0	987.3	NA	0.0000	-SN	9999	2200	0	0	0
2019/11/22 13:19:00	BASE	4.78	125	5.71	113	0.8	85	-1.5	254	0	987.3	NA	0.0000	-SN	7000	2130	2690	0	0
2019/11/22 13:20:00	BASE	4.70	129	5.71	113	0.8	84	-1.6	259	0	987.3	NA	0.0000	-SN	4000	2070	2720	0	0
2019/11/22 13:21:00	BASE	4.68	133	5.50	119	0.8	84	-1.6	265	0	987.4	NA	0.0000	-SN	9999	2070	0	0	0
2019/11/22 13:22:00	BASE	4.60	139	5.50	119	0.9	83	-1.7	272	0	987.3	NA	0.0000	-SN	9999	2590	0	0	0
2019/11/22 13:23:00	BASE	5.03	143	5.86	143	0.9	82	-1.8	276	0	987.3	NA	0.0000	-SN	9999	2790	0	0	0
2019/11/22 13:24:00	BASE	5.76	146	6.43	148	0.8	82	-1.9	279	0	987.2	NA	0.0000	-SN	9999	2030	0	0	0
2019/11/22 13:25:00	BASE	5.74	146	6.43	148	0.8	82	-2.0	278	0	987.3	NA	0.0000	-SN	9999	2070	0	0	0
2019/11/22 13:26:00	BASE	4.71	145	6.43	148	0.7	82	-2.0	278	0	987.4	NA	0.0000	-SN	9999	2030	2590	0	0
2019/11/22 13:27:00	BASE	3.67	144	6.43	148	0.6	83	-1.9	279	0	987.4	NA	0.0000	-SN	9999	2030	0	0	0
2019/11/22 13:28:00	BASE	3.57	144	6.43	148	0.5	84	-1.9	279	0	987.4	NA	0.0000	-SN	9999	2070	0	0	0
2019/11/22 13:29:00	BASE	3.94	145	6.43	148	0.5	85	-1.8	280	0	987.4	NA	0.0000	-SN	9999	2070	0	0	0
2019/11/22 13:30:00	BASE	4.14	145	6.43	148	0.4	86	-1.7	283	0	987.4	NA	0.0000	-SN	9999	2100	0	0	0
2019/11/22 13:31:00	BASE	3.84	143	6.43	148	0.3	87	-1.6	285	0	987.4	NA	0.0000	-SN	9999	1770	21420	0	0
2019/11/22 13:32:00	BASE	3.68	140	6.43	148	0.3	88	-1.4	288	0	987.4	NA	0.0000	-SN	9999	2030	0	0	0
2019/11/22 13:33:00	BASE	4.12	144	6.43	148	0.2	90	-1.3	291	0	987.4	NA	0.0000	-SN	9999	1970	21690	0	0
2019/11/22 13:34:00	BASE	4.24	147	6.22	148	0.2	91	-1.1	291	0	987.4	NA	0.0000	-SN	9999	1970	0	0	0
2019/11/22 13:35:00	BASE	3.88	147	5.14	147	0.2	92	-1.0	287	0	987.4	NA	0.0000	-SN	9999	2000	0	0	0
2019/11/22 13:36:00	BASE	3.66	145	4.78	150	0.1	93	-0.9	283	0	987.5	NA	0.0000	-SN	5000	1870	0	0	0
2019/11/22 13:37:00	BASE	3.61	148	4.78	150	0.1	94	-0.8	281	0	987.5	NA	0.0000	-SN BR	4800	2130	0	0	0
2019/11/22 13:38:00	BASE	4.09	154	5.04	150	0.1	94	-0.7	277	0	987.4	NA	0.0000	-SN BR	5000	2400	0	0	0
2019/11/22 13:39:00	BASE	4.72	153	5.09	149	0.1	95	-0.6	270	0	987.4	NA	0.0000	-SN BR	9999	1940	0	0	0
2019/11/22 13:40:00	BASE	4.69	150	5.09	149	0.1	95	-0.6	265	0	987.4	NA	0.0000	-SN BR	9999	1970	0	0	0
2019/11/22 13:41:00	BASE	4.62	149	5.09	149	0.1	96	-0.5	259	0	987.3	NA	0.0000	-SN BR	9999	2030	2590	0	0
2019/11/22 13:42:00	BASE	4.54	146	5.09	149	0.1	96	-0.4	252	0	987.3	NA	0.0000	-SN BR	9999	1770	0	0	0
2019/11/22 13:43:00	BASE	4.44	145	5.09	149	0.0	97	-0.4	249	0	987.4	NA	0.0000	-SN BR	9999	1840	2620	0	0
2019/11/22 13:44:00	BASE	4.36	147	5.09	149	-0.0	98	-0.3	249	0	987.4	NA	0.0000	-SN BR	9999	1970	2660	0	0
2019/11/22 13:45:00	BASE	4.31	147	5.09	149	-0.0	98	-0.3	249	0	987.4	NA	0.0000	-SN BR	9000	1900	2660	0	0
2019/11/22 13:46:00	BASE	4.64	145	5.45	147	-0.1	99	-0.2	251	0	987.3	NA	0.0000	-SN BR	4400	1900	0	0	0
2019/11/22 13:47:00	BASE	4.70	144	5.45	147	-0.1	99	-0.2	255	0	987.4	NA	0.0000	-SN BR	5000	1800	2620	0	0
2019/11/22 13:48:00	BASE	4.32	145	5.45	147	-0.1	100	-0.1	258	0	987.4	NA	0.0000	-SN BR	6000	1900	2530	0	0
2019/11/22 13:49:00	BASE	3.88	146	5.45	147	-0.1	100	-0.1	259	0	987.4	NA	0.0000	-SN BR	5000	1840	21230	0	0
2019/11/22 13:50:00	BASE	3.53	142	5.45	147	-0.1	100	-0.1	260	0	987.5	NA	0.0000	-SN BR	5000	1870	0	0	0
2019/11/22 13:51:00	BASE	3.16	137	5.45	147	-0.0	100	-0.0	259	0	987.5	NA	0.0000	-SN BR	7000	1870	0	0	0
2019/11/22 13:52:00	BASE	2.57	140	5.45	147	-0.0	100	-0.0	260	0	987.6	NA	0.0000	-SN BR	4700	1800	0	0	0
2019/11/22 13:53:00	BASE	2.50	139	5.45	147	-0.0	100	-0.0	260	0	987.6	NA	0.0000	-SN BR	5000	1840	23360	0	0
2019/11/22 13:54:00	BASE	2.99	129	5.45	147	-0.0	100	-0.0	262	0	987.6	NA	0.0000	-SN BR	4800	1840	0	0	0
2019/11/22 13:55:00	BASE	3.36	126	5.45	147	0.0	100	0.0	268	0	987.6	NA	0.0000	-SN BR	2300	1900	0	0	0
2019/11/22 13:56:00	BASE	3.40	132	4.63	141	0.0	100	0.0	272	0	987.6	NA	0.0000	-SN BR	2500	2620	0	0	0
2019/11/22 13:57:00	BASE	3.13	136	4.53	149	0.1	100	0.1	275	0	987.6	NA	0.0000	-SN BR	9999	1840	0	0	0
2019/11/22 13:58:00	BASE	2.78	137	3.91	143	0.1	100	0.1	279	0	987.6	NA	0.0000	-SN BR	9999	2100	0	0	0
2019/11/22 13:59:00	BASE	2.62	138	3.91	143	0.1	100	0.1	282	0	987.6	NA	0.0000	-SN BR	9999	0	0	0	2850
2019/11/22 14:00:00	BASE	2.44	136	3.70	129	0.1	100	0.1	287	0	987.6	NA	0.0000	-SN BR	9999	1900	2720	0	0
2019/11/22 14:01:00	BASE	2.78	136	3.91	133	0.1	100	0.1	291	0	987.6	NA	0.0000	-SN BR	9999	2760	0	0	0
2019/11/22 14:02:00	BASE	3.07	135	3.91	133	0.0	100	0.0	292	0	987.6	NA	0.0000	-SN BR	9999	2490	0	0	0
2019/11/22 14:03:00	BASE	2.39	134	3.91	133	0.0	100	0.0	292	0	987.6	NA	0.0000	-SN BR	9000	2890	0	0	0
2019/11/22 14:04:00	BASE	1.57	121	3.91	133	0.0	100	0.0	293	0	987.6	NA	0.0000	-SN BR	9999	1900	0	0	0
2019/11/22 14:05:00	BASE	1.61	103	3.91	133	0.0	100	0.0	295	0	987.7	NA	0.0000	-SN BR	9999	2890	0	0	0
2019/11/22 14:06:00	BASE	2.33	99	3.91	133	0.0	100	0.0	296	0	987.7	NA	0.0000	-SN	9999	2230	0	0	0
2019/11/22 14:07:00	BASE	3.02	107	3.91	133	0.1	100	0.1	301	0	987.7	NA	0.0000	-SN	9999	2850	0	0	0
2019/11/22 14:08:00	BASE	3.39	117	3.91	133	0.1	100	0.1	306	0	987.7	NA	0.0000	-SN	9999	2230	0	0	0
2019/11/22 14:09:00	BASE	3.36	120	3.96	136	0.2	100	0.2	304	0	987.6	NA	0.0000	-SN	9000	2230	0	0	0
2019/11/22 14:10:00	BASE	3.87	128	4.84	134	0.2	100	0.2	301	0	987.5	NA	0.0000	-SN	8000	1940	0	0	0
2019/11/22 14:11:00	BASE	4.11	132	4.84	134	0.2	100	0.2	296	0	987.6	NA	0.0000	-SN	6000	1900	0	0	0
2019/11/22 14:12:00	BASE	3.49	121	4.84	134	0.2	100	0.2	290	0	987.7	NA	0.0000	-SN	9999	2100	0	0	0
2019/11/22 14:13:00	BASE	3.37	112	4.84	134	0.2	100	0.2	286	0	987.7	NA	0.0000	-SN	9999	3220	0	0	0
2019/11/22 14:14:00	BASE	3.48	116	4.84	134	0.2	100	0.2	282	0	987.7	NA	0.0000	-SN	9999	3250	0	0	0
2019/11/22 14:15:00	BASE	3.24	121	4.84	134	0.3	100	0.3	283	0	987.7	NA	0.0000	-SN	9999	0	0	0	3150
2019/11/22 14:16:00	BASE	2.95	124	4.84	134	0.3	100	0.3	286	0	987.7	NA	0.0000	-SN	9999	0	0	0	3450
2019/11/22 14:17:00	BASE	2.94	122	4.84	134	0.3	100	0.3	284	0	987.7	NA	0.0000	-SN	9999	0	0	0	3310
2019/11/22 14:18:00	BASE	2.84	106	4.84	134	0.3	100	0.3	280	0	987.7	NA	0.0000	-SN	9999	3150	0	0	0
2019/11/22 14:19:00	BASE	2.69	106	4.84	134	0.4	100	0.4	276	0	987.7	NA	0.0000	-SN	9999	1900	0	0	0
2019/11/22 14:20:00	BASE	2.56	111	4.32	132	0.4	100	0.4	272	0	987.7	NA	0.0000	-SN	9999	2070	0	0	0
2019/11/22 14:21:00	BASE	2.54	116	4.27	114	0.4	100	0.4	269	0	987.7	NA	0.0000	-SN	9999	0	0	0	3020
2019/11/22 14:22:00	BASE	2.82	126	4.27	114	0.4	100	0.4	268	0	987.7	NA	0.0000	-SN	9999	2690	0	0	0
2019/11/22 14:23:00	BASE	3.11	126	3.91	131	0.3	100	0.3	267	0	987.7	NA	0.0000	-SN	9999	2660	0	0	0
2019/11/22 14:24:00	BASE	3.75	130	4.68	139	0.3	100	0.3	265	0	987.6	NA	0.0000	-SN	9999	2300	0	0	0
2019/11/22 14:25:00	BASE	4.26	134	4.73	137	0.3	100	0.3	262	0	987.6	NA	0.0000	-SN	9999	2360	0	0	0
2019/11/22 14:26:00	BASE	4.34	135	4.89	133	0.3	100	0.3	260	0	987.6	NA	0.0000	-SN	9999	2300	0	0	0
2019/11/22 14:27:00	BASE	4.62	136	5.35	140	0.4	100	0.4	261	0	987.5	NA	0.0000	-SN	7000	2260	0	0	0
2019/11/22 14:28:00	BASE	4.86	135	5.86	134	0.4	100	0.4	263	0	987.5	NA	0.0000	-SN	9999	2230	0	0	0
2019/11/22 14:29:00	BASE	4.65	134	5.86	134	0.5	100	0.5	267	0	987.5	NA	0.0000	-SN	9999	2300	0	0	0
2019/11/22 14:30:00	BASE	4.21	137	5.86	134	0.5	100	0.5	271	0	987.5	NA	0.0000	-SN	9999	2430	0	0	0
2019/11/22 14:31:00	BASE	3.88	146	5.86	134	0.6	100	0.6	277	0	987.4	NA	0.0000	-SN	9999	3250	0	0	0
2019/11/22 14:32:00	BASE	4.69	147	6.79	144	0.7	100	0.7	282	0	987.4	NA	0.0000	-SN	9999	2430	0	0	0
2019/11/22 14:33:00	BASE	5.07	144	6.79	144	0.7	100	0.7	287	0	987.4	NA	0.0000	-SN	9999	2530	0	0	0
2019/11/22 14:34:00	BASE	4.52	152	6.79	144	0.7	100	0.7	289	0	987.4	NA	0.0000	-SN	9999	2590	0	0	0
2019/11/22 14:35:00	BASE	4.34	160	6.79	144	0.7	100	0.7	293	0	987.4	NA	0.0000	-SN	6000	2720	0	0	0
2019/11/22 14:36:00	BASE	4.12	163	6.79	144	0.7	100	0.7	297	0	987.5	NA	0.0000	-SN BR	3000	2720	0	0	0
2019/11/22 14:37:00	BASE	3.73	161	6.79	144	0.6	100	0.6	298	0	987.6	NA	0.0000	-SN BR	4400	2720	0	0	0
2019/11/22 14:38:00	BASE	3.23	160	6.79	144	0.5	100	0.5	297	0	987.6	NA	0.0000	-SN BR	4400	2660	0	0	0
2019/11/22 14:39:00	BASE	2.86	156	6.79	144	0.5	100	0.5	296	0	987.6	NA	0.0000	-SN BR	8000	2620	0	0	0
2019/11/22 14:40:00	BASE	2.74	145	6.79	144	0.4	100	0.4	294	0	987.6	NA	0.0000	-SN BR	9000	2490	22180	0	0
2019/11/22 14:41:00	BASE	2.76	136	6.79	144	0.4	100	0.4	291	0	987.6	NA	0.0000	-SN BR	9999	2620	0	0	0
2019/11/22 14:42:00	BASE	2.92	132	5.14	138	0.4	100	0.4	291	0	987.6	NA	0.0000	-SN BR	9999	2660	0	0	0
2019/11/22 14:43:00	BASE	3.31	131	4.73	163	0.4	100	0.4	293	0	987.6	NA	0.0000	-SN BR	9999	2690	0	0	0
2019/11/22 14:44:00	BASE	3.64	135	4.73	163	0.4	100	0.4	295	0	987.6	NA	0.0000	-SN BR	9999	2720	0	0	0
2019/11/22 14:45:00	BASE	3.72	138	4.22	137	0.4	100	0.4	295	0	987.6	NA	0.0000	-SN BR	9999	2720	0	0	0
2019/11/22 14:46:00	BASE	3.38	133	4.22	137	0.4	100	0.4	293	0	987.7	NA	0.0000	-SN BR	9999	2720	0	0	0
2019/11/22 14:47:00	BASE	2.65	125	4.22	137	0.4	100	0.4	289	0	987.7	NA	0.0000	-SN	9999	2720	0	0	0
2019/11/22 14:48:00	BASE	2.11	126	4.22	137	0.4	100	0.4	285	0	987.7	NA	0.0000	-SN	9999	2690	0	0	0
2019/11/22 14:49:00	BASE	2.21	124	4.22	137	0.4	100	0.4	281	0	987.7	NA	0.0000	-SN	9999	2660	0	0	0
2019/11/22 14:50:00	BASE	2.71	118	4.22	137	0.4	100	0.4	280	0	987.7	NA	0.0000	-SN	9999	2660	0	0	0
2019/11/22 14:51:00	BASE	2.74	128	4.22	137	0.4	100	0.4	281	0	987.6	NA	0.0000	-SN	9999	2620	0	0	0
2019/11/22 14:52:00	BASE	2.58	138	4.22	137	0.5	100	0.5	285	0	987.7	NA	0.0000	-SN	9999	2590	21920	0	0
2019/11/22 14:53:00	BASE	2.83	135	4.22	137	0.5	100	0.5	287	0	987.7	NA	0.0000	-SN	9999	2560	0	0	0
2019/11/22 14:54:00	BASE	3.39	139	4.22	137	0.6	100	0.6	289	0	987.6	NA	0.0000	-SN	9999	2530	0	0	0
2019/11/22 14:55:00	BASE	3.90	145	4.32	144	0.6	100	0.6	290	0	987.6	NA	0.0000	-SN	9999	2490	0	0	0
2019/11/22 14:56:00	BASE	4.21	148	5.35	153	0.7	100	0.7	290	0	987.6	NA	0.0000	-SN	9999	2560	0	0	0
2019/11/22 14:57:00	BASE	4.80	151	5.61	150	0.7	100	0.7	291	0	987.6	NA	0.0000		9999	2590	0	0	0
2019/11/22 14:58:00	BASE	5.14	154	5.61	150	0.8	100	0.8	290	0	987.6	NA	0.0000		9999	2530	0	0	0
2019/11/22 14:59:00	BASE	4.72	156	5.61	150	0.8	100	0.8	290	0	987.6	NA	0.0000		9999	2490	0	0	0
2019/11/22 15:00:00	BASE	4.26	159	5.61	150	0.8	100	0.8	292	0	987.6	NA	0.0000		9999	2530	0	0	0
2019/11/22 15:01:00	BASE	4.21	162	5.61	150	0.8	99	0.7	295	0	987.6	NA	0.0000		9999	2400	0	0	0
2019/11/22 15:02:00	BASE	4.11	162	5.61	150	0.7	99	0.6	299	0	987.6	NA	0.0000		9999	2400	0	0	0
2019/11/22 15:03:00	BASE	3.91	156	5.61	150	0.7	99	0.6	303	0	987.7	NA	0.0000		9999	2360	20110	0	0
2019/11/22 15:04:00	BASE	4.40	155	5.61	150	0.6	99	0.6	303	0	987.5	NA	0.0000		9999	2260	0	0	0
2019/11/22 15:05:00	BASE	4.65	159	5.61	150	0.6	100	0.6	301	0	987.5	NA	0.0000		9999	2170	0	0	0
2019/11/22 15:06:00	BASE	4.74	157	5.61	150	0.6	100	0.6	295	0	987.6	NA	0.0000		9999	2400	0	0	0
2019/11/22 15:07:00	BASE	5.18	158	5.86	160	0.6	100	0.6	293	0	987.5	NA	0.0000		9999	2300	0	0	0
2019/11/22 15:08:00	BASE	5.20	159	5.86	160	0.6	100	0.6	291	0	987.6	NA	0.0000		9999	2260	0	0	0
2019/11/22 15:09:00	BASE	5.17	157	5.86	160	0.6	100	0.6	290	0	987.5	NA	0.0000		9999	2300	0	0	0
2019/11/22 15:10:00	BASE	5.27	158	5.86	160	0.6	100	0.6	289	0	987.5	NA	0.0000		9999	2100	0	0	0
2019/11/22 15:11:00	BASE	5.10	154	5.86	160	0.6	100	0.6	289	0	987.6	NA	0.0000		9999	2300	0	0	0
2019/11/22 15:12:00	BASE	4.30	155	5.86	160	0.6	100	0.6	291	0	987.6	NA	0.0000		9999	2490	0	0	0
2019/11/22 15:13:00	BASE	3.47	159	5.86	160	0.6	100	0.6	292	0	987.7	NA	0.0000		9999	2400	0	0	0
2019/11/22 15:14:00	BASE	3.73	151	5.86	160	0.5	100	0.5	296	0	987.7	NA	0.0000		9999	2460	0	0	0
2019/11/22 15:15:00	BASE	4.57	142	5.86	160	0.5	100	0.5	299	0	987.6	NA	0.0000		9999	2430	0	0	0
2019/11/22 15:16:00	BASE	5.11	144	5.86	160	0.6	100	0.6	299	0	987.6	NA	0.0000		9999	2360	0	0	0
2019/11/22 15:17:00	BASE	4.77	135	6.84	115	0.7	100	0.7	302	0	987.7	NA	0.0000		9999	2300	0	0	0
2019/11/22 15:18:00	BASE	3.88	127	6.84	115	0.8	100	0.8	304	0	987.8	NA	0.0000		9999	2330	2990	0	0
2019/11/22 15:19:00	BASE	3.73	134	6.84	115	0.8	100	0.8	305	0	987.7	NA	0.0000		9999	2300	0	0	0
2019/11/22 15:20:00	BASE	4.05	141	6.84	115	0.9	100	0.9	303	0	987.7	NA	0.0000		9999	2330	0	0	0
2019/11/22 15:21:00	BASE	4.41	144	6.84	115	1.0	100	0.9	299	0	987.7	NA	0.0000		9999	2330	0	0	0
2019/11/22 15:22:00	BASE	3.97	151	6.84	115	1.0	99	0.9	295	0	987.8	NA	0.0000		9999	2330	0	0	0
2019/11/22 15:23:00	BASE	3.77	147	6.84	115	1.2	99	1.0	292	0	987.8	NA	0.0000		9999	2360	0	0	0
2019/11/22 15:24:00	BASE	3.88	137	6.84	115	1.4	98	1.1	291	0	987.8	NA	0.0000		9999	2360	0	0	0
2019/11/22 15:25:00	BASE	3.62	148	6.84	115	1.6	97	1.2	289	0	987.8	NA	0.0000		9999	2490	0	0	0
2019/11/22 15:26:00	BASE	3.84	160	6.84	115	1.8	95	1.1	288	0	987.8	NA	0.0000		9999	2360	0	0	0
2019/11/22 15:27:00	BASE	3.84	164	6.02	132	1.8	94	0.9	287	0	987.9	NA	0.0000		9999	2490	0	0	0
2019/11/22 15:28:00	BASE	3.68	164	6.02	132	1.7	93	0.6	288	0	987.9	NA	0.0000		9999	2590	0	0	0
2019/11/22 15:29:00	BASE	3.41	163	6.02	132	1.4	92	0.3	288	0	987.9	NA	0.0000		9999	2530	21360	0	0
2019/11/22 15:30:00	BASE	3.12	159	6.02	132	1.2	92	0.0	288	0	987.9	NA	0.0000		9999	2530	0	0	0
2019/11/22 15:31:00	BASE	3.27	155	6.02	132	1.0	92	-0.1	289	0	987.9	NA	0.0000		9999	2460	0	0	0
2019/11/22 15:32:00	BASE	3.73	150	6.02	132	0.9	94	0.0	292	0	987.9	NA	0.0000		9999	2690	0	0	0
2019/11/22 15:33:00	BASE	3.82	140	4.94	136	0.9	95	0.1	297	0	987.9	NA	0.0000		9999	2690	0	0	0
2019/11/22 15:34:00	BASE	3.63	141	4.89	168	0.9	95	0.2	303	0	987.9	NA	0.0000		9999	2400	0	0	0
2019/11/22 15:35:00	BASE	3.46	149	4.89	168	0.9	96	0.4	310	0	987.9	NA	0.0000		9999	2620	0	0	0
2019/11/22 15:36:00	BASE	3.41	151	4.22	149	1.0	96	0.4	313	0	987.9	NA	0.0000		9999	2360	0	0	0
2019/11/22 15:37:00	BASE	3.59	150	4.22	149	1.0	96	0.5	315	0	987.9	NA	0.0000		9999	2330	22380	0	0
2019/11/22 15:38:00	BASE	3.77	145	4.32	140	1.1	96	0.5	316	0	987.9	NA	0.0000		9999	2400	0	0	0
2019/11/22 15:39:00	BASE	3.63	141	4.32	140	1.1	96	0.6	319	0	987.9	NA	0.0000		9999	2330	0	0	0
2019/11/22 15:40:00	BASE	3.42	144	4.32	140	1.2	96	0.6	322	0	987.9	NA	0.0000	UP	9999	2330	0	0	0
2019/11/22 15:41:00	BASE	3.48	147	4.32	140	1.2	95	0.6	324	0	987.9	NA	0.0000	UP	9000	2360	0	0	0
2019/11/22 15:42:00	BASE	3.74	144	4.32	140	1.3	95	0.5	324	0	987.9	NA	0.0000	UP	9000	2360	0	0	0
2019/11/22 15:43:00	BASE	4.02	143	4.48	138	1.3	94	0.5	325	0	987.9	NA	0.0000	UP	9000	2360	0	0	0
2019/11/22 15:44:00	BASE	4.03	140	4.48	138	1.3	94	0.4	324	0	987.9	NA	0.0000	UP	9999	2430	0	0	0
2019/11/22 15:45:00	BASE	3.86	140	4.48	138	1.3	93	0.3	321	0	987.9	NA	0.0000	UP	9999	2560	0	0	0
2019/11/22 15:46:00	BASE	3.91	142	4.48	138	1.4	93	0.3	318	0	987.9	NA	0.0000	UP	9999	2820	0	0	0
2019/11/22 15:47:00	BASE	4.01	142	4.48	138	1.4	93	0.3	314	0	987.9	NA	0.0000	UP	9999	2920	0	0	0
2019/11/22 15:48:00	BASE	3.52	138	4.48	138	1.4	92	0.3	312	0	987.9	NA	0.0000	UP	9999	2760	0	0	0
2019/11/22 15:49:00	BASE	3.29	127	4.48	138	1.6	92	0.4	310	0	988.0	NA	0.0000	UP	9999	2690	0	0	0
2019/11/22 15:50:00	BASE	3.49	128	4.48	138	1.7	92	0.5	305	0	988.0	NA	0.0000		9999	2490	0	0	0
2019/11/22 15:51:00	BASE	3.20	135	4.48	138	1.9	91	0.6	302	0	988.0	NA	0.0000		9999	2490	0	0	0
2019/11/22 15:52:00	BASE	3.13	136	4.48	138	2.0	91	0.6	302	0	988.0	NA	0.0000		9999	2690	0	0	0
2019/11/22 15:53:00	BASE	3.69	141	4.89	146	2.2	90	0.7	304	0	988.0	NA	0.0000		9999	2360	0	0	0
2019/11/22 15:54:00	BASE	4.19	154	5.04	166	2.2	89	0.7	308	0	987.9	NA	0.0000		9999	2360	0	0	0
2019/11/22 15:55:00	BASE	3.60	164	5.04	166	2.3	89	0.7	311	0	987.9	NA	0.0000		9999	2360	0	0	0
2019/11/22 15:56:00	BASE	1.70	175	5.04	166	2.4	88	0.7	312	0	987.9	NA	0.0000		9999	2360	0	0	0
2019/11/22 15:57:00	BASE	0.96	231	5.04	166	2.4	88	0.7	313	0	987.9	NA	0.0000		9999	2400	0	0	0
2019/11/22 15:58:00	BASE	1.38	256	5.04	166	2.5	88	0.7	312	0	987.9	NA	0.0000		9999	2430	0	0	0
2019/11/22 15:59:00	BASE	1.24	249	5.04	166	2.5	89	0.8	312	0	987.9	NA	0.0000		9999	2460	0	0	0
2019/11/22 16:00:00	BASE	1.03	136	5.04	166	2.6	89	0.9	312	0	988.0	NA	0.0000		9999	2490	0	0	0
2019/11/22 16:01:00	BASE	0.55	41	5.04	166	2.7	90	1.1	312	0	988.0	NA	0.0000		9999	2820	0	0	0
2019/11/22 16:02:00	BASE	0.27	33	5.04	166	2.9	90	1.4	312	0	988.0	NA	0.0000		9999	2850	0	0	0
2019/11/22 16:03:00	BASE	0.33	107	5.04	166	3.0	90	1.6	311	0	987.9	NA	0.0000		9999	2790	0	0	0
2019/11/22 16:04:00	BASE	0.15	158	3.86	152	3.1	90	1.6	308	0	988.0	NA	0.0000		9999	2760	0	0	0
2019/11/22 16:05:00	BASE	0.04	197	2.42	201	3.2	90	1.7	305	0	988.0	NA	0.0000		9999	2690	0	0	0
2019/11/22 16:06:00	BASE	0.47	303	2.42	201	3.3	89	1.7	301	0	988.0	NA	0.0000		9999	2620	0	0	0
2019/11/22 16:07:00	BASE	1.04	294	2.42	201	3.2	89	1.6	300	0	988.0	NA	0.0000		9999	2560	0	0	0
2019/11/22 16:08:00	BASE	1.26	254	2.62	234	3.1	89	1.4	300	0	988.0	NA	0.0000		9999	2490	0	0	0
2019/11/22 16:09:00	BASE	1.62	244	2.62	234	3.0	89	1.3	300	0	988.0	NA	0.0000		9999	2530	0	0	0
2019/11/22 16:10:00	BASE	1.95	267	4.32	23	2.9	89	1.2	297	0	988.1	NA	0.0000		9999	2590	0	0	0
2019/11/22 16:11:00	BASE	3.50	358	6.94	6	2.8	89	1.2	293	0	988.1	NA	0.0000		9999	2460	0	0	0
2019/11/22 16:12:00	BASE	5.24	7	7.31	22	2.9	89	1.4	289	0	988.0	NA	0.0000		9999	2360	0	0	0
2019/11/22 16:13:00	BASE	4.93	11	7.31	22	3.1	89	1.5	286	0	988.1	NA	0.0000		9999	2620	0	0	0
2019/11/22 16:14:00	BASE	5.08	6	7.92	360	3.2	89	1.6	286	0	988.0	NA	0.0000		9999	2430	0	0	0
2019/11/22 16:15:00	BASE	5.77	1	7.92	360	3.4	89	1.8	286	0	988.0	NA	0.0000		9999	2460	0	0	0
2019/11/22 16:16:00	BASE	5.80	360	8.64	2	3.4	89	1.8	284	0	988.0	NA	0.0000		9999	2400	0	0	0
2019/11/22 16:17:00	BASE	5.81	353	8.64	2	3.4	88	1.6	284	0	988.0	NA	0.0000		9999	2490	0	0	0
2019/11/22 16:18:00	BASE	6.20	346	8.80	2	3.3	88	1.5	286	0	988.0	NA	0.0000		9999	2490	0	0	0
2019/11/22 16:19:00	BASE	5.34	343	8.80	2	3.3	88	1.5	287	0	988.1	NA	0.0000		9999	2560	0	0	0
2019/11/22 16:20:00	BASE	4.19	350	8.80	2	3.2	88	1.4	288	0	988.1	NA	0.0000		9999	2790	0	0	0
2019/11/22 16:21:00	BASE	4.49	10	8.80	2	3.2	88	1.5	288	0	988.1	NA	0.0000		9999	2720	0	0	0
2019/11/22 16:22:00	BASE	5.28	15	8.80	2	3.3	89	1.6	288	0	988.0	NA	0.0000		9999	2790	0	0	0
2019/11/22 16:23:00	BASE	6.12	20	9.00	8	3.4	89	1.7	287	0	988.0	NA	0.0000		9999	2720	0	0	0
2019/11/22 16:24:00	BASE	6.40	27	9.00	8	3.5	89	1.9	285	0	988.0	NA	0.0000		9999	2660	0	0	0
2019/11/22 16:25:00	BASE	6.19	21	9.00	8	3.6	89	1.9	285	0	988.0	NA	0.0000		9999	2620	0	0	0
2019/11/22 16:26:00	BASE	5.42	21	9.00	8	3.7	88	1.9	287	0	988.1	NA	0.0000		9999	2690	0	0	0
2019/11/22 16:27:00	BASE	4.43	28	9.00	8	3.7	88	1.9	288	0	988.1	NA	0.0000		9999	2590	3870	0	0
2019/11/22 16:28:00	BASE	4.23	28	9.00	8	3.7	87	1.8	287	0	988.1	NA	0.0000		9999	2690	0	0	0
2019/11/22 16:29:00	BASE	5.63	24	9.00	8	3.7	87	1.8	285	0	988.1	NA	0.0000		9999	2590	0	0	0
2019/11/22 16:30:00	BASE	6.56	22	9.00	8	3.7	87	1.8	283	0	988.1	NA	0.0000		9999	2560	0	0	0
2019/11/22 16:31:00	BASE	6.51	23	9.00	8	3.7	88	1.8	280	0	988.1	NA	0.0000		9999	2560	0	0	0
2019/11/22 16:32:00	BASE	6.62	19	9.00	8	3.7	88	1.8	277	0	988.1	NA	0.0000		9999	2620	0	0	0
2019/11/22 16:33:00	BASE	6.47	19	8.18	37	3.7	88	1.9	275	0	988.1	NA	0.0000		9999	2660	0	0	0
2019/11/22 16:34:00	BASE	6.86	26	9.16	29	3.7	88	1.9	274	0	988.0	NA	0.0000		9999	2620	0	0	0
2019/11/22 16:35:00	BASE	7.53	30	9.16	29	3.7	88	1.9	271	0	988.0	NA	0.0000		9999	2560	0	0	0
2019/11/22 16:36:00	BASE	8.22	34	11.32	46	3.7	88	1.9	267	0	988.0	NA	0.0000		9999	2590	0	0	0
2019/11/22 16:37:00	BASE	8.48	32	11.32	46	3.7	87	1.8	263	0	988.0	NA	0.0000		9999	2560	0	0	0
2019/11/22 16:38:00	BASE	8.27	30	11.32	46	3.7	87	1.8	260	0	987.6	NA	0.0000		9999	2490	0	0	0
2019/11/22 16:39:00	BASE	8.36	30	11.32	46	3.8	87	1.7	260	0	988.0	NA	0.0000		9999	2620	0	0	0
2019/11/22 16:40:00	BASE	8.89	25	11.68	29	3.7	86	1.7	259	0	987.9	NA	0.0000		9999	2490	0	0	0
2019/11/22 16:41:00	BASE	9.19	24	11.68	29	3.7	86	1.6	258	0	987.9	NA	0.0000		9999	2560	0	0	0
2019/11/22 16:42:00	BASE	8.50	28	11.68	29	3.7	86	1.6	255	0	987.9	NA	0.0000		9999	2560	0	0	0
2019/11/22 16:43:00	BASE	8.88	31	12.50	40	3.7	86	1.6	250	0	987.9	NA	0.0000		9999	2490	3080	0	0
2019/11/22 16:44:00	BASE	9.40	33	12.50	40	3.7	86	1.6	244	0	987.9	NA	0.0000		9999	2330	0	0	0
2019/11/22 16:45:00	BASE	9.03	31	12.50	40	3.7	86	1.6	236	0	988.0	NA	0.0000		9999	2460	0	0	0
2019/11/22 16:46:00	BASE	8.82	30	12.50	40	3.7	87	1.6	229	0	988.0	NA	0.0000		9999	2620	0	0	0
2019/11/22 16:47:00	BASE	8.12	30	12.50	40	3.6	87	1.7	225	0	988.0	NA	0.0000		9999	2660	0	0	0
2019/11/22 16:48:00	BASE	8.39	27	12.50	40	3.6	87	1.7	221	0	987.9	NA	0.0000		9999	2820	0	0	0
2019/11/22 16:49:00	BASE	9.59	31	12.50	40	3.6	87	1.7	215	0	987.9	NA	0.0000		9999	2620	0	0	0
2019/11/22 16:50:00	BASE	10.12	33	13.38	26	3.6	87	1.6	207	0	987.9	NA	0.0000		9999	2690	0	0	0
2019/11/22 16:51:00	BASE	10.59	28	13.38	26	3.6	87	1.6	200	0	987.9	NA	0.0000		9999	2560	0	0	0
2019/11/22 16:52:00	BASE	10.38	28	13.38	26	3.6	87	1.6	196	0	987.9	NA	0.0000		9999	2620	0	0	0
2019/11/22 16:53:00	BASE	10.37	29	13.38	26	3.6	87	1.6	192	0	987.9	NA	0.0000		9999	2720	0	0	0
2019/11/22 16:54:00	BASE	10.58	28	13.38	26	3.6	87	1.6	190	0	987.9	NA	0.0000		9999	2720	0	0	0
2019/11/22 16:55:00	BASE	10.87	28	13.38	26	3.5	87	1.6	189	0	987.8	NA	0.0000		9999	2720	0	0	0
2019/11/22 16:56:00	BASE	10.88	28	13.38	26	3.5	87	1.6	187	0	987.9	NA	0.0000		9999	2660	0	0	0
2019/11/22 16:57:00	BASE	10.19	29	13.38	26	3.5	87	1.5	186	0	987.9	NA	0.0000		9999	2690	0	0	0
2019/11/22 16:58:00	BASE	9.92	29	13.38	26	3.5	87	1.5	186	0	987.9	NA	0.0000		9999	2720	0	0	0
2019/11/22 16:59:00	BASE	10.56	27	13.38	26	3.4	87	1.5	186	0	987.9	NA	0.0000		9999	2790	0	0	0
2019/11/22 17:00:00	BASE	10.99	29	13.17	28	3.4	87	1.5	186	0	987.9	NA	0.0000		9999	2790	0	0	0
2019/11/22 17:01:00	BASE	10.49	31	13.17	28	3.4	87	1.5	190	0	987.9	NA	0.0000	UP	9999	2820	0	0	0
2019/11/22 17:02:00	BASE	10.96	33	13.17	28	3.4	87	1.5	196	0	987.9	NA	0.0000	UP	9999	2920	0	0	0
2019/11/22 17:03:00	BASE	11.50	34	13.17	28	3.4	88	1.5	201	0	987.9	NA	0.0000	UP	9999	2950	0	0	0
2019/11/22 17:04:00	BASE	10.22	32	13.17	28	3.4	88	1.6	205	0	988.0	NA	0.0000	UP	9999	2950	0	0	0
2019/11/22 17:05:00	BASE	10.19	32	12.45	33	3.4	88	1.6	208	0	987.9	NA	0.0000	UP	9999	2990	0	0	0
2019/11/22 17:06:00	BASE	10.93	34	12.45	33	3.3	88	1.6	211	0	988.0	NA	0.0000	UP	9999	2790	0	0	0
2019/11/22 17:07:00	BASE	9.67	36	12.45	33	3.3	89	1.6	213	0	988.1	NA	0.0000	UP	9999	2720	0	0	0
2019/11/22 17:08:00	BASE	9.11	39	12.45	33	3.3	89	1.6	214	0	988.2	NA	0.0000	UP	9999	2690	0	0	0
2019/11/22 17:09:00	BASE	9.39	41	12.45	33	3.3	90	1.7	212	0	988.2	NA	0.0000	UP	9999	2760	0	0	0
2019/11/22 17:10:00	BASE	9.26	44	12.45	33	3.3	90	1.8	209	0	988.1	NA	0.0000	UP	9999	2560	0	0	0
2019/11/22 17:11:00	BASE	8.59	44	12.45	33	3.3	91	1.9	206	0	988.2	NA	0.0000	UP	9999	2560	0	0	0
2019/11/22 17:12:00	BASE	8.22	39	12.45	33	3.3	91	2.0	205	0	988.2	NA	0.0000	UP	9999	2590	0	0	0
2019/11/22 17:13:00	BASE	7.51	33	12.45	33	3.3	91	2.0	203	0	988.2	NA	0.0000	UP	9999	2720	0	0	0
2019/11/22 17:14:00	BASE	7.39	38	12.45	33	3.4	91	2.0	200	0	988.2	NA	0.0000	UP	9999	2790	0	0	0
2019/11/22 17:15:00	BASE	8.06	43	12.04	29	3.4	91	2.0	196	0	988.2	NA	0.0000	UP	9999	2890	0	0	0
2019/11/22 17:16:00	BASE	7.43	43	11.47	42	3.4	90	1.9	194	0	988.2	NA	0.0000	UP	9999	3180	0	0	0
2019/11/22 17:17:00	BASE	7.47	45	11.47	42	3.3	90	1.8	190	0	988.2	NA	0.0000	UP	9999	3180	0	0	0
2019/11/22 17:18:00	BASE	8.48	44	11.47	42	3.3	89	1.8	186	0	988.3	NA	0.0000		9999	3150	0	0	0
2019/11/22 17:19:00	BASE	8.96	38	12.30	32	3.4	89	1.7	186	0	988.2	NA	0.0000		9999	3080	0	0	0
2019/11/22 17:20:00	BASE	8.76	40	12.30	32	3.4	89	1.7	187	0	988.3	NA	0.0000		9999	3050	0	0	0
2019/11/22 17:21:00	BASE	8.57	40	12.30	32	3.4	88	1.6	188	0	988.3	NA	0.0000		9999	2990	0	0	0
2019/11/22 17:22:00	BASE	9.34	29	12.30	32	3.4	88	1.6	189	0	988.1	NA	0.0000		9999	3020	0	0	0
2019/11/22 17:23:00	BASE	9.69	28	12.30	32	3.4	87	1.5	189	0	988.2	NA	0.0000		9999	2920	0	0	0
2019/11/22 17:24:00	BASE	9.59	33	12.30	32	3.5	87	1.5	189	0	988.1	NA	0.0000		9999	2820	0	0	0
2019/11/22 17:25:00	BASE	9.46	38	12.30	32	3.5	86	1.4	190	0	988.2	NA	0.0000		9999	2890	0	0	0
2019/11/22 17:26:00	BASE	9.41	36	12.30	32	3.5	86	1.3	193	0	988.2	NA	0.0000		9999	2850	0	0	0
2019/11/22 17:27:00	BASE	10.93	33	13.58	38	3.5	85	1.3	196	0	988.2	NA	0.0000		9999	2820	0	0	0
2019/11/22 17:28:00	BASE	10.89	29	13.58	38	3.5	85	1.3	199	0	988.2	NA	0.0000		9999	2660	0	0	0
2019/11/22 17:29:00	BASE	9.40	27	13.58	38	3.5	85	1.2	199	0	988.2	NA	0.0000		9999	2760	0	0	0
2019/11/22 17:30:00	BASE	10.46	34	13.79	27	3.5	85	1.2	199	0	988.1	NA	0.0000		9999	2920	0	0	0
2019/11/22 17:31:00	BASE	10.98	33	13.79	27	3.5	84	1.1	198	0	988.1	NA	0.0000		9999	2950	0	0	0
2019/11/22 17:32:00	BASE	10.62	32	13.79	27	3.5	84	1.1	196	0	988.1	NA	0.0000		9999	2990	0	0	0
2019/11/22 17:33:00	BASE	11.85	35	13.84	37	3.5	84	1.1	194	0	988.0	NA	0.0000		9999	2990	0	0	0
2019/11/22 17:34:00	BASE	12.70	35	15.23	30	3.5	84	1.1	189	0	988.0	NA	0.0000		9999	2950	0	0	0
2019/11/22 17:35:00	BASE	12.59	36	15.23	30	3.5	85	1.1	183	0	988.1	NA	0.0000		9999	2920	0	0	0
2019/11/22 17:36:00	BASE	12.40	36	15.23	30	3.5	85	1.2	176	0	988.1	NA	0.0000		9999	2850	0	0	0
2019/11/22 17:37:00	BASE	11.55	31	15.23	30	3.5	85	1.3	169	0	988.2	NA	0.0000		9999	2660	23160	0	0
2019/11/22 17:38:00	BASE	10.41	29	15.23	30	3.6	85	1.3	163	0	988.3	NA	0.0000		9999	2560	3020	0	0
2019/11/22 17:39:00	BASE	9.74	30	15.23	30	3.6	85	1.3	158	0	988.4	NA	0.0000		9999	2620	0	0	0
2019/11/22 17:40:00	BASE	9.19	36	15.23	30	3.6	85	1.3	153	0	988.4	NA	0.0000		9999	2720	0	0	0
2019/11/22 17:41:00	BASE	8.43	38	15.23	30	3.6	85	1.3	150	0	988.4	NA	0.0000		9999	2530	0	0	0
2019/11/22 17:42:00	BASE	9.01	33	15.23	30	3.6	85	1.3	148	0	988.3	NA	0.0000		9999	2530	0	0	0
2019/11/22 17:43:00	BASE	10.36	33	15.23	30	3.5	85	1.3	148	0	988.4	NA	0.0000		9999	2460	0	0	0
2019/11/22 17:44:00	BASE	10.17	35	13.58	33	3.5	86	1.3	149	0	988.4	NA	0.0000		9999	2530	0	0	0
2019/11/22 17:45:00	BASE	9.65	32	13.58	33	3.5	86	1.3	149	0	988.4	NA	0.0000		9999	2460	0	0	0
2019/11/22 17:46:00	BASE	9.27	30	12.50	37	3.5	86	1.3	149	0	988.4	NA	0.0000		9999	2400	0	0	0
2019/11/22 17:47:00	BASE	9.02	31	12.19	29	3.4	86	1.3	149	0	988.4	NA	0.0000		9999	2400	0	0	0
2019/11/22 17:48:00	BASE	9.89	35	12.19	29	3.4	86	1.3	147	0	988.4	NA	0.0000		9999	2460	0	0	0
2019/11/22 17:49:01	BASE	9.90	36	12.19	29	3.4	86	1.3	146	0	988.4	NA	0.0000		9999	2490	0	0	0
2019/11/22 17:50:00	BASE	8.81	35	12.19	29	3.4	86	1.3	147	0	988.5	NA	0.0000		9999	2460	0	0	0
2019/11/22 17:51:00	BASE	8.87	38	12.19	29	3.4	86	1.3	148	0	988.4	NA	0.0000		9999	2430	0	0	0
2019/11/22 17:52:00	BASE	9.21	39	12.09	30	3.4	86	1.3	151	0	988.4	NA	0.0000		9999	2230	0	0	0
2019/11/22 17:53:00	BASE	9.31	34	12.14	24	3.4	87	1.4	153	0	988.5	NA	0.0000		9999	2230	0	0	0
2019/11/22 17:54:00	BASE	9.40	31	12.14	24	3.5	87	1.5	153	0	988.5	NA	0.0000		9999	2230	0	0	0
2019/11/22 17:55:00	BASE	10.11	31	13.22	38	3.5	87	1.5	150	0	988.4	NA	0.0000		9999	2430	0	0	0
2019/11/22 17:56:00	BASE	9.46	31	13.22	38	3.6	87	1.6	144	0	988.5	NA	0.0000		9999	2490	0	0	0
2019/11/22 17:57:00	BASE	8.14	30	13.22	38	3.6	87	1.6	140	0	988.6	NA	0.0000		9999	2430	0	0	0
2019/11/22 17:58:00	BASE	8.39	30	13.22	38	3.7	86	1.6	137	0	988.6	NA	0.0000		9999	2400	0	0	0
2019/11/22 17:59:00	BASE	8.36	31	13.22	38	3.7	86	1.6	138	0	988.7	NA	0.0000		9999	2430	0	0	0
2019/11/22 18:00:00	BASE	7.50	31	13.22	38	3.6	86	1.5	141	0	988.5	NA	0.0000		9999	2430	0	0	0
2019/11/22 18:01:00	BASE	7.23	29	13.22	38	3.6	86	1.5	140	0	988.7	NA	0.0000		9999	2490	0	0	0
2019/11/22 18:02:00	BASE	7.51	25	13.22	38	3.6	86	1.5	138	0	988.8	NA	0.0000		9999	2360	0	0	0
2019/11/22 18:03:00	BASE	9.10	19	13.22	38	3.6	87	1.5	134	0	988.7	NA	0.0000		9999	2330	0	0	0
2019/11/22 18:04:00	BASE	10.67	19	13.22	38	3.5	87	1.5	130	0	988.6	NA	0.0000		9999	2460	0	0	0
2019/11/22 18:05:00	BASE	10.26	26	13.07	21	3.5	87	1.5	126	0	988.6	NA	0.0000		9999	2460	0	0	0
2019/11/22 18:06:00	BASE	9.62	29	13.07	21	3.4	87	1.5	123	0	988.6	NA	0.0000		9999	2300	0	0	0
2019/11/22 18:07:00	BASE	8.46	30	13.07	21	3.4	87	1.5	122	0	988.7	NA	0.0000		9999	2360	0	0	0
2019/11/22 18:08:00	BASE	6.60	27	13.07	21	3.3	88	1.5	121	0	988.8	NA	0.0000		9999	2400	0	0	0
2019/11/22 18:09:00	BASE	6.12	22	13.07	21	3.3	88	1.5	121	0	988.9	NA	0.0000		9999	2360	0	0	0
2019/11/22 18:10:00	BASE	6.38	19	13.07	21	3.4	88	1.6	120	0	989.0	NA	0.0000		9999	2300	0	0	0
2019/11/22 18:11:00	BASE	7.26	25	13.07	21	3.4	88	1.6	120	0	988.9	NA	0.0000		9999	2260	0	0	0
2019/11/22 18:12:00	BASE	7.66	34	13.07	21	3.4	88	1.7	120	0	989.0	NA	0.0000		9999	2330	0	0	0
2019/11/22 18:13:00	BASE	7.07	31	11.88	27	3.5	88	1.7	120	0	989.0	NA	0.0000		9999	2360	0	0	0
2019/11/22 18:14:00	BASE	7.26	23	11.47	24	3.5	88	1.6	120	0	989.0	NA	0.0000		9999	2360	0	0	0
2019/11/22 18:15:00	BASE	7.49	18	10.08	24	3.6	87	1.7	119	0	989.0	NA	0.0000		9999	2400	0	0	0
2019/11/22 18:16:00	BASE	7.21	15	9.67	31	3.6	87	1.6	120	0	989.0	NA	0.0000		9999	2330	0	0	0
2019/11/22 18:17:00	BASE	7.53	18	9.52	32	3.6	87	1.6	122	0	988.9	NA	0.0000		9999	2360	0	0	0
2019/11/22 18:18:00	BASE	7.53	22	9.52	32	3.6	86	1.5	124	0	989.0	NA	0.0000		9999	2430	0	0	0
2019/11/22 18:19:00	BASE	7.59	21	9.62	26	3.6	86	1.5	127	0	989.0	NA	0.0000		9999	2400	0	0	0
2019/11/22 18:20:00	BASE	8.94	22	10.39	25	3.5	86	1.4	131	0	988.7	NA	0.0000		9999	2230	0	0	0
2019/11/22 18:21:00	BASE	9.12	23	10.39	25	3.5	87	1.5	135	0	988.9	NA	0.0000		9999	2230	0	0	0
2019/11/22 18:22:00	BASE	8.78	25	10.39	25	3.5	87	1.5	138	0	988.9	NA	0.0000		9999	2230	0	0	0
2019/11/22 18:23:00	BASE	9.03	26	10.39	25	3.5	87	1.5	139	0	988.8	NA	0.0000		9999	2430	22740	0	0
2019/11/22 18:24:00	BASE	9.60	22	10.91	24	3.6	87	1.5	142	0	988.8	NA	0.0000		9999	2300	0	0	0
2019/11/22 18:25:00	BASE	10.45	19	12.24	24	3.5	86	1.5	146	0	988.4	NA	0.0000		9999	2300	0	0	0
2019/11/22 18:26:00	BASE	10.64	20	12.24	24	3.5	86	1.4	147	0	988.7	NA	0.0000		9999	2460	0	0	0
2019/11/22 18:27:00	BASE	10.55	24	12.50	21	3.4	87	1.4	147	0	988.7	NA	0.0000		9999	2590	0	0	0
2019/11/22 18:28:00	BASE	10.34	24	12.50	21	3.4	87	1.4	147	0	988.7	NA	0.0000		9999	2620	0	0	0
2019/11/22 18:29:00	BASE	10.11	21	12.50	21	3.4	87	1.5	145	0	988.7	NA	0.0000		9999	2560	0	0	0
2019/11/22 18:30:00	BASE	10.38	18	12.50	21	3.5	88	1.6	144	0	988.7	NA	0.0000		9999	2890	3480	0	0
2019/11/22 18:31:00	BASE	10.36	15	12.50	21	3.6	88	1.8	144	0	988.7	NA	0.0000		9999	2920	0	0	0
2019/11/22 18:32:00	BASE	10.61	14	12.50	21	3.7	88	1.9	142	0	988.7	NA	0.0000		9999	2820	3640	0	0
2019/11/22 18:33:00	BASE	10.34	16	12.50	21	3.8	87	1.9	141	0	988.8	NA	0.0000		9999	2760	3670	0	0
2019/11/22 18:34:00	BASE	9.77	13	12.50	21	3.8	87	1.9	141	0	988.8	NA	0.0000		9999	2790	0	0	0
2019/11/22 18:35:00	BASE	9.99	15	12.50	21	3.9	87	1.8	141	0	988.9	NA	0.0000		9999	2760	0	0	0
2019/11/22 18:36:00	BASE	9.06	19	12.50	21	3.9	86	1.8	142	0	989.0	NA	0.0000		9999	2850	0	0	0
2019/11/22 18:37:00	BASE	8.83	18	12.14	22	3.9	86	1.7	144	0	988.9	NA	0.0000		9999	2720	0	0	0
2019/11/22 18:38:00	BASE	9.34	17	12.14	22	4.0	85	1.7	146	0	988.9	NA	0.0000		9999	2560	0	0	0
2019/11/22 18:39:00	BASE	9.16	16	12.14	22	3.9	85	1.7	150	0	989.0	NA	0.0000		9999	2490	0	0	0
2019/11/22 18:40:00	BASE	8.95	15	12.14	22	3.9	85	1.7	155	0	989.0	NA	0.0000		9999	2530	0	0	0
2019/11/22 18:41:00	BASE	8.75	16	12.14	22	3.9	85	1.7	160	0	989.1	NA	0.0000		9999	2530	0	0	0
2019/11/22 18:42:00	BASE	8.46	17	12.09	20	3.8	86	1.7	163	0	989.1	NA	0.0000		9999	2530	0	0	0
2019/11/22 18:43:00	BASE	7.71	17	12.09	20	3.8	86	1.6	168	0	989.2	NA	0.0000		9999	2430	0	0	0
2019/11/22 18:44:01	BASE	8.07	22	12.04	16	3.8	86	1.6	176	0	989.2	NA	0.0000		9999	2430	0	0	0
2019/11/22 18:45:00	BASE	8.78	25	10.39	16	3.8	86	1.6	186	0	989.2	NA	0.0000		9999	2330	2820	0	0
2019/11/22 18:46:00	BASE	8.58	25	10.39	16	3.8	86	1.6	198	0	989.2	NA	0.0000		9999	2330	0	0	0
2019/11/22 18:47:00	BASE	8.35	24	10.19	16	3.7	86	1.5	214	0	989.2	NA	0.0000		9999	2300	0	0	0
2019/11/22 18:48:00	BASE	7.85	24	9.93	26	3.7	85	1.5	233	0	989.2	NA	0.0000		9999	2330	0	0	0
2019/11/22 18:49:00	BASE	7.54	24	9.93	26	3.6	85	1.4	249	0	989.2	NA	0.0000		9999	2360	0	0	0
2019/11/22 18:50:00	BASE	7.96	25	9.93	26	3.6	85	1.4	258	0	989.2	NA	0.0000		9999	2430	4040	0	0
2019/11/22 18:51:00	BASE	8.11	26	9.93	26	3.6	86	1.4	262	0	989.2	NA	0.0000		9999	2400	4230	0	0
2019/11/22 18:52:00	BASE	8.57	25	9.93	26	3.6	86	1.5	263	0	989.2	NA	0.0000		9999	2300	4230	0	0
2019/11/22 18:53:00	BASE	9.34	24	11.27	25	3.7	86	1.5	264	0	989.2	NA	0.0000		9999	4130	0	0	0
2019/11/22 18:54:00	BASE	8.75	24	11.27	25	3.7	85	1.5	265	0	989.2	NA	0.0000		9999	2460	4170	0	0
2019/11/22 18:55:00	BASE	8.62	24	11.27	25	3.8	85	1.5	266	0	989.2	NA	0.0000		9999	2360	4200	0	0
2019/11/22 18:56:00	BASE	9.31	23	11.27	25	3.7	85	1.5	264	0	989.2	NA	0.0000		9999	2490	0	0	0
2019/11/22 18:57:00	BASE	8.93	22	11.27	25	3.7	85	1.5	262	0	989.2	NA	0.0000		9999	2460	0	0	0
2019/11/22 18:58:00	BASE	8.31	23	11.27	25	3.8	85	1.5	259	0	989.2	NA	0.0000		9999	2430	0	0	0
2019/11/22 18:59:00	BASE	8.37	24	11.27	25	3.8	86	1.6	259	0	989.2	NA	0.0000		9999	2590	0	0	0
2019/11/22 19:00:00	BASE	8.82	24	11.27	25	3.8	86	1.6	258	0	989.2	NA	0.0000		9999	2560	0	0	0
2019/11/22 19:01:00	BASE	8.69	24	11.27	25	3.8	86	1.7	257	0	989.2	NA	0.0000		9999	2620	0	0	0
2019/11/22 19:02:00	BASE	8.85	22	11.27	25	3.8	86	1.7	259	0	989.2	NA	0.0000		9999	2720	4400	0	0
2019/11/22 19:03:00	BASE	9.07	19	10.65	16	3.8	86	1.6	263	0	989.2	NA	0.0000		9999	2590	22570	0	0
2019/11/22 19:04:00	BASE	9.11	17	10.65	16	3.7	86	1.6	266	0	989.2	NA	0.0000		9999	2590	0	0	0
2019/11/22 19:05:00	BASE	9.39	13	10.65	16	3.7	87	1.7	264	0	989.2	NA	0.0000		9999	2760	0	0	0
2019/11/22 19:06:00	BASE	9.75	14	11.37	25	3.7	87	1.8	260	0	989.2	NA	0.0000		9999	2490	0	0	0
2019/11/22 19:07:00	BASE	10.71	17	12.55	21	3.7	87	1.8	257	0	989.1	NA	0.0000		9999	2490	0	0	0
2019/11/22 19:08:00	BASE	10.73	19	12.55	21	3.7	88	1.9	255	0	989.2	NA	0.0000		9999	2490	0	0	0
2019/11/22 19:09:00	BASE	10.45	22	12.55	21	3.7	88	1.9	254	0	989.2	NA	0.0000		9999	2560	0	0	0
2019/11/22 19:10:00	BASE	10.62	22	12.55	21	3.7	88	1.9	259	0	989.2	NA	0.0000		9999	2560	0	0	0
2019/11/22 19:11:00	BASE	10.66	19	12.55	21	3.7	88	1.8	268	0	989.2	NA	0.0000		9999	2590	0	0	0
2019/11/22 19:12:00	BASE	11.32	20	12.86	25	3.7	88	1.8	278	0	989.1	NA	0.0000		9999	2850	4430	0	0
2019/11/22 19:13:00	BASE	11.61	22	12.91	21	3.7	88	1.9	286	0	989.1	NA	0.0000		9999	2950	4200	0	0
2019/11/22 19:14:00	BASE	11.49	22	12.91	21	3.8	88	1.9	285	0	989.1	NA	0.0000		9999	2430	4130	0	0
2019/11/22 19:15:00	BASE	10.98	23	12.91	21	3.8	88	2.0	278	0	989.2	NA	0.0000		9999	2590	0	0	0
2019/11/22 19:16:00	BASE	10.22	23	12.91	21	3.8	88	2.0	269	0	989.2	NA	0.0000		9999	2460	4360	0	0
2019/11/22 19:17:00	BASE	10.11	22	12.91	21	3.7	88	1.9	260	0	989.2	NA	0.0000		9999	2460	0	0	0
2019/11/22 19:18:00	BASE	10.42	21	12.91	21	3.7	88	1.9	249	0	989.1	NA	0.0000		9999	2430	0	0	0
2019/11/22 19:19:00	BASE	10.98	22	12.91	21	3.7	88	1.9	238	0	989.0	NA	0.0000		9999	2300	0	0	0
2019/11/22 19:20:00	BASE	11.11	22	12.91	21	3.7	89	2.0	229	0	989.2	NA	0.0000		9999	4130	0	0	0
2019/11/22 19:21:00	BASE	11.01	21	12.91	21	3.7	89	2.0	221	0	989.2	NA	0.0000		9999	4000	22570	0	0
2019/11/22 19:22:00	BASE	10.78	23	12.91	21	3.7	89	2.0	214	0	989.3	NA	0.0000		9999	3710	0	0	0
2019/11/22 19:23:00	BASE	10.58	23	12.66	17	3.7	89	2.0	208	0	989.3	NA	0.0000		9999	3640	19520	0	0
2019/11/22 19:24:00	BASE	10.28	23	12.30	19	3.7	89	2.0	204	0	989.3	NA	0.0000		9999	3940	0	0	0
2019/11/22 19:25:00	BASE	9.97	21	12.40	22	3.6	89	2.0	199	0	989.3	NA	0.0000		9999	3900	0	0	0
2019/11/22 19:26:00	BASE	10.44	23	12.40	22	3.6	89	2.0	194	0	989.3	NA	0.0000		9999	3710	0	0	0
2019/11/22 19:27:00	BASE	10.67	23	12.40	22	3.6	89	2.0	191	0	989.3	NA	0.0000		9999	3840	0	0	0
2019/11/22 19:28:00	BASE	10.90	22	12.40	22	3.6	90	2.1	188	0	989.3	NA	0.0000		9999	3770	0	0	0
2019/11/22 19:29:00	BASE	11.33	22	12.40	22	3.6	90	2.1	185	0	989.3	NA	0.0000		9999	3670	0	0	0
2019/11/22 19:30:00	BASE	10.89	21	12.40	22	3.6	90	2.1	182	0	989.3	NA	0.0000		9999	3670	0	0	0
2019/11/22 19:31:00	BASE	10.67	22	12.40	22	3.6	90	2.1	180	0	989.3	NA	0.0000		9999	3710	0	0	0
2019/11/22 19:32:00	BASE	11.13	22	12.40	22	3.6	90	2.2	178	0	989.3	NA	0.0000		9999	3640	4000	0	0
2019/11/22 19:33:00	BASE	11.56	25	13.02	29	3.7	90	2.2	174	0	989.3	NA	0.0000		9999	3640	22310	0	0
2019/11/22 19:34:00	BASE	11.96	27	13.02	29	3.7	90	2.2	168	0	989.3	NA	0.0000		9999	3710	0	0	0
2019/11/22 19:35:00	BASE	11.86	26	13.02	29	3.7	90	2.2	163	0	989.4	NA	0.0000		9999	3020	0	0	0
2019/11/22 19:36:00	BASE	11.30	25	13.02	29	3.7	90	2.2	159	0	989.5	NA	0.0000		9999	2720	0	0	0
2019/11/22 19:37:00	BASE	10.62	25	13.02	29	3.7	90	2.2	158	0	989.5	NA	0.0000		9999	3150	0	0	0
2019/11/22 19:38:00	BASE	10.80	25	13.02	29	3.7	90	2.2	158	0	989.5	NA	0.0000		9999	3280	0	0	0
2019/11/22 19:39:00	BASE	11.68	25	13.27	25	3.7	90	2.2	161	0	989.5	NA	0.0000		9999	3350	0	0	0
2019/11/22 19:40:00	BASE	11.79	26	13.27	25	3.7	91	2.3	166	0	989.5	NA	0.0000		9999	2070	3610	0	0
2019/11/22 19:41:00	BASE	11.31	26	13.27	25	3.6	91	2.3	172	0	989.5	NA	0.0000		9999	3350	3840	0	0
2019/11/22 19:42:00	BASE	11.06	26	13.27	25	3.6	91	2.3	179	0	989.5	NA	0.0000		9999	2130	3380	0	0
2019/11/22 19:43:00	BASE	10.85	28	13.27	25	3.6	91	2.3	187	0	989.5	NA	0.0000		9999	3380	0	0	0
2019/11/22 19:44:00	BASE	11.15	29	13.27	25	3.6	91	2.3	197	0	989.5	NA	0.0000		9999	3220	0	0	0
2019/11/22 19:45:00	BASE	11.63	26	13.27	25	3.6	92	2.3	207	0	989.5	NA	0.0000		9999	2790	0	0	0
2019/11/22 19:46:00	BASE	11.54	25	13.27	25	3.6	92	2.4	217	0	989.5	NA	0.0000		9999	2430	0	0	0
2019/11/22 19:47:00	BASE	11.06	26	13.27	25	3.6	92	2.4	225	0	989.6	NA	0.0000		9999	2170	0	0	0
2019/11/22 19:48:00	BASE	10.33	25	13.27	25	3.6	92	2.4	226	0	989.6	NA	0.0000		9999	1710	0	0	0
2019/11/22 19:49:00	BASE	10.10	26	12.96	29	3.6	92	2.4	223	0	989.6	NA	0.0000		9999	1640	0	0	0
2019/11/22 19:50:00	BASE	10.54	27	12.96	29	3.6	92	2.4	216	0	989.6	NA	0.0000		9999	1540	0	0	0
2019/11/22 19:51:00	BASE	10.26	27	12.96	29	3.6	92	2.4	209	0	989.6	NA	0.0000		9999	850	3180	0	0
2019/11/22 19:52:00	BASE	9.46	27	12.81	19	3.6	92	2.4	201	0	989.7	NA	0.0000		9999	1740	2990	0	0
2019/11/22 19:53:00	BASE	9.12	25	12.81	19	3.6	92	2.5	193	0	989.7	NA	0.0000		9999	2560	0	0	0
2019/11/22 19:54:00	BASE	9.02	23	12.81	19	3.6	92	2.5	186	0	989.7	NA	0.0000		9999	2400	0	0	0
2019/11/22 19:55:00	BASE	9.40	23	12.81	19	3.6	92	2.5	182	0	989.7	NA	0.0000		9999	1640	0	0	0
2019/11/22 19:56:00	BASE	10.09	25	12.81	19	3.6	92	2.4	179	0	989.7	NA	0.0000		9999	1640	0	0	0
2019/11/22 19:57:00	BASE	10.17	27	12.81	19	3.6	92	2.4	178	0	989.7	NA	0.0000		9999	2850	0	0	0
2019/11/22 19:58:00	BASE	9.71	28	12.81	19	3.5	92	2.3	179	0	989.8	NA	0.0000		9999	1800	0	0	0
2019/11/22 19:59:00	BASE	9.65	28	11.94	28	3.5	92	2.3	179	0	989.7	NA	0.0000		9999	2030	0	0	0
2019/11/22 20:00:00	BASE	10.47	26	12.14	29	3.5	92	2.4	177	0	989.7	NA	0.0000		9999	1870	3250	0	0
2019/11/22 20:01:00	BASE	10.83	26	12.14	29	3.5	92	2.4	171	0	989.8	NA	0.0000		9999	1940	0	0	0
2019/11/22 20:02:00	BASE	10.13	27	12.14	29	3.5	93	2.4	163	0	989.8	NA	0.0000	UP	9999	750	0	0	0
2019/11/22 20:03:00	BASE	9.95	29	12.14	29	3.5	93	2.5	163	0	989.8	NA	0.0000	UP	9999	390	0	0	0
2019/11/22 20:04:01	BASE	9.76	28	12.14	29	3.5	93	2.5	166	0	989.9	NA	0.0000	UP	9999	1310	0	0	0
2019/11/22 20:05:00	BASE	9.08	26	12.14	29	3.5	93	2.5	171	0	989.9	NA	0.0000	UP	9999	520	2660	0	0
2019/11/22 20:06:00	BASE	9.06	25	12.14	29	3.6	93	2.6	174	0	989.9	NA	0.0000	UP	9999	1970	0	0	0
2019/11/22 20:07:00	BASE	9.62	28	12.14	29	3.6	94	2.6	173	0	989.9	NA	0.0000	UP	9999	1710	2720	0	0
2019/11/22 20:08:00	BASE	9.23	28	12.14	29	3.6	94	2.7	170	0	989.9	NA	0.0000	UP	9999	1800	0	0	0
2019/11/22 20:09:00	BASE	9.00	24	12.14	29	3.6	94	2.7	167	0	989.9	NA	0.0000	UP	9999	1570	0	0	0
2019/11/22 20:10:00	BASE	9.37	25	12.09	29	3.7	94	2.8	164	0	989.9	NA	0.0000	UP	9999	1670	0	0	0
2019/11/22 20:11:00	BASE	9.55	26	11.16	32	3.7	93	2.7	163	0	989.9	NA	0.0000	UP	9999	1770	0	0	0
2019/11/22 20:12:00	BASE	9.36	25	11.16	32	3.7	93	2.7	162	0	990.0	NA	0.0000	UP	9999	430	0	0	0
2019/11/22 20:13:00	BASE	9.10	25	11.11	31	3.7	93	2.6	161	0	990.0	NA	0.0000	UP	9999	360	1480	0	0
2019/11/22 20:14:00	BASE	9.63	23	11.11	31	3.7	92	2.6	162	0	990.0	NA	0.0000	UP	7000	360	0	0	0
2019/11/22 20:15:00	BASE	9.65	23	11.11	31	3.7	92	2.6	165	0	990.1	NA	0.0000	UP	7000	360	1540	0	0
2019/11/22 20:16:00	BASE	8.98	24	11.11	31	3.7	92	2.6	168	0	990.1	NA	0.0000	UP BR	8000	430	0	0	0
2019/11/22 20:17:00	BASE	8.07	23	10.91	27	3.7	93	2.6	169	0	990.1	NA	0.0000	UP BR	9999	390	17950	0	0
2019/11/22 20:18:00	BASE	8.03	25	10.91	27	3.7	93	2.7	169	0	990.2	NA	0.0000	UP BR	9999	430	1670	0	0
2019/11/22 20:19:00	BASE	8.06	27	10.91	27	3.8	93	2.7	174	0	990.2	NA	0.0000	UP BR	9000	390	0	0	0
2019/11/22 20:20:00	BASE	7.69	29	10.91	27	3.8	93	2.7	181	0	990.2	NA	0.0000	UP BR	9000	620	0	0	0
2019/11/22 20:21:00	BASE	8.03	27	10.55	20	3.8	93	2.8	185	0	990.2	NA	0.0000	UP BR	8000	460	0	0	0
2019/11/22 20:22:00	BASE	7.75	24	10.55	20	3.8	93	2.8	186	0	990.3	NA	0.0000	BR	9999	1610	0	0	0
2019/11/22 20:23:00	BASE	7.31	24	10.55	20	3.8	93	2.8	183	0	990.3	NA	0.0000	BR	9999	1410	0	0	0
2019/11/22 20:24:00	BASE	7.08	27	10.34	26	3.8	93	2.8	175	0	990.4	NA	0.0000	BR	9999	1740	0	0	0
2019/11/22 20:25:00	BASE	6.32	26	10.34	26	3.8	93	2.9	166	0	990.5	NA	0.0000		9999	1870	0	0	0
2019/11/22 20:26:00	BASE	5.06	21	9.31	27	3.8	94	2.9	156	0	990.6	NA	0.0000		9999	1800	0	0	0
2019/11/22 20:27:00	BASE	3.14	14	9.31	27	3.7	94	2.8	148	0	990.7	NA	0.0000		9999	1800	0	0	0
2019/11/22 20:28:00	BASE	1.88	8	9.31	27	3.5	94	2.6	145	0	990.7	NA	0.0000		9999	1870	0	0	0
2019/11/22 20:29:00	BASE	1.61	359	9.31	27	3.4	94	2.4	144	0	990.7	NA	0.0000		9999	2030	0	0	0
2019/11/22 20:30:00	BASE	1.09	279	9.31	27	3.0	94	2.1	144	0	990.7	NA	0.0000		9999	2030	0	0	0
2019/11/22 20:31:00	BASE	1.18	214	8.13	13	2.6	94	1.7	147	0	990.7	NA	0.0000		9999	2030	0	0	0
2019/11/22 20:32:00	BASE	0.89	186	7.97	26	2.2	95	1.4	150	0	990.8	NA	0.0000		9999	2130	0	0	0
2019/11/22 20:33:00	BASE	0.45	166	7.72	21	1.9	95	1.2	149	0	990.8	NA	0.0000		9999	2100	0	0	0
2019/11/22 20:34:00	BASE	1.35	159	6.84	28	1.5	96	1.0	149	0	990.8	NA	0.0000		9999	2070	0	0	0
2019/11/22 20:35:00	BASE	2.30	156	5.56	20	1.3	97	0.9	149	0	990.7	NA	0.0000		9999	2070	20930	22640	0
2019/11/22 20:36:00	BASE	2.49	156	3.76	2	1.2	98	1.0	148	0	990.7	NA	0.0000		9999	2070	0	0	0
2019/11/22 20:37:00	BASE	1.89	147	3.65	50	1.2	99	1.1	147	0	990.8	NA	0.0000		9999	2070	0	0	0
2019/11/22 20:38:00	BASE	1.87	125	2.98	171	1.2	100	1.2	147	0	990.9	NA	0.0000		9999	2030	0	0	0
2019/11/22 20:39:00	BASE	2.13	121	2.98	171	1.3	100	1.2	146	0	990.9	NA	0.0000		9999	1870	0	0	0
2019/11/22 20:40:00	BASE	1.94	139	2.98	171	1.3	100	1.3	142	0	990.9	NA	0.0000		9999	1900	0	0	0
2019/11/22 20:41:00	BASE	1.90	151	2.98	171	1.3	100	1.3	133	0	990.9	NA	0.0000		9999	1800	0	0	0
2019/11/22 20:42:00	BASE	2.74	154	4.22	160	1.3	100	1.3	121	0	990.9	NA	0.0000		9999	1840	0	0	0
2019/11/22 20:43:00	BASE	3.83	161	5.04	162	1.3	100	1.3	109	0	990.9	NA	0.0000		9999	1800	0	0	0
2019/11/22 20:44:00	BASE	4.26	162	5.04	162	1.3	100	1.3	106	0	990.9	NA	0.0000		9999	1800	0	0	0
2019/11/22 20:45:00	BASE	4.15	162	5.04	162	1.3	100	1.3	107	0	990.9	NA	0.0000		9999	1840	0	0	0
2019/11/22 20:46:00	BASE	3.76	163	5.04	162	1.2	100	1.2	110	0	991.0	NA	0.0000		9999	1900	0	0	0
2019/11/22 20:47:00	BASE	3.37	167	5.04	162	1.1	100	1.1	111	0	991.0	NA	0.0000		9999	1970	0	0	0
2019/11/22 20:48:00	BASE	3.06	172	5.04	162	1.0	100	1.0	115	0	991.0	NA	0.0000		5000	2000	0	0	0
2019/11/22 20:49:00	BASE	3.01	174	5.04	162	0.9	100	0.9	121	0	991.0	NA	0.0000		6000	2030	0	0	0
2019/11/22 20:50:00	BASE	3.17	179	5.04	162	0.9	100	0.9	127	0	991.0	NA	0.0000	BR	6000	2030	0	0	0
2019/11/22 20:51:00	BASE	3.30	186	5.04	162	0.8	100	0.8	132	0	991.0	NA	0.0000	BR	8000	1900	0	0	0
2019/11/22 20:52:00	BASE	2.91	191	5.04	162	0.8	100	0.8	136	0	991.0	NA	0.0000	BR	8000	1970	0	0	0
2019/11/22 20:53:00	BASE	2.09	195	4.68	165	0.8	100	0.8	140	0	991.1	NA	0.0000	BR	9000	2070	0	0	0
2019/11/22 20:54:00	BASE	2.10	199	4.68	165	0.8	100	0.7	143	0	991.1	NA	0.0000	BR	9000	1480	2070	0	0
2019/11/22 20:55:00	BASE	2.93	195	3.81	165	0.8	100	0.8	143	0	991.0	NA	0.0000	BR	9999	2000	0	0	0
2019/11/22 20:56:00	BASE	3.35	184	3.76	185	0.8	100	0.8	139	0	991.0	NA	0.0000	BR	9999	1940	0	0	0
2019/11/22 20:57:00	BASE	3.87	162	5.25	141	0.8	100	0.8	134	0	991.0	NA	0.0000	BR	9999	1840	0	0	0
2019/11/22 20:58:00	BASE	4.67	146	5.35	151	0.8	100	0.8	129	0	991.1	NA	0.0000	BR	9999	1440	1900	0	0
2019/11/22 20:59:00	BASE	4.67	146	5.35	151	0.8	100	0.8	121	0	991.2	NA	0.0000	BR	9999	1440	2070	0	0
2019/11/22 21:00:00	BASE	4.30	149	5.35	151	0.7	100	0.7	114	0	991.2	NA	0.0000		9999	1970	0	0	0
2019/11/22 21:01:00	BASE	4.01	154	5.35	151	0.7	100	0.7	111	0	991.2	NA	0.0000		9999	1570	0	0	0
2019/11/22 21:02:00	BASE	3.89	156	5.35	151	0.7	100	0.7	110	0	991.2	NA	0.0000		9999	1970	0	0	0
2019/11/22 21:03:00	BASE	3.60	150	5.35	151	0.7	100	0.7	109	0	991.2	NA	0.0000		9999	1970	0	0	0
2019/11/22 21:04:00	BASE	2.87	146	5.35	151	0.7	100	0.7	105	0	991.3	NA	0.0000		9999	1940	0	0	0
2019/11/22 21:05:00	BASE	2.59	149	5.35	151	0.7	100	0.7	100	0	991.3	NA	0.0000		9999	1900	0	0	0
2019/11/22 21:06:00	BASE	2.69	155	5.35	151	0.7	100	0.7	98	0	991.3	NA	0.0000		9999	1840	0	0	0
2019/11/22 21:07:00	BASE	2.76	159	5.35	151	0.7	100	0.7	97	0	991.3	NA	0.0000		9999	1770	0	0	0
2019/11/22 21:08:00	BASE	2.56	159	5.09	155	0.7	100	0.7	99	0	991.3	NA	0.0000		9999	1840	0	0	0
2019/11/22 21:09:00	BASE	2.36	157	4.58	150	0.7	100	0.7	102	0	991.4	NA	0.0000		9999	1870	0	0	0
2019/11/22 21:10:00	BASE	2.07	156	4.22	158	0.7	100	0.7	109	0	991.4	NA	0.0000		9999	1840	0	0	0
2019/11/22 21:11:00	BASE	1.64	153	4.22	158	0.8	100	0.8	126	0	991.4	NA	0.0000		9999	1800	0	0	0
2019/11/22 21:12:00	BASE	1.71	145	3.81	145	0.8	100	0.8	149	0	991.4	NA	0.0000		9999	1870	0	0	0
2019/11/22 21:13:00	BASE	2.26	142	3.09	134	0.9	100	0.9	168	0	991.4	NA	0.0000		9999	1900	0	0	0
2019/11/22 21:14:00	BASE	2.68	139	3.24	125	0.9	100	0.9	182	0	991.4	NA	0.0000		9999	1870	0	0	0
2019/11/22 21:15:00	BASE	2.69	140	3.55	165	0.9	100	0.9	189	0	991.4	NA	0.0000		9999	2030	0	0	0
2019/11/22 21:16:00	BASE	2.87	145	4.84	149	0.9	100	0.9	187	0	991.4	NA	0.0000		9999	2070	0	0	0
2019/11/22 21:17:00	BASE	3.63	149	4.84	149	0.9	100	0.9	176	0	991.4	NA	0.0000		9999	2070	2760	0	0
2019/11/22 21:18:00	BASE	3.91	159	4.84	149	0.8	100	0.8	159	0	991.5	NA	0.0000		9999	2100	0	0	0
2019/11/22 21:19:00	BASE	3.08	165	4.84	149	0.8	100	0.8	143	0	991.5	NA	0.0000		9999	2070	0	0	0
2019/11/22 21:20:00	BASE	2.78	162	4.84	149	0.9	100	0.9	132	0	991.5	NA	0.0000		9999	1900	0	0	0
2019/11/22 21:21:00	BASE	3.35	167	4.84	149	0.9	100	0.9	130	0	991.5	NA	0.0000		9999	1800	0	0	0
2019/11/22 21:22:00	BASE	3.57	179	4.84	149	0.9	100	0.9	131	0	991.6	NA	0.0000		9999	1840	0	0	0
2019/11/22 21:23:00	BASE	3.51	185	4.84	149	0.9	100	0.9	128	0	991.6	NA	0.0000		9999	1900	0	0	0
2019/11/22 21:24:00	BASE	3.43	190	4.84	149	0.8	100	0.8	125	0	991.6	NA	0.0000		9999	1870	0	0	0
2019/11/22 21:25:00	BASE	3.31	190	4.84	149	0.8	100	0.8	126	0	991.6	NA	0.0000		9999	1970	0	0	0
2019/11/22 21:26:00	BASE	3.50	186	4.78	149	0.8	100	0.8	123	0	991.6	NA	0.0000		9999	2100	0	0	0
2019/11/22 21:27:00	BASE	3.10	183	4.48	158	0.8	100	0.8	122	0	991.6	NA	0.0000		9999	2000	2690	0	0
2019/11/22 21:28:00	BASE	2.53	183	4.27	182	0.8	100	0.8	129	0	991.6	NA	0.0000		9999	1800	0	0	0
2019/11/22 21:29:00	BASE	2.95	165	4.27	182	0.8	100	0.8	136	0	991.6	NA	0.0000		9999	1870	0	0	0
2019/11/22 21:30:00	BASE	3.65	145	4.27	142	0.8	100	0.8	138	0	991.6	NA	0.0000		9999	2590	0	0	0
2019/11/22 21:31:00	BASE	4.05	145	4.99	150	0.8	100	0.8	134	0	991.6	NA	0.0000		9999	2100	0	0	0
2019/11/22 21:32:00	BASE	4.42	151	4.99	154	0.8	100	0.8	128	0	991.6	NA	0.0000		9999	1840	3180	0	0
2019/11/22 21:33:00	BASE	4.85	149	5.50	138	0.8	100	0.8	124	0	991.6	NA	0.0000		9999	980	1900	0	0
2019/11/22 21:34:00	BASE	5.28	144	5.76	145	0.8	100	0.8	127	0	991.6	NA	0.0000		6000	0	0	0	3150
2019/11/22 21:35:00	BASE	5.06	151	5.76	145	0.8	100	0.8	131	0	991.6	NA	0.0000	-RA BR	1300	1480	0	0	0
2019/11/22 21:36:00	BASE	4.26	153	5.76	145	0.7	100	0.7	138	0	991.6	NA	0.0000	-RA BR	1100	3870	0	0	0
2019/11/22 21:37:00	BASE	3.64	146	5.76	145	0.8	100	0.8	145	0	991.6	NA	0.0000	-RA BR	1200	1510	0	0	0
2019/11/22 21:38:00	BASE	2.97	124	5.76	145	0.9	100	0.9	151	0	991.6	NA	0.0000	-RA BR	1300	2490	3480	4920	0
2019/11/22 21:39:00	BASE	2.67	119	5.76	145	1.0	100	1.0	155	0	991.6	NA	0.0000	-RA BR	1400	2920	4790	0	0
2019/11/22 21:40:00	BASE	3.54	137	5.76	145	1.1	100	1.1	157	0	991.6	NA	0.0000	-RA BR	1600	4360	0	0	0
2019/11/22 21:41:00	BASE	4.52	146	5.76	145	1.1	100	1.1	158	0	991.6	NA	0.0000	-RA BR	1800	4300	0	0	0
2019/11/22 21:42:00	BASE	4.75	150	5.76	145	1.1	100	1.1	159	0	991.6	NA	0.0000	-RA BR	1900	4070	0	0	0
2019/11/22 21:43:00	BASE	4.79	151	5.76	145	1.0	100	1.0	160	0	991.6	NA	0.0000	-RA BR	2200	3380	4200	0	0
2019/11/22 21:44:00	BASE	4.95	155	5.40	158	0.9	100	0.9	158	0	991.6	NA	0.0000	-RA BR	2400	4300	0	0	0
2019/11/22 21:45:00	BASE	4.98	156	5.40	158	0.8	100	0.8	153	0	991.6	NA	0.0000	BR	2700	2690	0	0	0
2019/11/22 21:46:00	BASE	4.90	154	5.40	158	0.7	100	0.7	149	0	991.6	NA	0.0000	BR	3100	2660	4300	0	0
2019/11/22 21:47:00	BASE	4.75	156	5.40	158	0.7	100	0.7	151	0	991.6	NA	0.0000	BR	3300	2660	4490	0	0
2019/11/22 21:48:00	BASE	4.53	155	5.40	158	0.7	100	0.7	155	0	991.7	NA	0.0000	BR	3700	2590	0	0	0
2019/11/22 21:49:00	BASE	4.32	146	5.40	158	0.6	100	0.6	157	0	991.7	NA	0.0000	BR	4000	2530	4300	0	0
2019/11/22 21:50:00	BASE	4.13	141	5.40	158	0.6	100	0.6	157	0	991.7	NA	0.0000	BR	4100	4170	0	0	0
2019/11/22 21:51:00	BASE	4.51	143	5.40	158	0.6	100	0.6	159	0	991.6	NA	0.0000	BR	4600	4230	0	0	0
2019/11/22 21:52:00	BASE	4.73	148	5.40	158	0.6	100	0.6	163	0	991.6	NA	0.0000	BR	5000	3450	0	0	0
2019/11/22 21:53:00	BASE	4.59	150	5.40	158	0.5	100	0.5	170	0	991.6	NA	0.0000	BR	5000	3410	0	0	0
2019/11/22 21:54:00	BASE	4.44	151	5.30	149	0.5	100	0.5	178	0	991.6	NA	0.0000	BR	5000	3310	0	0	0
2019/11/22 21:55:00	BASE	3.52	150	5.30	149	0.5	100	0.5	182	0	991.6	NA	0.0000	BR	5000	4400	0	0	0
2019/11/22 21:56:00	BASE	3.10	147	5.30	149	0.5	100	0.5	182	0	991.6	NA	0.0000	BR	6000	4070	0	0	0
2019/11/22 21:57:00	BASE	3.41	143	5.30	149	0.5	100	0.5	185	0	991.6	NA	0.0000	BR	6000	3640	0	0	0
2019/11/22 21:58:00	BASE	3.19	142	5.30	149	0.5	100	0.5	192	0	991.6	NA	0.0000	BR	6000	1410	0	0	0
2019/11/22 21:59:00	BASE	2.93	149	5.30	149	0.5	100	0.5	196	0	991.6	NA	0.0000	BR	7000	3120	4430	0	0
2019/11/22 22:00:00	BASE	3.20	156	5.30	149	0.5	100	0.5	192	0	991.6	NA	0.0000	BR	8000	4430	0	0	0
2019/11/22 22:01:00	BASE	3.60	157	4.84	150	0.5	100	0.5	188	0	991.6	NA	0.0000	BR	7000	4430	0	0	0
2019/11/22 22:02:00	BASE	4.19	149	5.50	145	0.6	100	0.6	184	0	991.6	NA	0.0000	BR	8000	2300	4560	0	0
2019/11/22 22:03:00	BASE	4.87	143	5.56	146	0.6	100	0.6	175	0	991.6	NA	0.0000	BR	8000	2360	4460	0	0
2019/11/22 22:04:00	BASE	4.82	142	5.56	146	0.6	100	0.6	161	0	991.6	NA	0.0000	BR	8000	4430	0	0	0
2019/11/22 22:05:00	BASE	4.44	142	5.56	146	0.6	100	0.6	148	0	991.6	NA	0.0000	BR	9000	4400	0	0	0
2019/11/22 22:06:00	BASE	4.45	145	5.56	146	0.6	100	0.6	143	0	991.6	NA	0.0000	BR	9999	4300	24250	0	0
2019/11/22 22:07:00	BASE	4.38	151	5.56	146	0.6	100	0.6	142	0	991.6	NA	0.0000	BR	9999	2820	4330	0	0
2019/11/22 22:08:00	BASE	3.73	154	5.56	146	0.6	100	0.6	142	0	991.6	NA	0.0000	BR	9999	2820	4270	0	0
2019/11/22 22:09:00	BASE	3.52	153	5.56	146	0.6	100	0.6	142	0	991.6	NA	0.0000	BR	9999	2790	4270	0	0
2019/11/22 22:10:00	BASE	3.89	152	5.56	146	0.6	100	0.6	141	0	991.6	NA	0.0000	BR	9999	2950	4300	0	0
2019/11/22 22:11:00	BASE	4.09	158	5.56	146	0.6	100	0.6	138	0	991.6	NA	0.0000	BR	9999	2990	0	0	0
2019/11/22 22:12:00	BASE	4.14	170	5.56	146	0.6	100	0.6	134	0	991.6	NA	0.0000	BR	9999	3250	4130	0	0
2019/11/22 22:13:00	BASE	3.90	172	5.40	145	0.6	100	0.6	130	0	991.6	NA	0.0000	BR	9999	3410	4000	0	0
2019/11/22 22:14:00	BASE	3.51	169	5.14	148	0.5	100	0.5	125	0	991.6	NA	0.0000		9999	4040	0	0	0
2019/11/22 22:15:00	BASE	3.34	172	5.14	148	0.5	100	0.5	123	0	991.6	NA	0.0000		9999	4170	0	0	0
2019/11/22 22:16:00	BASE	3.17	175	4.58	163	0.5	100	0.5	125	0	991.7	NA	0.0000		9999	4170	0	0	0
2019/11/22 22:17:00	BASE	2.90	174	4.58	163	0.5	100	0.5	124	0	991.7	NA	0.0000		9999	3540	4400	23000	0
2019/11/22 22:18:00	BASE	2.75	170	4.58	163	0.5	100	0.5	122	0	991.7	NA	0.0000		9999	3510	4530	0	0
2019/11/22 22:19:00	BASE	3.02	163	4.58	163	0.5	100	0.5	117	0	991.7	NA	0.0000		9999	3280	3970	4530	0
2019/11/22 22:20:00	BASE	3.42	156	4.58	163	0.5	100	0.5	110	0	991.7	NA	0.0000		9999	2950	0	0	0
2019/11/22 22:21:00	BASE	3.31	154	4.58	163	0.6	100	0.6	103	0	991.7	NA	0.0000		9999	4330	0	0	0
2019/11/22 22:22:00	BASE	2.82	161	4.32	174	0.7	100	0.7	99	0	991.7	NA	0.0000		9999	4400	0	0	0
2019/11/22 22:23:00	BASE	2.48	170	3.81	158	0.7	100	0.7	98	0	991.8	NA	0.0000		9999	4230	0	0	0
2019/11/22 22:24:00	BASE	2.57	172	3.81	158	0.7	100	0.7	98	0	991.7	NA	0.0000		9999	3380	4360	0	0
2019/11/22 22:25:00	BASE	3.42	167	4.78	156	0.8	100	0.8	93	0	991.7	NA	0.0000		9999	4460	0	0	0
2019/11/22 22:26:00	BASE	4.31	159	5.45	159	0.8	100	0.7	83	0	991.8	NA	0.0000		9999	3710	4330	0	0
2019/11/22 22:27:00	BASE	4.61	157	5.45	157	0.7	100	0.7	73	0	991.8	NA	0.0000		9999	3350	4230	0	0
2019/11/22 22:28:00	BASE	4.43	160	5.45	157	0.7	100	0.7	66	0	991.8	NA	0.0000		9999	3120	4300	0	0
2019/11/22 22:29:00	BASE	4.21	168	5.45	157	0.7	100	0.7	61	0	991.9	NA	0.0000		9999	3050	0	0	0
2019/11/22 22:30:00	BASE	4.09	178	5.45	157	0.6	100	0.6	57	0	991.9	NA	0.0000		9999	3020	0	0	0
2019/11/22 22:31:00	BASE	3.84	180	5.45	157	0.6	100	0.6	55	0	992.0	NA	0.0000		9999	2890	0	0	0
2019/11/22 22:32:00	BASE	3.86	179	5.45	157	0.5	100	0.5	57	0	992.0	NA	0.0000		9999	2820	0	0	0
2019/11/22 22:33:00	BASE	4.17	175	6.22	169	0.5	100	0.5	61	0	991.9	NA	0.0000		9999	3080	4270	0	0
2019/11/22 22:34:00	BASE	5.18	171	6.48	173	0.4	100	0.4	65	0	991.8	NA	0.0000		9999	3310	3870	0	0
2019/11/22 22:35:00	BASE	5.91	173	6.74	176	0.4	100	0.4	68	0	991.9	NA	0.0000		9999	4200	0	0	0
2019/11/22 22:36:00	BASE	4.78	177	6.74	176	0.4	100	0.4	71	0	991.9	NA	0.0000		9999	4270	0	0	0
2019/11/22 22:37:00	BASE	3.24	151	6.74	176	0.5	100	0.5	73	0	992.0	NA	0.0000		9999	3940	0	0	0
2019/11/22 22:38:00	BASE	2.72	137	6.74	176	0.7	100	0.7	75	0	992.0	NA	0.0000		9999	4040	0	0	0
2019/11/22 22:39:00	BASE	3.17	156	6.74	176	0.9	100	0.9	77	0	992.0	NA	0.0000		9999	4230	0	0	0
2019/11/22 22:40:00	BASE	3.48	168	6.74	176	1.0	100	1.0	79	0	991.9	NA	0.0000		9999	4230	0	0	0
2019/11/22 22:41:00	BASE	4.46	164	6.74	176	1.0	100	1.0	80	0	991.9	NA	0.0000		9999	4200	0	0	0
2019/11/22 22:42:00	BASE	5.27	156	6.74	176	0.9	100	0.9	82	0	991.9	NA	0.0000		9999	4270	0	0	0
2019/11/22 22:43:00	BASE	5.75	154	7.61	151	0.7	100	0.7	82	0	991.8	NA	0.0000		9999	4130	0	0	0
2019/11/22 22:44:00	BASE	6.17	151	7.61	151	0.6	100	0.6	81	0	991.9	NA	0.0000		9999	4460	0	0	0
2019/11/22 22:45:00	BASE	4.99	159	7.61	151	0.6	100	0.6	79	0	992.0	NA	0.0000		9999	4270	0	0	0
2019/11/22 22:46:00	BASE	4.01	169	7.61	151	0.6	100	0.6	78	0	992.0	NA	0.0000		9999	4270	0	0	0
2019/11/22 22:47:00	BASE	4.48	164	7.61	151	0.6	100	0.6	77	0	992.0	NA	0.0000		9999	4270	0	0	0
2019/11/22 22:48:00	BASE	5.91	152	7.61	151	0.6	100	0.6	75	0	992.0	NA	0.0000		9999	4270	0	0	0
2019/11/22 22:49:00	BASE	6.12	145	7.61	151	0.5	100	0.5	74	0	992.0	NA	0.0000		9999	4360	0	0	0
2019/11/22 22:50:00	BASE	6.09	143	7.61	151	0.5	100	0.5	73	0	991.9	NA	0.0000		9999	4460	0	0	0
2019/11/22 22:51:00	BASE	5.66	151	7.61	151	0.4	100	0.4	70	0	991.9	NA	0.0000		9999	4300	0	0	0
2019/11/22 22:52:00	BASE	4.81	161	7.61	151	0.4	100	0.4	67	0	991.8	NA	0.0000		9999	4200	0	0	0
2019/11/22 22:53:00	BASE	4.37	164	7.46	147	0.3	100	0.3	62	0	991.9	NA	0.0000		9999	4170	0	0	0
2019/11/22 22:54:00	BASE	3.85	161	7.46	147	0.3	100	0.3	57	0	992.0	NA	0.0000		9999	4200	4630	0	0
2019/11/22 22:55:00	BASE	4.09	157	7.46	147	0.3	100	0.3	53	0	992.0	NA	0.0000		9999	4200	0	0	0
2019/11/22 22:56:00	BASE	4.24	145	7.46	147	0.3	100	0.3	50	0	992.0	NA	0.0000		9999	4230	0	0	0
2019/11/22 22:57:00	BASE	4.03	136	7.46	147	0.4	100	0.4	48	0	992.1	NA	0.0000		9999	4270	0	0	0
2019/11/22 22:58:00	BASE	3.91	140	7.46	147	0.4	100	0.4	47	0	992.1	NA	0.0000		9999	3670	4230	0	0
2019/11/22 22:59:00	BASE	4.12	146	7.46	147	0.5	100	0.5	48	0	992.1	NA	0.0000		9999	3220	3710	0	0
2019/11/22 23:00:00	BASE	4.60	155	5.56	178	0.5	100	0.5	50	0	992.1	NA	0.0000		9999	3050	3810	0	0
2019/11/22 23:01:00	BASE	4.79	162	5.56	178	0.5	100	0.5	53	0	992.1	NA	0.0000		9999	2530	0	0	0
2019/11/22 23:02:00	BASE	5.06	158	5.71	152	0.5	100	0.5	56	0	992.1	NA	0.0000		9999	3080	4430	0	0
2019/11/22 23:03:00	BASE	5.36	150	5.71	152	0.4	100	0.4	57	0	992.1	NA	0.0000		9999	3540	4270	0	0
2019/11/22 23:04:00	BASE	5.36	146	6.07	144	0.3	100	0.3	59	0	992.1	NA	0.0000		9999	2920	0	0	0
2019/11/22 23:05:00	BASE	5.54	147	6.12	151	0.2	100	0.2	59	0	992.1	NA	0.0000		9999	2720	0	0	0
2019/11/22 23:06:00	BASE	5.37	147	6.12	151	0.2	100	0.2	58	0	992.1	NA	0.0000		9999	2890	3670	4360	0
2019/11/22 23:07:00	BASE	4.76	144	6.12	151	0.2	100	0.2	56	0	992.2	NA	0.0000		9999	2720	4330	0	0
2019/11/22 23:08:00	BASE	3.85	143	6.12	151	0.1	100	0.1	55	0	992.2	NA	0.0000		9999	2430	0	0	0
2019/11/22 23:09:00	BASE	3.07	140	6.12	151	0.1	100	0.1	57	0	992.2	NA	0.0000		9999	2400	0	0	0
2019/11/22 23:10:00	BASE	3.05	140	6.12	151	0.1	100	0.1	59	0	992.2	NA	0.0000		9999	2490	0	0	0
2019/11/22 23:11:00	BASE	3.62	146	6.12	151	0.1	100	0.1	60	0	992.2	NA	0.0000		9999	2720	0	0	0
2019/11/22 23:12:00	BASE	3.90	146	6.12	151	0.1	100	0.1	59	0	992.2	NA	0.0000		9999	3480	0	0	0
2019/11/22 23:13:00	BASE	3.27	146	6.12	151	0.1	100	0.1	58	0	992.2	NA	0.0000		9999	3020	3770	0	0
2019/11/22 23:14:00	BASE	2.96	142	6.12	151	0.1	100	0.1	58	0	992.2	NA	0.0000		9999	1710	0	0	0
2019/11/22 23:15:00	BASE	3.82	135	5.61	146	0.1	100	0.1	57	0	992.2	NA	0.0000		9999	1840	0	0	0
2019/11/22 23:16:00	BASE	4.49	140	5.35	139	0.2	100	0.2	54	0	992.1	NA	0.0000		9999	2850	0	0	0
2019/11/22 23:17:00	BASE	4.24	156	5.35	139	0.2	100	0.2	51	0	992.2	NA	0.0000		9000	2070	0	0	0
2019/11/22 23:18:00	BASE	4.18	164	5.35	139	0.3	100	0.3	47	0	992.2	NA	0.0000		9999	1480	0	0	0
2019/11/22 23:19:00	BASE	4.26	165	5.35	139	0.3	100	0.3	44	0	992.2	NA	0.0000		9999	1350	0	0	0
2019/11/22 23:20:00	BASE	4.50	173	5.45	180	0.3	100	0.3	39	0	992.2	NA	0.0000		5000	2760	0	0	0
2019/11/22 23:21:00	BASE	4.99	177	5.45	180	0.2	100	0.2	34	0	992.2	NA	0.0000	UP BR	4700	2620	0	0	0
2019/11/22 23:22:00	BASE	4.73	170	5.45	180	0.2	100	0.2	30	0	992.2	NA	0.0000	UP BR	4300	2170	2820	0	0
2019/11/22 23:23:00	BASE	4.28	155	5.45	180	0.1	100	0.1	28	0	992.2	NA	0.0000	UP BR	4300	1670	0	0	0
2019/11/22 23:24:00	BASE	4.19	144	5.45	180	0.1	100	0.1	27	0	992.2	NA	0.0000	UP BR	4300	1510	0	0	0
2019/11/22 23:25:00	BASE	4.04	148	5.45	180	0.1	100	0.1	26	0	992.2	NA	0.0000	UP BR	4500	1940	3310	0	0
2019/11/22 23:26:00	BASE	4.02	148	5.45	180	0.1	100	0.1	25	0	992.2	NA	0.0000	UP BR	3900	1870	0	0	0
2019/11/22 23:27:00	BASE	3.75	125	5.45	180	0.1	100	0.1	24	0	992.3	NA	0.0000	UP BR	3900	2620	0	0	0
2019/11/22 23:28:00	BASE	3.29	117	5.45	180	0.1	100	0.1	23	0	992.3	NA	0.0000	UP BR	4000	2720	0	0	0
2019/11/22 23:29:00	BASE	3.55	138	5.45	180	0.2	100	0.2	22	0	992.3	NA	0.0000	UP BR	5000	2490	0	0	0
2019/11/22 23:30:00	BASE	3.79	154	5.35	178	0.2	100	0.2	21	0	992.3	NA	0.0000	UP BR	6000	2230	2720	0	0
2019/11/22 23:31:00	BASE	3.21	157	4.68	142	0.2	100	0.2	21	0	992.3	NA	0.0000	UP BR	8000	1870	0	0	0
2019/11/22 23:32:00	BASE	2.47	143	4.68	142	0.2	100	0.2	21	0	992.4	NA	0.0000	UP BR	9000	1800	2300	0	0
2019/11/22 23:33:00	BASE	1.93	125	4.68	142	0.2	100	0.2	24	0	992.4	NA	0.0000	UP BR	9000	2230	0	0	0
2019/11/22 23:34:00	BASE	1.21	123	4.68	142	0.3	100	0.3	26	0	992.4	NA	0.0000	UP BR	9999	2100	0	0	0
2019/11/22 23:35:00	BASE	1.21	134	4.68	142	0.3	100	0.3	30	0	992.4	NA	0.0000	BR	9999	2000	0	0	0
2019/11/22 23:36:00	BASE	1.80	142	4.32	151	0.4	100	0.4	33	0	992.3	NA	0.0000	BR	9999	1670	2490	0	0
2019/11/22 23:37:00	BASE	2.05	133	4.32	151	0.5	100	0.5	34	0	992.4	NA	0.0000	BR	9999	2490	0	0	0
2019/11/22 23:38:00	BASE	2.18	99	4.32	151	0.6	100	0.6	33	0	992.4	NA	0.0000	BR	9999	2760	4200	0	0
2019/11/22 23:39:00	BASE	1.54	64	4.32	151	0.7	100	0.7	31	0	992.4	NA	0.0000	BR	9999	3350	0	0	0
2019/11/22 23:40:00	BASE	0.62	20	3.34	163	0.8	100	0.8	29	0	992.5	NA	0.0000		9999	1310	0	0	0
2019/11/22 23:41:00	BASE	0.62	321	2.68	138	1.0	100	1.0	28	0	992.6	NA	0.0000		9000	1120	0	0	0
2019/11/22 23:42:00	BASE	1.27	306	2.57	92	1.1	100	1.1	26	0	992.6	NA	0.0000		9000	920	0	0	0
2019/11/22 23:43:00	BASE	1.54	296	2.57	92	1.2	100	1.2	24	0	992.6	NA	0.0000	UP	9000	0	0	0	3020
2019/11/22 23:44:00	BASE	1.48	265	2.57	92	1.2	100	1.2	23	0	992.6	NA	0.0000	UP	9000	850	1570	0	0
2019/11/22 23:45:00	BASE	1.38	235	2.57	92	1.1	100	1.1	22	0	992.7	NA	0.0000	UP	8000	660	0	0	0
2019/11/22 23:46:00	BASE	1.27	206	2.57	92	1.0	100	1.0	23	0	992.6	NA	0.0000	UP BR	7000	1310	0	0	0
2019/11/22 23:47:00	BASE	1.66	184	2.57	92	0.9	100	0.9	25	0	992.6	NA	0.0000	UP BR	8000	660	1900	0	0
2019/11/22 23:48:00	BASE	1.94	188	2.21	56	0.8	100	0.8	27	0	992.7	NA	0.0000	UP BR	5000	790	0	0	0
2019/11/22 23:49:00	BASE	1.66	197	2.11	186	0.7	100	0.7	28	0	992.7	NA	0.0000	UP BR	4800	1050	0	0	0
2019/11/22 23:50:00	BASE	1.70	199	2.11	183	0.6	100	0.6	29	0	992.7	NA	0.0000	UP BR	4200	1380	0	0	0
2019/11/22 23:51:00	BASE	1.80	185	2.11	183	0.6	100	0.6	29	0	992.7	NA	0.0000	UP BR	3700	1350	2170	0	0
2019/11/22 23:52:00	BASE	1.45	170	2.11	183	0.5	100	0.5	30	0	992.8	NA	0.0000	UP BR	2900	1380	0	0	0
2019/11/22 23:53:00	BASE	1.49	167	2.16	170	0.5	100	0.5	33	0	992.7	NA	0.0000	UP BR	2900	1310	0	0	0
2019/11/22 23:54:00	BASE	1.91	173	2.52	159	0.4	100	0.4	35	0	992.7	NA	0.0000	UP BR	2700	1050	0	0	0
2019/11/22 23:55:00	BASE	1.56	180	2.52	159	0.3	100	0.3	36	0	992.7	NA	0.0000	UP BR	2700	2130	0	0	0
2019/11/22 23:56:00	BASE	0.82	172	2.52	159	0.3	100	0.3	36	0	992.7	NA	0.0000	UP BR	2700	0	0	0	2720
2019/11/22 23:57:00	BASE	0.80	174	2.52	159	0.3	100	0.3	36	0	992.7	NA	0.0000	UP BR	2700	1440	0	0	0
2019/11/22 23:58:00	BASE	0.61	227	2.52	159	0.3	100	0.3	34	0	992.7	NA	0.0000	UP BR	2700	2760	0	0	0
2019/11/22 23:59:00	BASE	1.95	295	6.94	267	0.4	100	0.4	32	0	992.6	NA	0.0000	UP BR	2800	3580	0	0	0